<?xml version="1.0" encoding="UTF-8" standalone="no" ?>
<gpx xmlns="http://www.topografix.com/GPX/1/1" xmlns:xsi="http://www.w3.org/2001/XMLSchema-instance" xsi:schemaLocation="http://www.topografix.com/GPX/1/1 http://www.topografix.com/GPX/1/1/gpx.xsd" version="1.1" creator="VisuGPX - https://www.visugpx.com">
  <metadata>
    <name>FOOTING EN VILLE AVEC DELPHINE</name>
    <desc><![CDATA[FOOTING EN VILLE AVEC DELPHINE]]></desc>
  </metadata>
  <trk>
    <name><![CDATA[FOOTING EN VILLE AVEC DELPHINE_1]]></name>
    <trkseg>
      <trkpt lat="45.7681" lon="4.8037">
        <ele>257.9</ele>
        <time>2018-11-18T08:43:47Z</time>
      </trkpt>
      <trkpt lat="45.7681" lon="4.8037">
        <ele>257.9</ele>
        <time>2018-11-18T08:43:56Z</time>
      </trkpt>
      <trkpt lat="45.76816" lon="4.80381">
        <ele>250.5</ele>
        <time>2018-11-18T08:44:00Z</time>
      </trkpt>
      <trkpt lat="45.76814" lon="4.80375">
        <ele>239.2</ele>
        <time>2018-11-18T08:44:07Z</time>
      </trkpt>
      <trkpt lat="45.76823" lon="4.80373">
        <ele>233.7</ele>
        <time>2018-11-18T08:44:13Z</time>
      </trkpt>
      <trkpt lat="45.7683" lon="4.80371">
        <ele>232.7</ele>
        <time>2018-11-18T08:44:15Z</time>
      </trkpt>
      <trkpt lat="45.76838" lon="4.80377">
        <ele>230.2</ele>
        <time>2018-11-18T08:44:19Z</time>
      </trkpt>
      <trkpt lat="45.76847" lon="4.80378">
        <ele>230.1</ele>
        <time>2018-11-18T08:44:22Z</time>
      </trkpt>
      <trkpt lat="45.76855" lon="4.80376">
        <ele>229.8</ele>
        <time>2018-11-18T08:44:26Z</time>
      </trkpt>
      <trkpt lat="45.76863" lon="4.80376">
        <ele>229.1</ele>
        <time>2018-11-18T08:44:31Z</time>
      </trkpt>
      <trkpt lat="45.76872" lon="4.80375">
        <ele>228.9</ele>
        <time>2018-11-18T08:44:34Z</time>
      </trkpt>
      <trkpt lat="45.76879" lon="4.80378">
        <ele>228.7</ele>
        <time>2018-11-18T08:44:36Z</time>
      </trkpt>
      <trkpt lat="45.76889" lon="4.80379">
        <ele>228.3</ele>
        <time>2018-11-18T08:44:39Z</time>
      </trkpt>
      <trkpt lat="45.76898" lon="4.80379">
        <ele>227.7</ele>
        <time>2018-11-18T08:44:43Z</time>
      </trkpt>
      <trkpt lat="45.76906" lon="4.80374">
        <ele>226.7</ele>
        <time>2018-11-18T08:44:48Z</time>
      </trkpt>
      <trkpt lat="45.76914" lon="4.8037">
        <ele>225.7</ele>
        <time>2018-11-18T08:44:52Z</time>
      </trkpt>
      <trkpt lat="45.76921" lon="4.80365">
        <ele>224.7</ele>
        <time>2018-11-18T08:44:56Z</time>
      </trkpt>
      <trkpt lat="45.76929" lon="4.80361">
        <ele>223.6</ele>
        <time>2018-11-18T08:45:00Z</time>
      </trkpt>
      <trkpt lat="45.76938" lon="4.80357">
        <ele>222.5</ele>
        <time>2018-11-18T08:45:03Z</time>
      </trkpt>
      <trkpt lat="45.76946" lon="4.80355">
        <ele>221.1</ele>
        <time>2018-11-18T08:45:07Z</time>
      </trkpt>
      <trkpt lat="45.76953" lon="4.80352">
        <ele>220.1</ele>
        <time>2018-11-18T08:45:10Z</time>
      </trkpt>
      <trkpt lat="45.76961" lon="4.80349">
        <ele>219.1</ele>
        <time>2018-11-18T08:45:13Z</time>
      </trkpt>
      <trkpt lat="45.76969" lon="4.80349">
        <ele>218.3</ele>
        <time>2018-11-18T08:45:16Z</time>
      </trkpt>
      <trkpt lat="45.76983" lon="4.80344">
        <ele>217.1</ele>
        <time>2018-11-18T08:45:21Z</time>
      </trkpt>
      <trkpt lat="45.7699" lon="4.80336">
        <ele>216.9</ele>
        <time>2018-11-18T08:45:23Z</time>
      </trkpt>
      <trkpt lat="45.76993" lon="4.80326">
        <ele>216.7</ele>
        <time>2018-11-18T08:45:27Z</time>
      </trkpt>
      <trkpt lat="45.77" lon="4.8032">
        <ele>216.5</ele>
        <time>2018-11-18T08:45:34Z</time>
      </trkpt>
      <trkpt lat="45.77009" lon="4.80314">
        <ele>216.3</ele>
        <time>2018-11-18T08:45:39Z</time>
      </trkpt>
      <trkpt lat="45.77015" lon="4.80307">
        <ele>216.1</ele>
        <time>2018-11-18T08:45:42Z</time>
      </trkpt>
      <trkpt lat="45.77022" lon="4.803">
        <ele>215.9</ele>
        <time>2018-11-18T08:45:46Z</time>
      </trkpt>
      <trkpt lat="45.77029" lon="4.80292">
        <ele>216</ele>
        <time>2018-11-18T08:45:50Z</time>
      </trkpt>
      <trkpt lat="45.77035" lon="4.80285">
        <ele>216.1</ele>
        <time>2018-11-18T08:45:53Z</time>
      </trkpt>
      <trkpt lat="45.77042" lon="4.80277">
        <ele>216.4</ele>
        <time>2018-11-18T08:45:56Z</time>
      </trkpt>
      <trkpt lat="45.77048" lon="4.8027">
        <ele>216.8</ele>
        <time>2018-11-18T08:45:59Z</time>
      </trkpt>
      <trkpt lat="45.77056" lon="4.80262">
        <ele>217.4</ele>
        <time>2018-11-18T08:46:03Z</time>
      </trkpt>
      <trkpt lat="45.77063" lon="4.80257">
        <ele>217.9</ele>
        <time>2018-11-18T08:46:06Z</time>
      </trkpt>
      <trkpt lat="45.7707" lon="4.80253">
        <ele>218.4</ele>
        <time>2018-11-18T08:46:10Z</time>
      </trkpt>
      <trkpt lat="45.77076" lon="4.80249">
        <ele>218.8</ele>
        <time>2018-11-18T08:46:14Z</time>
      </trkpt>
      <trkpt lat="45.77085" lon="4.80246">
        <ele>219</ele>
        <time>2018-11-18T08:46:18Z</time>
      </trkpt>
      <trkpt lat="45.77093" lon="4.80247">
        <ele>219</ele>
        <time>2018-11-18T08:46:23Z</time>
      </trkpt>
      <trkpt lat="45.771" lon="4.80239">
        <ele>218.7</ele>
        <time>2018-11-18T08:46:29Z</time>
      </trkpt>
      <trkpt lat="45.77107" lon="4.80235">
        <ele>218.5</ele>
        <time>2018-11-18T08:46:32Z</time>
      </trkpt>
      <trkpt lat="45.77114" lon="4.8023">
        <ele>218.2</ele>
        <time>2018-11-18T08:46:36Z</time>
      </trkpt>
      <trkpt lat="45.77122" lon="4.80223">
        <ele>218.1</ele>
        <time>2018-11-18T08:46:40Z</time>
      </trkpt>
      <trkpt lat="45.77128" lon="4.80213">
        <ele>217.9</ele>
        <time>2018-11-18T08:46:43Z</time>
      </trkpt>
      <trkpt lat="45.77136" lon="4.80209">
        <ele>217.9</ele>
        <time>2018-11-18T08:46:46Z</time>
      </trkpt>
      <trkpt lat="45.77143" lon="4.80205">
        <ele>217.9</ele>
        <time>2018-11-18T08:46:49Z</time>
      </trkpt>
      <trkpt lat="45.7715" lon="4.80201">
        <ele>217.9</ele>
        <time>2018-11-18T08:46:53Z</time>
      </trkpt>
      <trkpt lat="45.77158" lon="4.80198">
        <ele>217.9</ele>
        <time>2018-11-18T08:46:58Z</time>
      </trkpt>
      <trkpt lat="45.77167" lon="4.80198">
        <ele>217.5</ele>
        <time>2018-11-18T08:47:05Z</time>
      </trkpt>
      <trkpt lat="45.77175" lon="4.80197">
        <ele>217</ele>
        <time>2018-11-18T08:47:09Z</time>
      </trkpt>
      <trkpt lat="45.77183" lon="4.80193">
        <ele>216.6</ele>
        <time>2018-11-18T08:47:15Z</time>
      </trkpt>
      <trkpt lat="45.7719" lon="4.80191">
        <ele>216.8</ele>
        <time>2018-11-18T08:47:20Z</time>
      </trkpt>
      <trkpt lat="45.77199" lon="4.80187">
        <ele>217.6</ele>
        <time>2018-11-18T08:47:25Z</time>
      </trkpt>
      <trkpt lat="45.77206" lon="4.80184">
        <ele>218.4</ele>
        <time>2018-11-18T08:47:29Z</time>
      </trkpt>
      <trkpt lat="45.77218" lon="4.80183">
        <ele>219</ele>
        <time>2018-11-18T08:47:33Z</time>
      </trkpt>
      <trkpt lat="45.77227" lon="4.80181">
        <ele>219</ele>
        <time>2018-11-18T08:47:35Z</time>
      </trkpt>
      <trkpt lat="45.77236" lon="4.80179">
        <ele>218.6</ele>
        <time>2018-11-18T08:47:38Z</time>
      </trkpt>
      <trkpt lat="45.77244" lon="4.80177">
        <ele>218.1</ele>
        <time>2018-11-18T08:47:41Z</time>
      </trkpt>
      <trkpt lat="45.77252" lon="4.80173">
        <ele>217.6</ele>
        <time>2018-11-18T08:47:44Z</time>
      </trkpt>
      <trkpt lat="45.77259" lon="4.80168">
        <ele>217.1</ele>
        <time>2018-11-18T08:47:47Z</time>
      </trkpt>
      <trkpt lat="45.77264" lon="4.80162">
        <ele>216.7</ele>
        <time>2018-11-18T08:47:50Z</time>
      </trkpt>
      <trkpt lat="45.7727" lon="4.80155">
        <ele>216.2</ele>
        <time>2018-11-18T08:47:53Z</time>
      </trkpt>
      <trkpt lat="45.77275" lon="4.80147">
        <ele>215.7</ele>
        <time>2018-11-18T08:47:56Z</time>
      </trkpt>
      <trkpt lat="45.77281" lon="4.80139">
        <ele>215.3</ele>
        <time>2018-11-18T08:47:59Z</time>
      </trkpt>
      <trkpt lat="45.77286" lon="4.80131">
        <ele>214.8</ele>
        <time>2018-11-18T08:48:02Z</time>
      </trkpt>
      <trkpt lat="45.77291" lon="4.80122">
        <ele>214.4</ele>
        <time>2018-11-18T08:48:05Z</time>
      </trkpt>
      <trkpt lat="45.77297" lon="4.80113">
        <ele>213.9</ele>
        <time>2018-11-18T08:48:09Z</time>
      </trkpt>
      <trkpt lat="45.77303" lon="4.80107">
        <ele>213.6</ele>
        <time>2018-11-18T08:48:12Z</time>
      </trkpt>
      <trkpt lat="45.7731" lon="4.80099">
        <ele>213.2</ele>
        <time>2018-11-18T08:48:16Z</time>
      </trkpt>
      <trkpt lat="45.77316" lon="4.8009">
        <ele>213</ele>
        <time>2018-11-18T08:48:20Z</time>
      </trkpt>
      <trkpt lat="45.77322" lon="4.80082">
        <ele>212.9</ele>
        <time>2018-11-18T08:48:24Z</time>
      </trkpt>
      <trkpt lat="45.77327" lon="4.80073">
        <ele>212.5</ele>
        <time>2018-11-18T08:48:31Z</time>
      </trkpt>
      <trkpt lat="45.77332" lon="4.80065">
        <ele>212.1</ele>
        <time>2018-11-18T08:48:35Z</time>
      </trkpt>
      <trkpt lat="45.77339" lon="4.80057">
        <ele>211.6</ele>
        <time>2018-11-18T08:48:39Z</time>
      </trkpt>
      <trkpt lat="45.77347" lon="4.80055">
        <ele>210.6</ele>
        <time>2018-11-18T08:48:45Z</time>
      </trkpt>
      <trkpt lat="45.77353" lon="4.80062">
        <ele>209.9</ele>
        <time>2018-11-18T08:48:48Z</time>
      </trkpt>
      <trkpt lat="45.77361" lon="4.8007">
        <ele>208.8</ele>
        <time>2018-11-18T08:48:52Z</time>
      </trkpt>
      <trkpt lat="45.77368" lon="4.80077">
        <ele>207.7</ele>
        <time>2018-11-18T08:48:56Z</time>
      </trkpt>
      <trkpt lat="45.77375" lon="4.80083">
        <ele>206.7</ele>
        <time>2018-11-18T08:49:00Z</time>
      </trkpt>
      <trkpt lat="45.77382" lon="4.8009">
        <ele>205.7</ele>
        <time>2018-11-18T08:49:04Z</time>
      </trkpt>
      <trkpt lat="45.77388" lon="4.80098">
        <ele>204.7</ele>
        <time>2018-11-18T08:49:08Z</time>
      </trkpt>
      <trkpt lat="45.77393" lon="4.80104">
        <ele>203.8</ele>
        <time>2018-11-18T08:49:11Z</time>
      </trkpt>
      <trkpt lat="45.77396" lon="4.80115">
        <ele>202.6</ele>
        <time>2018-11-18T08:49:15Z</time>
      </trkpt>
      <trkpt lat="45.774" lon="4.80125">
        <ele>200.6</ele>
        <time>2018-11-18T08:49:21Z</time>
      </trkpt>
      <trkpt lat="45.77402" lon="4.80136">
        <ele>199.2</ele>
        <time>2018-11-18T08:49:25Z</time>
      </trkpt>
      <trkpt lat="45.77405" lon="4.8015">
        <ele>197.7</ele>
        <time>2018-11-18T08:49:29Z</time>
      </trkpt>
      <trkpt lat="45.77411" lon="4.80156">
        <ele>196.7</ele>
        <time>2018-11-18T08:49:33Z</time>
      </trkpt>
      <trkpt lat="45.77419" lon="4.80158">
        <ele>195.8</ele>
        <time>2018-11-18T08:49:38Z</time>
      </trkpt>
      <trkpt lat="45.77426" lon="4.80158">
        <ele>194.6</ele>
        <time>2018-11-18T08:49:42Z</time>
      </trkpt>
      <trkpt lat="45.77436" lon="4.80153">
        <ele>193.8</ele>
        <time>2018-11-18T08:49:46Z</time>
      </trkpt>
      <trkpt lat="45.77443" lon="4.80148">
        <ele>193.4</ele>
        <time>2018-11-18T08:49:48Z</time>
      </trkpt>
      <trkpt lat="45.77451" lon="4.80145">
        <ele>192.5</ele>
        <time>2018-11-18T08:49:52Z</time>
      </trkpt>
      <trkpt lat="45.77458" lon="4.80147">
        <ele>191.8</ele>
        <time>2018-11-18T08:49:56Z</time>
      </trkpt>
      <trkpt lat="45.77466" lon="4.80151">
        <ele>191</ele>
        <time>2018-11-18T08:50:00Z</time>
      </trkpt>
      <trkpt lat="45.77474" lon="4.80154">
        <ele>190.1</ele>
        <time>2018-11-18T08:50:04Z</time>
      </trkpt>
      <trkpt lat="45.77481" lon="4.80158">
        <ele>189.4</ele>
        <time>2018-11-18T08:50:08Z</time>
      </trkpt>
      <trkpt lat="45.77489" lon="4.80161">
        <ele>188.7</ele>
        <time>2018-11-18T08:50:12Z</time>
      </trkpt>
      <trkpt lat="45.77498" lon="4.80162">
        <ele>188.6</ele>
        <time>2018-11-18T08:50:18Z</time>
      </trkpt>
      <trkpt lat="45.77505" lon="4.80166">
        <ele>189.2</ele>
        <time>2018-11-18T08:50:23Z</time>
      </trkpt>
      <trkpt lat="45.77508" lon="4.80176">
        <ele>189.8</ele>
        <time>2018-11-18T08:50:26Z</time>
      </trkpt>
      <trkpt lat="45.77514" lon="4.80185">
        <ele>190.6</ele>
        <time>2018-11-18T08:50:30Z</time>
      </trkpt>
      <trkpt lat="45.77521" lon="4.8019">
        <ele>191.5</ele>
        <time>2018-11-18T08:50:34Z</time>
      </trkpt>
      <trkpt lat="45.77529" lon="4.80192">
        <ele>192.7</ele>
        <time>2018-11-18T08:50:38Z</time>
      </trkpt>
      <trkpt lat="45.77538" lon="4.8019">
        <ele>193.5</ele>
        <time>2018-11-18T08:50:40Z</time>
      </trkpt>
      <trkpt lat="45.77545" lon="4.80193">
        <ele>194.4</ele>
        <time>2018-11-18T08:50:43Z</time>
      </trkpt>
      <trkpt lat="45.77553" lon="4.80197">
        <ele>195.4</ele>
        <time>2018-11-18T08:50:46Z</time>
      </trkpt>
      <trkpt lat="45.7756" lon="4.802">
        <ele>196.4</ele>
        <time>2018-11-18T08:50:49Z</time>
      </trkpt>
      <trkpt lat="45.77566" lon="4.80211">
        <ele>197.7</ele>
        <time>2018-11-18T08:50:53Z</time>
      </trkpt>
      <trkpt lat="45.77573" lon="4.80215">
        <ele>198.4</ele>
        <time>2018-11-18T08:50:56Z</time>
      </trkpt>
      <trkpt lat="45.77579" lon="4.80221">
        <ele>198.7</ele>
        <time>2018-11-18T08:50:59Z</time>
      </trkpt>
      <trkpt lat="45.77585" lon="4.80229">
        <ele>198.6</ele>
        <time>2018-11-18T08:51:02Z</time>
      </trkpt>
      <trkpt lat="45.77588" lon="4.80239">
        <ele>198.1</ele>
        <time>2018-11-18T08:51:06Z</time>
      </trkpt>
      <trkpt lat="45.77594" lon="4.80246">
        <ele>196.8</ele>
        <time>2018-11-18T08:51:11Z</time>
      </trkpt>
      <trkpt lat="45.776" lon="4.80256">
        <ele>195</ele>
        <time>2018-11-18T08:51:16Z</time>
      </trkpt>
      <trkpt lat="45.77604" lon="4.80265">
        <ele>193.4</ele>
        <time>2018-11-18T08:51:20Z</time>
      </trkpt>
      <trkpt lat="45.77607" lon="4.80277">
        <ele>192</ele>
        <time>2018-11-18T08:51:24Z</time>
      </trkpt>
      <trkpt lat="45.77611" lon="4.80289">
        <ele>191</ele>
        <time>2018-11-18T08:51:27Z</time>
      </trkpt>
      <trkpt lat="45.7762" lon="4.80291">
        <ele>189.9</ele>
        <time>2018-11-18T08:51:32Z</time>
      </trkpt>
      <trkpt lat="45.77627" lon="4.80294">
        <ele>190.1</ele>
        <time>2018-11-18T08:51:38Z</time>
      </trkpt>
      <trkpt lat="45.77629" lon="4.80305">
        <ele>190.5</ele>
        <time>2018-11-18T08:51:41Z</time>
      </trkpt>
      <trkpt lat="45.77631" lon="4.80315">
        <ele>191.1</ele>
        <time>2018-11-18T08:51:44Z</time>
      </trkpt>
      <trkpt lat="45.77636" lon="4.80324">
        <ele>191.7</ele>
        <time>2018-11-18T08:51:47Z</time>
      </trkpt>
      <trkpt lat="45.77641" lon="4.80333">
        <ele>192.9</ele>
        <time>2018-11-18T08:51:52Z</time>
      </trkpt>
      <trkpt lat="45.77646" lon="4.8034">
        <ele>193.4</ele>
        <time>2018-11-18T08:51:55Z</time>
      </trkpt>
      <trkpt lat="45.77653" lon="4.80349">
        <ele>194</ele>
        <time>2018-11-18T08:51:58Z</time>
      </trkpt>
      <trkpt lat="45.77662" lon="4.80352">
        <ele>194.4</ele>
        <time>2018-11-18T08:52:02Z</time>
      </trkpt>
      <trkpt lat="45.77669" lon="4.80355">
        <ele>194.4</ele>
        <time>2018-11-18T08:52:05Z</time>
      </trkpt>
      <trkpt lat="45.77674" lon="4.80365">
        <ele>194.2</ele>
        <time>2018-11-18T08:52:09Z</time>
      </trkpt>
      <trkpt lat="45.77684" lon="4.80367">
        <ele>194</ele>
        <time>2018-11-18T08:52:11Z</time>
      </trkpt>
      <trkpt lat="45.77692" lon="4.80367">
        <ele>194</ele>
        <time>2018-11-18T08:52:13Z</time>
      </trkpt>
      <trkpt lat="45.77698" lon="4.80373">
        <ele>193.9</ele>
        <time>2018-11-18T08:52:17Z</time>
      </trkpt>
      <trkpt lat="45.77703" lon="4.80382">
        <ele>193.8</ele>
        <time>2018-11-18T08:52:20Z</time>
      </trkpt>
      <trkpt lat="45.77707" lon="4.80392">
        <ele>193.6</ele>
        <time>2018-11-18T08:52:24Z</time>
      </trkpt>
      <trkpt lat="45.77712" lon="4.804">
        <ele>193.5</ele>
        <time>2018-11-18T08:52:28Z</time>
      </trkpt>
      <trkpt lat="45.77718" lon="4.80407">
        <ele>193.3</ele>
        <time>2018-11-18T08:52:32Z</time>
      </trkpt>
      <trkpt lat="45.77722" lon="4.80418">
        <ele>193</ele>
        <time>2018-11-18T08:52:36Z</time>
      </trkpt>
      <trkpt lat="45.77725" lon="4.8043">
        <ele>192.8</ele>
        <time>2018-11-18T08:52:40Z</time>
      </trkpt>
      <trkpt lat="45.77728" lon="4.80441">
        <ele>192.5</ele>
        <time>2018-11-18T08:52:44Z</time>
      </trkpt>
      <trkpt lat="45.77729" lon="4.80451">
        <ele>192.1</ele>
        <time>2018-11-18T08:52:48Z</time>
      </trkpt>
      <trkpt lat="45.77734" lon="4.80462">
        <ele>191.5</ele>
        <time>2018-11-18T08:52:52Z</time>
      </trkpt>
      <trkpt lat="45.77738" lon="4.80472">
        <ele>191.2</ele>
        <time>2018-11-18T08:52:55Z</time>
      </trkpt>
      <trkpt lat="45.77741" lon="4.80481">
        <ele>190.9</ele>
        <time>2018-11-18T08:52:58Z</time>
      </trkpt>
      <trkpt lat="45.77744" lon="4.80494">
        <ele>190.5</ele>
        <time>2018-11-18T08:53:02Z</time>
      </trkpt>
      <trkpt lat="45.77748" lon="4.80505">
        <ele>190.2</ele>
        <time>2018-11-18T08:53:05Z</time>
      </trkpt>
      <trkpt lat="45.77751" lon="4.80514">
        <ele>189.9</ele>
        <time>2018-11-18T08:53:08Z</time>
      </trkpt>
      <trkpt lat="45.77755" lon="4.80526">
        <ele>189.6</ele>
        <time>2018-11-18T08:53:12Z</time>
      </trkpt>
      <trkpt lat="45.77758" lon="4.80538">
        <ele>189.5</ele>
        <time>2018-11-18T08:53:16Z</time>
      </trkpt>
      <trkpt lat="45.77761" lon="4.80547">
        <ele>189.8</ele>
        <time>2018-11-18T08:53:19Z</time>
      </trkpt>
      <trkpt lat="45.77763" lon="4.8056">
        <ele>190.1</ele>
        <time>2018-11-18T08:53:23Z</time>
      </trkpt>
      <trkpt lat="45.77763" lon="4.80571">
        <ele>190.2</ele>
        <time>2018-11-18T08:53:27Z</time>
      </trkpt>
      <trkpt lat="45.7777" lon="4.80579">
        <ele>189.9</ele>
        <time>2018-11-18T08:53:31Z</time>
      </trkpt>
      <trkpt lat="45.77779" lon="4.80579">
        <ele>189.3</ele>
        <time>2018-11-18T08:53:35Z</time>
      </trkpt>
      <trkpt lat="45.77783" lon="4.80587">
        <ele>188.6</ele>
        <time>2018-11-18T08:53:39Z</time>
      </trkpt>
      <trkpt lat="45.77788" lon="4.80599">
        <ele>188.1</ele>
        <time>2018-11-18T08:53:43Z</time>
      </trkpt>
      <trkpt lat="45.77791" lon="4.80611">
        <ele>187.8</ele>
        <time>2018-11-18T08:53:46Z</time>
      </trkpt>
      <trkpt lat="45.77798" lon="4.80621">
        <ele>187.5</ele>
        <time>2018-11-18T08:53:50Z</time>
      </trkpt>
      <trkpt lat="45.77805" lon="4.80628">
        <ele>187.3</ele>
        <time>2018-11-18T08:53:53Z</time>
      </trkpt>
      <trkpt lat="45.77811" lon="4.80636">
        <ele>187.3</ele>
        <time>2018-11-18T08:53:56Z</time>
      </trkpt>
      <trkpt lat="45.77817" lon="4.80645">
        <ele>187.3</ele>
        <time>2018-11-18T08:53:59Z</time>
      </trkpt>
      <trkpt lat="45.77821" lon="4.80657">
        <ele>187.6</ele>
        <time>2018-11-18T08:54:03Z</time>
      </trkpt>
      <trkpt lat="45.77825" lon="4.80668">
        <ele>187.9</ele>
        <time>2018-11-18T08:54:07Z</time>
      </trkpt>
      <trkpt lat="45.77826" lon="4.8068">
        <ele>188</ele>
        <time>2018-11-18T08:54:11Z</time>
      </trkpt>
      <trkpt lat="45.77829" lon="4.80693">
        <ele>188.1</ele>
        <time>2018-11-18T08:54:15Z</time>
      </trkpt>
      <trkpt lat="45.77828" lon="4.80704">
        <ele>188</ele>
        <time>2018-11-18T08:54:21Z</time>
      </trkpt>
      <trkpt lat="45.77832" lon="4.80714">
        <ele>187.8</ele>
        <time>2018-11-18T08:54:24Z</time>
      </trkpt>
      <trkpt lat="45.77836" lon="4.80726">
        <ele>187.8</ele>
        <time>2018-11-18T08:54:28Z</time>
      </trkpt>
      <trkpt lat="45.77836" lon="4.80737">
        <ele>187.9</ele>
        <time>2018-11-18T08:54:33Z</time>
      </trkpt>
      <trkpt lat="45.77832" lon="4.80745">
        <ele>188.2</ele>
        <time>2018-11-18T08:54:37Z</time>
      </trkpt>
      <trkpt lat="45.77827" lon="4.80755">
        <ele>188.3</ele>
        <time>2018-11-18T08:54:42Z</time>
      </trkpt>
      <trkpt lat="45.77822" lon="4.80764">
        <ele>187.9</ele>
        <time>2018-11-18T08:54:46Z</time>
      </trkpt>
      <trkpt lat="45.77826" lon="4.80769">
        <ele>187</ele>
        <time>2018-11-18T08:54:53Z</time>
      </trkpt>
      <trkpt lat="45.77831" lon="4.80779">
        <ele>185.6</ele>
        <time>2018-11-18T08:54:58Z</time>
      </trkpt>
      <trkpt lat="45.77835" lon="4.8079">
        <ele>185.1</ele>
        <time>2018-11-18T08:55:00Z</time>
      </trkpt>
      <trkpt lat="45.77838" lon="4.80806">
        <ele>184.9</ele>
        <time>2018-11-18T08:55:02Z</time>
      </trkpt>
      <trkpt lat="45.77842" lon="4.80814">
        <ele>185</ele>
        <time>2018-11-18T08:55:03Z</time>
      </trkpt>
      <trkpt lat="45.77845" lon="4.80825">
        <ele>185.6</ele>
        <time>2018-11-18T08:55:05Z</time>
      </trkpt>
      <trkpt lat="45.77845" lon="4.80838">
        <ele>186.8</ele>
        <time>2018-11-18T08:55:08Z</time>
      </trkpt>
      <trkpt lat="45.77844" lon="4.80851">
        <ele>188.1</ele>
        <time>2018-11-18T08:55:11Z</time>
      </trkpt>
      <trkpt lat="45.77842" lon="4.80862">
        <ele>189.6</ele>
        <time>2018-11-18T08:55:14Z</time>
      </trkpt>
      <trkpt lat="45.7784" lon="4.80873">
        <ele>191.6</ele>
        <time>2018-11-18T08:55:18Z</time>
      </trkpt>
      <trkpt lat="45.77838" lon="4.80885">
        <ele>193.6</ele>
        <time>2018-11-18T08:55:22Z</time>
      </trkpt>
      <trkpt lat="45.77836" lon="4.80895">
        <ele>195.5</ele>
        <time>2018-11-18T08:55:26Z</time>
      </trkpt>
      <trkpt lat="45.77835" lon="4.80907">
        <ele>197.4</ele>
        <time>2018-11-18T08:55:30Z</time>
      </trkpt>
      <trkpt lat="45.77833" lon="4.80918">
        <ele>198.8</ele>
        <time>2018-11-18T08:55:33Z</time>
      </trkpt>
      <trkpt lat="45.77831" lon="4.80931">
        <ele>200.9</ele>
        <time>2018-11-18T08:55:38Z</time>
      </trkpt>
      <trkpt lat="45.77829" lon="4.80942">
        <ele>202</ele>
        <time>2018-11-18T08:55:41Z</time>
      </trkpt>
      <trkpt lat="45.77826" lon="4.80954">
        <ele>203.4</ele>
        <time>2018-11-18T08:55:45Z</time>
      </trkpt>
      <trkpt lat="45.77824" lon="4.80965">
        <ele>204.5</ele>
        <time>2018-11-18T08:55:49Z</time>
      </trkpt>
      <trkpt lat="45.77822" lon="4.80977">
        <ele>205.6</ele>
        <time>2018-11-18T08:55:53Z</time>
      </trkpt>
      <trkpt lat="45.7782" lon="4.80989">
        <ele>206.6</ele>
        <time>2018-11-18T08:55:57Z</time>
      </trkpt>
      <trkpt lat="45.77818" lon="4.81003">
        <ele>207.5</ele>
        <time>2018-11-18T08:56:01Z</time>
      </trkpt>
      <trkpt lat="45.77816" lon="4.81013">
        <ele>208.1</ele>
        <time>2018-11-18T08:56:04Z</time>
      </trkpt>
      <trkpt lat="45.77814" lon="4.81023">
        <ele>209</ele>
        <time>2018-11-18T08:56:08Z</time>
      </trkpt>
      <trkpt lat="45.77812" lon="4.81035">
        <ele>209.6</ele>
        <time>2018-11-18T08:56:12Z</time>
      </trkpt>
      <trkpt lat="45.77809" lon="4.81047">
        <ele>210.1</ele>
        <time>2018-11-18T08:56:15Z</time>
      </trkpt>
      <trkpt lat="45.77809" lon="4.81059">
        <ele>210.6</ele>
        <time>2018-11-18T08:56:19Z</time>
      </trkpt>
      <trkpt lat="45.77816" lon="4.81068">
        <ele>211</ele>
        <time>2018-11-18T08:56:23Z</time>
      </trkpt>
      <trkpt lat="45.77823" lon="4.81076">
        <ele>211.3</ele>
        <time>2018-11-18T08:56:27Z</time>
      </trkpt>
      <trkpt lat="45.77828" lon="4.81085">
        <ele>211.6</ele>
        <time>2018-11-18T08:56:31Z</time>
      </trkpt>
      <trkpt lat="45.77836" lon="4.81093">
        <ele>211.7</ele>
        <time>2018-11-18T08:56:34Z</time>
      </trkpt>
      <trkpt lat="45.77843" lon="4.81097">
        <ele>211.8</ele>
        <time>2018-11-18T08:56:37Z</time>
      </trkpt>
      <trkpt lat="45.77851" lon="4.811">
        <ele>211.8</ele>
        <time>2018-11-18T08:56:41Z</time>
      </trkpt>
      <trkpt lat="45.7786" lon="4.81102">
        <ele>211.7</ele>
        <time>2018-11-18T08:56:45Z</time>
      </trkpt>
      <trkpt lat="45.77867" lon="4.81105">
        <ele>211.4</ele>
        <time>2018-11-18T08:56:48Z</time>
      </trkpt>
      <trkpt lat="45.77876" lon="4.81108">
        <ele>211</ele>
        <time>2018-11-18T08:56:52Z</time>
      </trkpt>
      <trkpt lat="45.77883" lon="4.8111">
        <ele>210.6</ele>
        <time>2018-11-18T08:56:55Z</time>
      </trkpt>
      <trkpt lat="45.77892" lon="4.81113">
        <ele>210</ele>
        <time>2018-11-18T08:56:59Z</time>
      </trkpt>
      <trkpt lat="45.779" lon="4.8111">
        <ele>209.2</ele>
        <time>2018-11-18T08:57:04Z</time>
      </trkpt>
      <trkpt lat="45.77897" lon="4.81101">
        <ele>208.3</ele>
        <time>2018-11-18T08:57:11Z</time>
      </trkpt>
      <trkpt lat="45.77889" lon="4.81093">
        <ele>207.8</ele>
        <time>2018-11-18T08:57:15Z</time>
      </trkpt>
      <trkpt lat="45.77883" lon="4.81087">
        <ele>207.5</ele>
        <time>2018-11-18T08:57:18Z</time>
      </trkpt>
      <trkpt lat="45.77875" lon="4.8108">
        <ele>207</ele>
        <time>2018-11-18T08:57:22Z</time>
      </trkpt>
      <trkpt lat="45.77867" lon="4.81073">
        <ele>206.5</ele>
        <time>2018-11-18T08:57:26Z</time>
      </trkpt>
      <trkpt lat="45.77859" lon="4.81067">
        <ele>206</ele>
        <time>2018-11-18T08:57:30Z</time>
      </trkpt>
      <trkpt lat="45.77852" lon="4.81061">
        <ele>205.6</ele>
        <time>2018-11-18T08:57:33Z</time>
      </trkpt>
      <trkpt lat="45.77844" lon="4.81054">
        <ele>205.1</ele>
        <time>2018-11-18T08:57:37Z</time>
      </trkpt>
      <trkpt lat="45.77838" lon="4.81049">
        <ele>204.8</ele>
        <time>2018-11-18T08:57:40Z</time>
      </trkpt>
      <trkpt lat="45.7783" lon="4.81042">
        <ele>204.3</ele>
        <time>2018-11-18T08:57:45Z</time>
      </trkpt>
      <trkpt lat="45.77822" lon="4.8104">
        <ele>204.1</ele>
        <time>2018-11-18T08:57:50Z</time>
      </trkpt>
      <trkpt lat="45.77815" lon="4.81042">
        <ele>203.8</ele>
        <time>2018-11-18T08:57:54Z</time>
      </trkpt>
      <trkpt lat="45.77806" lon="4.81043">
        <ele>203.5</ele>
        <time>2018-11-18T08:57:57Z</time>
      </trkpt>
      <trkpt lat="45.77798" lon="4.81045">
        <ele>203.2</ele>
        <time>2018-11-18T08:58:00Z</time>
      </trkpt>
      <trkpt lat="45.77788" lon="4.81044">
        <ele>202.8</ele>
        <time>2018-11-18T08:58:04Z</time>
      </trkpt>
      <trkpt lat="45.77779" lon="4.81042">
        <ele>202.5</ele>
        <time>2018-11-18T08:58:08Z</time>
      </trkpt>
      <trkpt lat="45.77771" lon="4.8104">
        <ele>202.2</ele>
        <time>2018-11-18T08:58:11Z</time>
      </trkpt>
      <trkpt lat="45.77763" lon="4.81037">
        <ele>201.9</ele>
        <time>2018-11-18T08:58:15Z</time>
      </trkpt>
      <trkpt lat="45.77754" lon="4.81035">
        <ele>201.6</ele>
        <time>2018-11-18T08:58:19Z</time>
      </trkpt>
      <trkpt lat="45.77747" lon="4.81035">
        <ele>201.5</ele>
        <time>2018-11-18T08:58:22Z</time>
      </trkpt>
      <trkpt lat="45.77739" lon="4.81034">
        <ele>201.4</ele>
        <time>2018-11-18T08:58:26Z</time>
      </trkpt>
      <trkpt lat="45.77731" lon="4.81033">
        <ele>201.3</ele>
        <time>2018-11-18T08:58:30Z</time>
      </trkpt>
      <trkpt lat="45.77723" lon="4.81031">
        <ele>201.2</ele>
        <time>2018-11-18T08:58:34Z</time>
      </trkpt>
      <trkpt lat="45.77714" lon="4.81029">
        <ele>201.2</ele>
        <time>2018-11-18T08:58:38Z</time>
      </trkpt>
      <trkpt lat="45.77705" lon="4.81028">
        <ele>201.2</ele>
        <time>2018-11-18T08:58:42Z</time>
      </trkpt>
      <trkpt lat="45.77697" lon="4.81025">
        <ele>201.2</ele>
        <time>2018-11-18T08:58:46Z</time>
      </trkpt>
      <trkpt lat="45.77688" lon="4.81023">
        <ele>201.2</ele>
        <time>2018-11-18T08:58:50Z</time>
      </trkpt>
      <trkpt lat="45.7768" lon="4.81021">
        <ele>201.2</ele>
        <time>2018-11-18T08:58:54Z</time>
      </trkpt>
      <trkpt lat="45.77671" lon="4.8102">
        <ele>201.2</ele>
        <time>2018-11-18T08:58:58Z</time>
      </trkpt>
      <trkpt lat="45.77664" lon="4.81019">
        <ele>201.2</ele>
        <time>2018-11-18T08:59:01Z</time>
      </trkpt>
      <trkpt lat="45.77656" lon="4.81017">
        <ele>201.1</ele>
        <time>2018-11-18T08:59:04Z</time>
      </trkpt>
      <trkpt lat="45.77647" lon="4.81016">
        <ele>201.2</ele>
        <time>2018-11-18T08:59:07Z</time>
      </trkpt>
      <trkpt lat="45.77637" lon="4.81014">
        <ele>201.2</ele>
        <time>2018-11-18T08:59:11Z</time>
      </trkpt>
      <trkpt lat="45.7763" lon="4.81014">
        <ele>201.4</ele>
        <time>2018-11-18T08:59:14Z</time>
      </trkpt>
      <trkpt lat="45.77622" lon="4.81014">
        <ele>201.5</ele>
        <time>2018-11-18T08:59:17Z</time>
      </trkpt>
      <trkpt lat="45.77614" lon="4.81014">
        <ele>201.8</ele>
        <time>2018-11-18T08:59:21Z</time>
      </trkpt>
      <trkpt lat="45.77606" lon="4.81016">
        <ele>201.9</ele>
        <time>2018-11-18T08:59:25Z</time>
      </trkpt>
      <trkpt lat="45.77597" lon="4.81018">
        <ele>202</ele>
        <time>2018-11-18T08:59:29Z</time>
      </trkpt>
      <trkpt lat="45.77589" lon="4.81019">
        <ele>202</ele>
        <time>2018-11-18T08:59:33Z</time>
      </trkpt>
      <trkpt lat="45.77582" lon="4.81021">
        <ele>201.9</ele>
        <time>2018-11-18T08:59:38Z</time>
      </trkpt>
      <trkpt lat="45.77574" lon="4.81024">
        <ele>201.6</ele>
        <time>2018-11-18T08:59:43Z</time>
      </trkpt>
      <trkpt lat="45.77566" lon="4.81027">
        <ele>201.5</ele>
        <time>2018-11-18T08:59:45Z</time>
      </trkpt>
      <trkpt lat="45.77557" lon="4.81028">
        <ele>201.4</ele>
        <time>2018-11-18T08:59:48Z</time>
      </trkpt>
      <trkpt lat="45.77549" lon="4.8103">
        <ele>201.3</ele>
        <time>2018-11-18T08:59:53Z</time>
      </trkpt>
      <trkpt lat="45.77542" lon="4.81032">
        <ele>201.2</ele>
        <time>2018-11-18T08:59:57Z</time>
      </trkpt>
      <trkpt lat="45.77535" lon="4.81039">
        <ele>200.8</ele>
        <time>2018-11-18T09:00:03Z</time>
      </trkpt>
      <trkpt lat="45.77526" lon="4.81045">
        <ele>200.3</ele>
        <time>2018-11-18T09:00:07Z</time>
      </trkpt>
      <trkpt lat="45.77516" lon="4.81045">
        <ele>200.3</ele>
        <time>2018-11-18T09:00:09Z</time>
      </trkpt>
      <trkpt lat="45.77508" lon="4.81046">
        <ele>200.4</ele>
        <time>2018-11-18T09:00:12Z</time>
      </trkpt>
      <trkpt lat="45.77503" lon="4.81053">
        <ele>200.8</ele>
        <time>2018-11-18T09:00:17Z</time>
      </trkpt>
      <trkpt lat="45.77497" lon="4.81063">
        <ele>200.8</ele>
        <time>2018-11-18T09:00:21Z</time>
      </trkpt>
      <trkpt lat="45.77493" lon="4.81072">
        <ele>200.6</ele>
        <time>2018-11-18T09:00:24Z</time>
      </trkpt>
      <trkpt lat="45.77486" lon="4.81079">
        <ele>199.6</ele>
        <time>2018-11-18T09:00:29Z</time>
      </trkpt>
      <trkpt lat="45.77478" lon="4.81079">
        <ele>198.7</ele>
        <time>2018-11-18T09:00:33Z</time>
      </trkpt>
      <trkpt lat="45.77468" lon="4.81081">
        <ele>198.1</ele>
        <time>2018-11-18T09:00:36Z</time>
      </trkpt>
      <trkpt lat="45.7746" lon="4.81084">
        <ele>197.7</ele>
        <time>2018-11-18T09:00:39Z</time>
      </trkpt>
      <trkpt lat="45.77451" lon="4.81089">
        <ele>197.3</ele>
        <time>2018-11-18T09:00:43Z</time>
      </trkpt>
      <trkpt lat="45.77442" lon="4.81093">
        <ele>196.9</ele>
        <time>2018-11-18T09:00:47Z</time>
      </trkpt>
      <trkpt lat="45.77435" lon="4.81097">
        <ele>196.6</ele>
        <time>2018-11-18T09:00:50Z</time>
      </trkpt>
      <trkpt lat="45.77429" lon="4.81102">
        <ele>196.4</ele>
        <time>2018-11-18T09:00:53Z</time>
      </trkpt>
      <trkpt lat="45.77421" lon="4.81108">
        <ele>196.2</ele>
        <time>2018-11-18T09:00:57Z</time>
      </trkpt>
      <trkpt lat="45.77413" lon="4.81115">
        <ele>196.2</ele>
        <time>2018-11-18T09:01:01Z</time>
      </trkpt>
      <trkpt lat="45.77407" lon="4.81122">
        <ele>196.2</ele>
        <time>2018-11-18T09:01:05Z</time>
      </trkpt>
      <trkpt lat="45.77402" lon="4.81132">
        <ele>196.2</ele>
        <time>2018-11-18T09:01:09Z</time>
      </trkpt>
      <trkpt lat="45.77396" lon="4.8114">
        <ele>196.3</ele>
        <time>2018-11-18T09:01:13Z</time>
      </trkpt>
      <trkpt lat="45.77392" lon="4.81149">
        <ele>196.2</ele>
        <time>2018-11-18T09:01:17Z</time>
      </trkpt>
      <trkpt lat="45.77388" lon="4.8116">
        <ele>195.9</ele>
        <time>2018-11-18T09:01:22Z</time>
      </trkpt>
      <trkpt lat="45.77385" lon="4.81171">
        <ele>195.4</ele>
        <time>2018-11-18T09:01:26Z</time>
      </trkpt>
      <trkpt lat="45.77379" lon="4.8118">
        <ele>194.9</ele>
        <time>2018-11-18T09:01:30Z</time>
      </trkpt>
      <trkpt lat="45.77372" lon="4.8119">
        <ele>194.6</ele>
        <time>2018-11-18T09:01:34Z</time>
      </trkpt>
      <trkpt lat="45.77366" lon="4.81199">
        <ele>194.3</ele>
        <time>2018-11-18T09:01:37Z</time>
      </trkpt>
      <trkpt lat="45.7736" lon="4.81208">
        <ele>194.2</ele>
        <time>2018-11-18T09:01:40Z</time>
      </trkpt>
      <trkpt lat="45.77355" lon="4.81217">
        <ele>194.2</ele>
        <time>2018-11-18T09:01:44Z</time>
      </trkpt>
      <trkpt lat="45.77349" lon="4.81225">
        <ele>194.1</ele>
        <time>2018-11-18T09:01:47Z</time>
      </trkpt>
      <trkpt lat="45.77346" lon="4.81234">
        <ele>194.1</ele>
        <time>2018-11-18T09:01:50Z</time>
      </trkpt>
      <trkpt lat="45.77338" lon="4.81241">
        <ele>194.1</ele>
        <time>2018-11-18T09:01:54Z</time>
      </trkpt>
      <trkpt lat="45.77333" lon="4.81247">
        <ele>194.3</ele>
        <time>2018-11-18T09:02:01Z</time>
      </trkpt>
      <trkpt lat="45.77325" lon="4.81253">
        <ele>194.7</ele>
        <time>2018-11-18T09:02:05Z</time>
      </trkpt>
      <trkpt lat="45.77317" lon="4.81257">
        <ele>195.1</ele>
        <time>2018-11-18T09:02:09Z</time>
      </trkpt>
      <trkpt lat="45.77311" lon="4.81263">
        <ele>195.4</ele>
        <time>2018-11-18T09:02:12Z</time>
      </trkpt>
      <trkpt lat="45.77304" lon="4.81273">
        <ele>195.8</ele>
        <time>2018-11-18T09:02:17Z</time>
      </trkpt>
      <trkpt lat="45.77298" lon="4.81278">
        <ele>195.9</ele>
        <time>2018-11-18T09:02:20Z</time>
      </trkpt>
      <trkpt lat="45.77291" lon="4.81282">
        <ele>196.1</ele>
        <time>2018-11-18T09:02:23Z</time>
      </trkpt>
      <trkpt lat="45.77285" lon="4.81288">
        <ele>196.3</ele>
        <time>2018-11-18T09:02:26Z</time>
      </trkpt>
      <trkpt lat="45.77277" lon="4.81294">
        <ele>196.5</ele>
        <time>2018-11-18T09:02:30Z</time>
      </trkpt>
      <trkpt lat="45.7727" lon="4.81301">
        <ele>196.6</ele>
        <time>2018-11-18T09:02:34Z</time>
      </trkpt>
      <trkpt lat="45.77262" lon="4.81307">
        <ele>196.7</ele>
        <time>2018-11-18T09:02:38Z</time>
      </trkpt>
      <trkpt lat="45.77255" lon="4.81315">
        <ele>196.8</ele>
        <time>2018-11-18T09:02:42Z</time>
      </trkpt>
      <trkpt lat="45.77248" lon="4.81319">
        <ele>196.9</ele>
        <time>2018-11-18T09:02:45Z</time>
      </trkpt>
      <trkpt lat="45.77241" lon="4.81324">
        <ele>197.1</ele>
        <time>2018-11-18T09:02:48Z</time>
      </trkpt>
      <trkpt lat="45.77233" lon="4.81329">
        <ele>197.2</ele>
        <time>2018-11-18T09:02:52Z</time>
      </trkpt>
      <trkpt lat="45.77225" lon="4.81334">
        <ele>197.3</ele>
        <time>2018-11-18T09:02:56Z</time>
      </trkpt>
      <trkpt lat="45.77218" lon="4.81338">
        <ele>197.4</ele>
        <time>2018-11-18T09:03:00Z</time>
      </trkpt>
      <trkpt lat="45.77209" lon="4.81342">
        <ele>197.5</ele>
        <time>2018-11-18T09:03:03Z</time>
      </trkpt>
      <trkpt lat="45.77203" lon="4.81345">
        <ele>197.7</ele>
        <time>2018-11-18T09:03:06Z</time>
      </trkpt>
      <trkpt lat="45.77194" lon="4.8135">
        <ele>198.1</ele>
        <time>2018-11-18T09:03:10Z</time>
      </trkpt>
      <trkpt lat="45.77186" lon="4.81354">
        <ele>198.5</ele>
        <time>2018-11-18T09:03:14Z</time>
      </trkpt>
      <trkpt lat="45.77179" lon="4.81357">
        <ele>198.7</ele>
        <time>2018-11-18T09:03:17Z</time>
      </trkpt>
      <trkpt lat="45.77171" lon="4.81362">
        <ele>199</ele>
        <time>2018-11-18T09:03:22Z</time>
      </trkpt>
      <trkpt lat="45.77164" lon="4.81367">
        <ele>199.1</ele>
        <time>2018-11-18T09:03:26Z</time>
      </trkpt>
      <trkpt lat="45.77156" lon="4.81371">
        <ele>199.1</ele>
        <time>2018-11-18T09:03:29Z</time>
      </trkpt>
      <trkpt lat="45.77149" lon="4.81375">
        <ele>199.2</ele>
        <time>2018-11-18T09:03:32Z</time>
      </trkpt>
      <trkpt lat="45.77141" lon="4.8138">
        <ele>199.4</ele>
        <time>2018-11-18T09:03:36Z</time>
      </trkpt>
      <trkpt lat="45.77133" lon="4.81384">
        <ele>199.5</ele>
        <time>2018-11-18T09:03:41Z</time>
      </trkpt>
      <trkpt lat="45.77122" lon="4.81387">
        <ele>199.5</ele>
        <time>2018-11-18T09:03:46Z</time>
      </trkpt>
      <trkpt lat="45.77114" lon="4.81388">
        <ele>199.5</ele>
        <time>2018-11-18T09:03:49Z</time>
      </trkpt>
      <trkpt lat="45.77107" lon="4.81393">
        <ele>199.5</ele>
        <time>2018-11-18T09:03:54Z</time>
      </trkpt>
      <trkpt lat="45.77101" lon="4.81398">
        <ele>199.4</ele>
        <time>2018-11-18T09:03:57Z</time>
      </trkpt>
      <trkpt lat="45.77094" lon="4.81403">
        <ele>199.4</ele>
        <time>2018-11-18T09:04:00Z</time>
      </trkpt>
      <trkpt lat="45.77085" lon="4.81407">
        <ele>199.2</ele>
        <time>2018-11-18T09:04:04Z</time>
      </trkpt>
      <trkpt lat="45.77078" lon="4.8141">
        <ele>199.1</ele>
        <time>2018-11-18T09:04:08Z</time>
      </trkpt>
      <trkpt lat="45.77071" lon="4.81412">
        <ele>198.8</ele>
        <time>2018-11-18T09:04:12Z</time>
      </trkpt>
      <trkpt lat="45.77062" lon="4.81415">
        <ele>198.4</ele>
        <time>2018-11-18T09:04:16Z</time>
      </trkpt>
      <trkpt lat="45.77054" lon="4.81419">
        <ele>198.3</ele>
        <time>2018-11-18T09:04:18Z</time>
      </trkpt>
      <trkpt lat="45.77046" lon="4.81422">
        <ele>198.3</ele>
        <time>2018-11-18T09:04:21Z</time>
      </trkpt>
      <trkpt lat="45.7704" lon="4.81427">
        <ele>198.4</ele>
        <time>2018-11-18T09:04:24Z</time>
      </trkpt>
      <trkpt lat="45.77034" lon="4.81433">
        <ele>198.5</ele>
        <time>2018-11-18T09:04:27Z</time>
      </trkpt>
      <trkpt lat="45.77028" lon="4.8144">
        <ele>198.4</ele>
        <time>2018-11-18T09:04:31Z</time>
      </trkpt>
      <trkpt lat="45.77021" lon="4.81444">
        <ele>198.3</ele>
        <time>2018-11-18T09:04:34Z</time>
      </trkpt>
      <trkpt lat="45.77014" lon="4.81442">
        <ele>198.5</ele>
        <time>2018-11-18T09:04:37Z</time>
      </trkpt>
      <trkpt lat="45.77006" lon="4.81441">
        <ele>198.5</ele>
        <time>2018-11-18T09:04:41Z</time>
      </trkpt>
      <trkpt lat="45.76996" lon="4.81441">
        <ele>198.5</ele>
        <time>2018-11-18T09:04:45Z</time>
      </trkpt>
      <trkpt lat="45.76987" lon="4.81444">
        <ele>198.6</ele>
        <time>2018-11-18T09:04:49Z</time>
      </trkpt>
      <trkpt lat="45.7698" lon="4.81445">
        <ele>198.6</ele>
        <time>2018-11-18T09:04:52Z</time>
      </trkpt>
      <trkpt lat="45.76971" lon="4.81448">
        <ele>198.6</ele>
        <time>2018-11-18T09:04:56Z</time>
      </trkpt>
      <trkpt lat="45.76962" lon="4.81453">
        <ele>198.7</ele>
        <time>2018-11-18T09:05:00Z</time>
      </trkpt>
      <trkpt lat="45.76954" lon="4.81458">
        <ele>198.8</ele>
        <time>2018-11-18T09:05:04Z</time>
      </trkpt>
      <trkpt lat="45.76946" lon="4.81463">
        <ele>198.8</ele>
        <time>2018-11-18T09:05:08Z</time>
      </trkpt>
      <trkpt lat="45.76939" lon="4.81467">
        <ele>198.8</ele>
        <time>2018-11-18T09:05:11Z</time>
      </trkpt>
      <trkpt lat="45.76932" lon="4.8147">
        <ele>198.7</ele>
        <time>2018-11-18T09:05:15Z</time>
      </trkpt>
      <trkpt lat="45.76924" lon="4.81474">
        <ele>198.5</ele>
        <time>2018-11-18T09:05:19Z</time>
      </trkpt>
      <trkpt lat="45.76915" lon="4.81478">
        <ele>198.3</ele>
        <time>2018-11-18T09:05:23Z</time>
      </trkpt>
      <trkpt lat="45.76907" lon="4.81482">
        <ele>198.2</ele>
        <time>2018-11-18T09:05:26Z</time>
      </trkpt>
      <trkpt lat="45.769" lon="4.81487">
        <ele>198.1</ele>
        <time>2018-11-18T09:05:29Z</time>
      </trkpt>
      <trkpt lat="45.76892" lon="4.81493">
        <ele>198</ele>
        <time>2018-11-18T09:05:33Z</time>
      </trkpt>
      <trkpt lat="45.76886" lon="4.81498">
        <ele>198</ele>
        <time>2018-11-18T09:05:36Z</time>
      </trkpt>
      <trkpt lat="45.76878" lon="4.81506">
        <ele>198</ele>
        <time>2018-11-18T09:05:40Z</time>
      </trkpt>
      <trkpt lat="45.76872" lon="4.81514">
        <ele>198</ele>
        <time>2018-11-18T09:05:43Z</time>
      </trkpt>
      <trkpt lat="45.76865" lon="4.81521">
        <ele>197.9</ele>
        <time>2018-11-18T09:05:47Z</time>
      </trkpt>
      <trkpt lat="45.76858" lon="4.81528">
        <ele>198</ele>
        <time>2018-11-18T09:05:51Z</time>
      </trkpt>
      <trkpt lat="45.76852" lon="4.81536">
        <ele>198</ele>
        <time>2018-11-18T09:05:55Z</time>
      </trkpt>
      <trkpt lat="45.76846" lon="4.81546">
        <ele>198</ele>
        <time>2018-11-18T09:05:59Z</time>
      </trkpt>
      <trkpt lat="45.7684" lon="4.81555">
        <ele>198</ele>
        <time>2018-11-18T09:06:03Z</time>
      </trkpt>
      <trkpt lat="45.76835" lon="4.81564">
        <ele>198</ele>
        <time>2018-11-18T09:06:07Z</time>
      </trkpt>
      <trkpt lat="45.7683" lon="4.81574">
        <ele>198</ele>
        <time>2018-11-18T09:06:11Z</time>
      </trkpt>
      <trkpt lat="45.76825" lon="4.81584">
        <ele>198</ele>
        <time>2018-11-18T09:06:15Z</time>
      </trkpt>
      <trkpt lat="45.76821" lon="4.81594">
        <ele>198</ele>
        <time>2018-11-18T09:06:18Z</time>
      </trkpt>
      <trkpt lat="45.76817" lon="4.81603">
        <ele>198</ele>
        <time>2018-11-18T09:06:21Z</time>
      </trkpt>
      <trkpt lat="45.76812" lon="4.81614">
        <ele>198</ele>
        <time>2018-11-18T09:06:25Z</time>
      </trkpt>
      <trkpt lat="45.76808" lon="4.81625">
        <ele>197.9</ele>
        <time>2018-11-18T09:06:29Z</time>
      </trkpt>
      <trkpt lat="45.76805" lon="4.81635">
        <ele>197.9</ele>
        <time>2018-11-18T09:06:33Z</time>
      </trkpt>
      <trkpt lat="45.76799" lon="4.81645">
        <ele>197.9</ele>
        <time>2018-11-18T09:06:38Z</time>
      </trkpt>
      <trkpt lat="45.76792" lon="4.8165">
        <ele>198.2</ele>
        <time>2018-11-18T09:06:41Z</time>
      </trkpt>
      <trkpt lat="45.76787" lon="4.81661">
        <ele>198.7</ele>
        <time>2018-11-18T09:06:45Z</time>
      </trkpt>
      <trkpt lat="45.76782" lon="4.81671">
        <ele>199.3</ele>
        <time>2018-11-18T09:06:49Z</time>
      </trkpt>
      <trkpt lat="45.7678" lon="4.81682">
        <ele>199.8</ele>
        <time>2018-11-18T09:06:52Z</time>
      </trkpt>
      <trkpt lat="45.76778" lon="4.81692">
        <ele>200.3</ele>
        <time>2018-11-18T09:06:55Z</time>
      </trkpt>
      <trkpt lat="45.76776" lon="4.81702">
        <ele>200.7</ele>
        <time>2018-11-18T09:06:58Z</time>
      </trkpt>
      <trkpt lat="45.76774" lon="4.81713">
        <ele>201</ele>
        <time>2018-11-18T09:07:01Z</time>
      </trkpt>
      <trkpt lat="45.76773" lon="4.81724">
        <ele>201.2</ele>
        <time>2018-11-18T09:07:04Z</time>
      </trkpt>
      <trkpt lat="45.76772" lon="4.81737">
        <ele>201.4</ele>
        <time>2018-11-18T09:07:08Z</time>
      </trkpt>
      <trkpt lat="45.76771" lon="4.81748">
        <ele>201.4</ele>
        <time>2018-11-18T09:07:11Z</time>
      </trkpt>
      <trkpt lat="45.7677" lon="4.8176">
        <ele>201.3</ele>
        <time>2018-11-18T09:07:14Z</time>
      </trkpt>
      <trkpt lat="45.76763" lon="4.81767">
        <ele>201.4</ele>
        <time>2018-11-18T09:07:19Z</time>
      </trkpt>
      <trkpt lat="45.7676" lon="4.81778">
        <ele>201.7</ele>
        <time>2018-11-18T09:07:23Z</time>
      </trkpt>
      <trkpt lat="45.76756" lon="4.81787">
        <ele>202.3</ele>
        <time>2018-11-18T09:07:27Z</time>
      </trkpt>
      <trkpt lat="45.76753" lon="4.81798">
        <ele>202.9</ele>
        <time>2018-11-18T09:07:31Z</time>
      </trkpt>
      <trkpt lat="45.7675" lon="4.81809">
        <ele>203.5</ele>
        <time>2018-11-18T09:07:34Z</time>
      </trkpt>
      <trkpt lat="45.76748" lon="4.81819">
        <ele>204.1</ele>
        <time>2018-11-18T09:07:37Z</time>
      </trkpt>
      <trkpt lat="45.76746" lon="4.81829">
        <ele>204.8</ele>
        <time>2018-11-18T09:07:41Z</time>
      </trkpt>
      <trkpt lat="45.76746" lon="4.81842">
        <ele>205.6</ele>
        <time>2018-11-18T09:07:45Z</time>
      </trkpt>
      <trkpt lat="45.76746" lon="4.81855">
        <ele>206.2</ele>
        <time>2018-11-18T09:07:49Z</time>
      </trkpt>
      <trkpt lat="45.76746" lon="4.81869">
        <ele>206.8</ele>
        <time>2018-11-18T09:07:53Z</time>
      </trkpt>
      <trkpt lat="45.76746" lon="4.81881">
        <ele>207.1</ele>
        <time>2018-11-18T09:07:56Z</time>
      </trkpt>
      <trkpt lat="45.76745" lon="4.81892">
        <ele>207.6</ele>
        <time>2018-11-18T09:08:00Z</time>
      </trkpt>
      <trkpt lat="45.76746" lon="4.81903">
        <ele>208.2</ele>
        <time>2018-11-18T09:08:04Z</time>
      </trkpt>
      <trkpt lat="45.76748" lon="4.81915">
        <ele>208.7</ele>
        <time>2018-11-18T09:08:08Z</time>
      </trkpt>
      <trkpt lat="45.76751" lon="4.81926">
        <ele>209.1</ele>
        <time>2018-11-18T09:08:12Z</time>
      </trkpt>
      <trkpt lat="45.76753" lon="4.81937">
        <ele>209.5</ele>
        <time>2018-11-18T09:08:16Z</time>
      </trkpt>
      <trkpt lat="45.76755" lon="4.81949">
        <ele>209.8</ele>
        <time>2018-11-18T09:08:20Z</time>
      </trkpt>
      <trkpt lat="45.76758" lon="4.8196">
        <ele>210.1</ele>
        <time>2018-11-18T09:08:24Z</time>
      </trkpt>
      <trkpt lat="45.76761" lon="4.81972">
        <ele>210.3</ele>
        <time>2018-11-18T09:08:28Z</time>
      </trkpt>
      <trkpt lat="45.76764" lon="4.81983">
        <ele>210.5</ele>
        <time>2018-11-18T09:08:32Z</time>
      </trkpt>
      <trkpt lat="45.76767" lon="4.81996">
        <ele>210.5</ele>
        <time>2018-11-18T09:08:36Z</time>
      </trkpt>
      <trkpt lat="45.76771" lon="4.82007">
        <ele>210.5</ele>
        <time>2018-11-18T09:08:40Z</time>
      </trkpt>
      <trkpt lat="45.76774" lon="4.82016">
        <ele>210.4</ele>
        <time>2018-11-18T09:08:44Z</time>
      </trkpt>
      <trkpt lat="45.76777" lon="4.82026">
        <ele>210</ele>
        <time>2018-11-18T09:08:49Z</time>
      </trkpt>
      <trkpt lat="45.76779" lon="4.82036">
        <ele>209.6</ele>
        <time>2018-11-18T09:08:53Z</time>
      </trkpt>
      <trkpt lat="45.76782" lon="4.82047">
        <ele>209.3</ele>
        <time>2018-11-18T09:08:56Z</time>
      </trkpt>
      <trkpt lat="45.76785" lon="4.82059">
        <ele>209</ele>
        <time>2018-11-18T09:08:59Z</time>
      </trkpt>
      <trkpt lat="45.76786" lon="4.82069">
        <ele>208.7</ele>
        <time>2018-11-18T09:09:02Z</time>
      </trkpt>
      <trkpt lat="45.76784" lon="4.82082">
        <ele>208.4</ele>
        <time>2018-11-18T09:09:06Z</time>
      </trkpt>
      <trkpt lat="45.76786" lon="4.82091">
        <ele>208.3</ele>
        <time>2018-11-18T09:09:09Z</time>
      </trkpt>
      <trkpt lat="45.76787" lon="4.82106">
        <ele>208.3</ele>
        <time>2018-11-18T09:09:13Z</time>
      </trkpt>
      <trkpt lat="45.7679" lon="4.82117">
        <ele>208.3</ele>
        <time>2018-11-18T09:09:17Z</time>
      </trkpt>
      <trkpt lat="45.76792" lon="4.82127">
        <ele>208.3</ele>
        <time>2018-11-18T09:09:21Z</time>
      </trkpt>
      <trkpt lat="45.76794" lon="4.8214">
        <ele>208.4</ele>
        <time>2018-11-18T09:09:25Z</time>
      </trkpt>
      <trkpt lat="45.76796" lon="4.82152">
        <ele>208.5</ele>
        <time>2018-11-18T09:09:29Z</time>
      </trkpt>
      <trkpt lat="45.76799" lon="4.82165">
        <ele>208.5</ele>
        <time>2018-11-18T09:09:33Z</time>
      </trkpt>
      <trkpt lat="45.768" lon="4.82175">
        <ele>208.5</ele>
        <time>2018-11-18T09:09:36Z</time>
      </trkpt>
      <trkpt lat="45.76803" lon="4.82185">
        <ele>208.4</ele>
        <time>2018-11-18T09:09:40Z</time>
      </trkpt>
      <trkpt lat="45.76806" lon="4.82198">
        <ele>208.2</ele>
        <time>2018-11-18T09:09:45Z</time>
      </trkpt>
      <trkpt lat="45.76807" lon="4.8221">
        <ele>207.9</ele>
        <time>2018-11-18T09:09:49Z</time>
      </trkpt>
      <trkpt lat="45.76809" lon="4.82222">
        <ele>207.6</ele>
        <time>2018-11-18T09:09:53Z</time>
      </trkpt>
      <trkpt lat="45.7681" lon="4.82234">
        <ele>207.5</ele>
        <time>2018-11-18T09:09:56Z</time>
      </trkpt>
      <trkpt lat="45.76812" lon="4.82245">
        <ele>207.4</ele>
        <time>2018-11-18T09:09:59Z</time>
      </trkpt>
      <trkpt lat="45.76813" lon="4.82256">
        <ele>207.4</ele>
        <time>2018-11-18T09:10:02Z</time>
      </trkpt>
      <trkpt lat="45.76815" lon="4.82269">
        <ele>207.6</ele>
        <time>2018-11-18T09:10:06Z</time>
      </trkpt>
      <trkpt lat="45.76816" lon="4.82279">
        <ele>207.7</ele>
        <time>2018-11-18T09:10:09Z</time>
      </trkpt>
      <trkpt lat="45.76818" lon="4.82292">
        <ele>208</ele>
        <time>2018-11-18T09:10:13Z</time>
      </trkpt>
      <trkpt lat="45.76819" lon="4.82305">
        <ele>208.3</ele>
        <time>2018-11-18T09:10:17Z</time>
      </trkpt>
      <trkpt lat="45.7682" lon="4.82318">
        <ele>208.5</ele>
        <time>2018-11-18T09:10:21Z</time>
      </trkpt>
      <trkpt lat="45.7682" lon="4.82331">
        <ele>208.8</ele>
        <time>2018-11-18T09:10:25Z</time>
      </trkpt>
      <trkpt lat="45.7682" lon="4.82342">
        <ele>209.1</ele>
        <time>2018-11-18T09:10:29Z</time>
      </trkpt>
      <trkpt lat="45.7682" lon="4.82355">
        <ele>209.4</ele>
        <time>2018-11-18T09:10:33Z</time>
      </trkpt>
      <trkpt lat="45.76822" lon="4.82365">
        <ele>209.8</ele>
        <time>2018-11-18T09:10:36Z</time>
      </trkpt>
      <trkpt lat="45.76824" lon="4.82377">
        <ele>210.1</ele>
        <time>2018-11-18T09:10:40Z</time>
      </trkpt>
      <trkpt lat="45.76827" lon="4.82388">
        <ele>210.3</ele>
        <time>2018-11-18T09:10:44Z</time>
      </trkpt>
      <trkpt lat="45.76827" lon="4.824">
        <ele>210.4</ele>
        <time>2018-11-18T09:10:49Z</time>
      </trkpt>
      <trkpt lat="45.76829" lon="4.82414">
        <ele>210.3</ele>
        <time>2018-11-18T09:10:53Z</time>
      </trkpt>
      <trkpt lat="45.76831" lon="4.82426">
        <ele>210.2</ele>
        <time>2018-11-18T09:10:57Z</time>
      </trkpt>
      <trkpt lat="45.76831" lon="4.82436">
        <ele>210.1</ele>
        <time>2018-11-18T09:11:00Z</time>
      </trkpt>
      <trkpt lat="45.76833" lon="4.82447">
        <ele>209.9</ele>
        <time>2018-11-18T09:11:03Z</time>
      </trkpt>
      <trkpt lat="45.76834" lon="4.82458">
        <ele>209.7</ele>
        <time>2018-11-18T09:11:06Z</time>
      </trkpt>
      <trkpt lat="45.76836" lon="4.8247">
        <ele>209.3</ele>
        <time>2018-11-18T09:11:10Z</time>
      </trkpt>
      <trkpt lat="45.76838" lon="4.8248">
        <ele>208.9</ele>
        <time>2018-11-18T09:11:14Z</time>
      </trkpt>
      <trkpt lat="45.76841" lon="4.82492">
        <ele>208.3</ele>
        <time>2018-11-18T09:11:18Z</time>
      </trkpt>
      <trkpt lat="45.76843" lon="4.82503">
        <ele>207.7</ele>
        <time>2018-11-18T09:11:22Z</time>
      </trkpt>
      <trkpt lat="45.76843" lon="4.82514">
        <ele>207.3</ele>
        <time>2018-11-18T09:11:25Z</time>
      </trkpt>
      <trkpt lat="45.76843" lon="4.82526">
        <ele>206.7</ele>
        <time>2018-11-18T09:11:29Z</time>
      </trkpt>
      <trkpt lat="45.76839" lon="4.82536">
        <ele>206.2</ele>
        <time>2018-11-18T09:11:33Z</time>
      </trkpt>
      <trkpt lat="45.76838" lon="4.82546">
        <ele>206.1</ele>
        <time>2018-11-18T09:11:36Z</time>
      </trkpt>
      <trkpt lat="45.76836" lon="4.82556">
        <ele>206</ele>
        <time>2018-11-18T09:11:39Z</time>
      </trkpt>
      <trkpt lat="45.76835" lon="4.8257">
        <ele>206.1</ele>
        <time>2018-11-18T09:11:43Z</time>
      </trkpt>
      <trkpt lat="45.76835" lon="4.82583">
        <ele>206.2</ele>
        <time>2018-11-18T09:11:47Z</time>
      </trkpt>
      <trkpt lat="45.76836" lon="4.82593">
        <ele>206.3</ele>
        <time>2018-11-18T09:11:50Z</time>
      </trkpt>
      <trkpt lat="45.76836" lon="4.82605">
        <ele>206.4</ele>
        <time>2018-11-18T09:11:53Z</time>
      </trkpt>
      <trkpt lat="45.76837" lon="4.82616">
        <ele>206.3</ele>
        <time>2018-11-18T09:11:56Z</time>
      </trkpt>
      <trkpt lat="45.76837" lon="4.82626">
        <ele>206.2</ele>
        <time>2018-11-18T09:11:59Z</time>
      </trkpt>
      <trkpt lat="45.76834" lon="4.82638">
        <ele>206</ele>
        <time>2018-11-18T09:12:03Z</time>
      </trkpt>
      <trkpt lat="45.76833" lon="4.82649">
        <ele>205.8</ele>
        <time>2018-11-18T09:12:06Z</time>
      </trkpt>
      <trkpt lat="45.76831" lon="4.8266">
        <ele>205.6</ele>
        <time>2018-11-18T09:12:10Z</time>
      </trkpt>
      <trkpt lat="45.76826" lon="4.82671">
        <ele>205.4</ele>
        <time>2018-11-18T09:12:14Z</time>
      </trkpt>
      <trkpt lat="45.76821" lon="4.82683">
        <ele>205.5</ele>
        <time>2018-11-18T09:12:18Z</time>
      </trkpt>
      <trkpt lat="45.7682" lon="4.82695">
        <ele>205.6</ele>
        <time>2018-11-18T09:12:21Z</time>
      </trkpt>
      <trkpt lat="45.7682" lon="4.82706">
        <ele>205.6</ele>
        <time>2018-11-18T09:12:24Z</time>
      </trkpt>
      <trkpt lat="45.76815" lon="4.82714">
        <ele>205.7</ele>
        <time>2018-11-18T09:12:28Z</time>
      </trkpt>
      <trkpt lat="45.7681" lon="4.82723">
        <ele>206.1</ele>
        <time>2018-11-18T09:12:32Z</time>
      </trkpt>
      <trkpt lat="45.76807" lon="4.82732">
        <ele>206.6</ele>
        <time>2018-11-18T09:12:36Z</time>
      </trkpt>
      <trkpt lat="45.76803" lon="4.82743">
        <ele>207.1</ele>
        <time>2018-11-18T09:12:40Z</time>
      </trkpt>
      <trkpt lat="45.768" lon="4.82756">
        <ele>207.4</ele>
        <time>2018-11-18T09:12:43Z</time>
      </trkpt>
      <trkpt lat="45.76797" lon="4.82768">
        <ele>207.8</ele>
        <time>2018-11-18T09:12:46Z</time>
      </trkpt>
      <trkpt lat="45.76795" lon="4.82778">
        <ele>208.3</ele>
        <time>2018-11-18T09:12:50Z</time>
      </trkpt>
      <trkpt lat="45.76793" lon="4.82789">
        <ele>208.5</ele>
        <time>2018-11-18T09:12:53Z</time>
      </trkpt>
      <trkpt lat="45.76791" lon="4.828">
        <ele>208.7</ele>
        <time>2018-11-18T09:12:57Z</time>
      </trkpt>
      <trkpt lat="45.76788" lon="4.82809">
        <ele>208.9</ele>
        <time>2018-11-18T09:13:01Z</time>
      </trkpt>
      <trkpt lat="45.76789" lon="4.82823">
        <ele>208.7</ele>
        <time>2018-11-18T09:13:05Z</time>
      </trkpt>
      <trkpt lat="45.76789" lon="4.82836">
        <ele>208.3</ele>
        <time>2018-11-18T09:13:08Z</time>
      </trkpt>
      <trkpt lat="45.76788" lon="4.82848">
        <ele>207.5</ele>
        <time>2018-11-18T09:13:11Z</time>
      </trkpt>
      <trkpt lat="45.76786" lon="4.82858">
        <ele>206.7</ele>
        <time>2018-11-18T09:13:14Z</time>
      </trkpt>
      <trkpt lat="45.76782" lon="4.82867">
        <ele>205.8</ele>
        <time>2018-11-18T09:13:17Z</time>
      </trkpt>
      <trkpt lat="45.76777" lon="4.82875">
        <ele>204.5</ele>
        <time>2018-11-18T09:13:21Z</time>
      </trkpt>
      <trkpt lat="45.76773" lon="4.82884">
        <ele>202.8</ele>
        <time>2018-11-18T09:13:26Z</time>
      </trkpt>
      <trkpt lat="45.7677" lon="4.82894">
        <ele>201.3</ele>
        <time>2018-11-18T09:13:30Z</time>
      </trkpt>
      <trkpt lat="45.76765" lon="4.82903">
        <ele>199.8</ele>
        <time>2018-11-18T09:13:34Z</time>
      </trkpt>
      <trkpt lat="45.76759" lon="4.8291">
        <ele>198.8</ele>
        <time>2018-11-18T09:13:37Z</time>
      </trkpt>
      <trkpt lat="45.76753" lon="4.82916">
        <ele>198.1</ele>
        <time>2018-11-18T09:13:40Z</time>
      </trkpt>
      <trkpt lat="45.76748" lon="4.82929">
        <ele>196.8</ele>
        <time>2018-11-18T09:13:45Z</time>
      </trkpt>
      <trkpt lat="45.76741" lon="4.82936">
        <ele>196.4</ele>
        <time>2018-11-18T09:13:48Z</time>
      </trkpt>
      <trkpt lat="45.76734" lon="4.8294">
        <ele>196</ele>
        <time>2018-11-18T09:13:52Z</time>
      </trkpt>
      <trkpt lat="45.76729" lon="4.82948">
        <ele>195.8</ele>
        <time>2018-11-18T09:13:56Z</time>
      </trkpt>
      <trkpt lat="45.76723" lon="4.82954">
        <ele>195.8</ele>
        <time>2018-11-18T09:13:59Z</time>
      </trkpt>
      <trkpt lat="45.76716" lon="4.82963">
        <ele>196.2</ele>
        <time>2018-11-18T09:14:04Z</time>
      </trkpt>
      <trkpt lat="45.7671" lon="4.82972">
        <ele>196.8</ele>
        <time>2018-11-18T09:14:09Z</time>
      </trkpt>
      <trkpt lat="45.76705" lon="4.8298">
        <ele>197.2</ele>
        <time>2018-11-18T09:14:12Z</time>
      </trkpt>
      <trkpt lat="45.767" lon="4.82989">
        <ele>197.8</ele>
        <time>2018-11-18T09:14:16Z</time>
      </trkpt>
      <trkpt lat="45.76692" lon="4.82996">
        <ele>198.7</ele>
        <time>2018-11-18T09:14:21Z</time>
      </trkpt>
      <trkpt lat="45.76686" lon="4.83">
        <ele>199.5</ele>
        <time>2018-11-18T09:14:24Z</time>
      </trkpt>
      <trkpt lat="45.76679" lon="4.83005">
        <ele>200.7</ele>
        <time>2018-11-18T09:14:29Z</time>
      </trkpt>
      <trkpt lat="45.76672" lon="4.83001">
        <ele>201.9</ele>
        <time>2018-11-18T09:14:34Z</time>
      </trkpt>
      <trkpt lat="45.76666" lon="4.82994">
        <ele>202.6</ele>
        <time>2018-11-18T09:14:38Z</time>
      </trkpt>
      <trkpt lat="45.76662" lon="4.82985">
        <ele>203.1</ele>
        <time>2018-11-18T09:14:41Z</time>
      </trkpt>
      <trkpt lat="45.76658" lon="4.82974">
        <ele>203.6</ele>
        <time>2018-11-18T09:14:45Z</time>
      </trkpt>
      <trkpt lat="45.76655" lon="4.82964">
        <ele>204.1</ele>
        <time>2018-11-18T09:14:49Z</time>
      </trkpt>
      <trkpt lat="45.76651" lon="4.82952">
        <ele>204.5</ele>
        <time>2018-11-18T09:14:53Z</time>
      </trkpt>
      <trkpt lat="45.76648" lon="4.82941">
        <ele>204.8</ele>
        <time>2018-11-18T09:14:57Z</time>
      </trkpt>
      <trkpt lat="45.76644" lon="4.8293">
        <ele>205.1</ele>
        <time>2018-11-18T09:15:01Z</time>
      </trkpt>
      <trkpt lat="45.76639" lon="4.82919">
        <ele>205.3</ele>
        <time>2018-11-18T09:15:05Z</time>
      </trkpt>
      <trkpt lat="45.76635" lon="4.82909">
        <ele>205.5</ele>
        <time>2018-11-18T09:15:09Z</time>
      </trkpt>
      <trkpt lat="45.7663" lon="4.829">
        <ele>205.6</ele>
        <time>2018-11-18T09:15:14Z</time>
      </trkpt>
      <trkpt lat="45.76621" lon="4.82901">
        <ele>205.3</ele>
        <time>2018-11-18T09:15:21Z</time>
      </trkpt>
      <trkpt lat="45.76613" lon="4.82905">
        <ele>205</ele>
        <time>2018-11-18T09:15:25Z</time>
      </trkpt>
      <trkpt lat="45.76606" lon="4.82906">
        <ele>204.4</ele>
        <time>2018-11-18T09:15:32Z</time>
      </trkpt>
      <trkpt lat="45.76598" lon="4.8291">
        <ele>203</ele>
        <time>2018-11-18T09:15:38Z</time>
      </trkpt>
      <trkpt lat="45.76591" lon="4.82913">
        <ele>202.4</ele>
        <time>2018-11-18T09:15:41Z</time>
      </trkpt>
      <trkpt lat="45.76582" lon="4.82917">
        <ele>201.2</ele>
        <time>2018-11-18T09:15:46Z</time>
      </trkpt>
      <trkpt lat="45.76575" lon="4.8292">
        <ele>200.3</ele>
        <time>2018-11-18T09:15:49Z</time>
      </trkpt>
      <trkpt lat="45.76568" lon="4.82923">
        <ele>199.2</ele>
        <time>2018-11-18T09:15:52Z</time>
      </trkpt>
      <trkpt lat="45.76561" lon="4.82923">
        <ele>197.5</ele>
        <time>2018-11-18T09:15:56Z</time>
      </trkpt>
      <trkpt lat="45.76553" lon="4.82924">
        <ele>195.1</ele>
        <time>2018-11-18T09:16:01Z</time>
      </trkpt>
      <trkpt lat="45.76545" lon="4.82924">
        <ele>193.2</ele>
        <time>2018-11-18T09:16:05Z</time>
      </trkpt>
      <trkpt lat="45.76536" lon="4.82925">
        <ele>191.2</ele>
        <time>2018-11-18T09:16:09Z</time>
      </trkpt>
      <trkpt lat="45.76528" lon="4.82926">
        <ele>189.2</ele>
        <time>2018-11-18T09:16:13Z</time>
      </trkpt>
      <trkpt lat="45.7652" lon="4.82927">
        <ele>187.2</ele>
        <time>2018-11-18T09:16:17Z</time>
      </trkpt>
      <trkpt lat="45.76512" lon="4.82928">
        <ele>185.2</ele>
        <time>2018-11-18T09:16:21Z</time>
      </trkpt>
      <trkpt lat="45.76504" lon="4.82929">
        <ele>183.8</ele>
        <time>2018-11-18T09:16:24Z</time>
      </trkpt>
      <trkpt lat="45.76495" lon="4.82929">
        <ele>182.2</ele>
        <time>2018-11-18T09:16:28Z</time>
      </trkpt>
      <trkpt lat="45.76488" lon="4.82929">
        <ele>180.6</ele>
        <time>2018-11-18T09:16:32Z</time>
      </trkpt>
      <trkpt lat="45.76481" lon="4.82929">
        <ele>178.7</ele>
        <time>2018-11-18T09:16:37Z</time>
      </trkpt>
      <trkpt lat="45.76473" lon="4.8293">
        <ele>177.3</ele>
        <time>2018-11-18T09:16:41Z</time>
      </trkpt>
      <trkpt lat="45.76465" lon="4.8293">
        <ele>175.9</ele>
        <time>2018-11-18T09:16:45Z</time>
      </trkpt>
      <trkpt lat="45.76456" lon="4.82928">
        <ele>174.1</ele>
        <time>2018-11-18T09:16:50Z</time>
      </trkpt>
      <trkpt lat="45.76447" lon="4.82928">
        <ele>172.6</ele>
        <time>2018-11-18T09:16:54Z</time>
      </trkpt>
      <trkpt lat="45.76439" lon="4.82928">
        <ele>171.1</ele>
        <time>2018-11-18T09:16:58Z</time>
      </trkpt>
      <trkpt lat="45.76431" lon="4.82927">
        <ele>170.1</ele>
        <time>2018-11-18T09:17:01Z</time>
      </trkpt>
      <trkpt lat="45.76424" lon="4.82926">
        <ele>169.2</ele>
        <time>2018-11-18T09:17:04Z</time>
      </trkpt>
      <trkpt lat="45.76416" lon="4.82927">
        <ele>168.4</ele>
        <time>2018-11-18T09:17:07Z</time>
      </trkpt>
      <trkpt lat="45.76406" lon="4.82925">
        <ele>167.4</ele>
        <time>2018-11-18T09:17:11Z</time>
      </trkpt>
      <trkpt lat="45.76398" lon="4.82925">
        <ele>166.4</ele>
        <time>2018-11-18T09:17:15Z</time>
      </trkpt>
      <trkpt lat="45.7639" lon="4.82927">
        <ele>165.5</ele>
        <time>2018-11-18T09:17:19Z</time>
      </trkpt>
      <trkpt lat="45.76383" lon="4.82928">
        <ele>164.9</ele>
        <time>2018-11-18T09:17:22Z</time>
      </trkpt>
      <trkpt lat="45.76375" lon="4.82928">
        <ele>164.4</ele>
        <time>2018-11-18T09:17:25Z</time>
      </trkpt>
      <trkpt lat="45.76367" lon="4.82927">
        <ele>163.6</ele>
        <time>2018-11-18T09:17:30Z</time>
      </trkpt>
      <trkpt lat="45.76357" lon="4.82927">
        <ele>162.9</ele>
        <time>2018-11-18T09:17:34Z</time>
      </trkpt>
      <trkpt lat="45.76348" lon="4.82926">
        <ele>162.3</ele>
        <time>2018-11-18T09:17:38Z</time>
      </trkpt>
      <trkpt lat="45.7634" lon="4.82925">
        <ele>161.5</ele>
        <time>2018-11-18T09:17:43Z</time>
      </trkpt>
      <trkpt lat="45.76332" lon="4.82925">
        <ele>160.9</ele>
        <time>2018-11-18T09:17:47Z</time>
      </trkpt>
      <trkpt lat="45.76323" lon="4.82924">
        <ele>158.9</ele>
        <time>2018-11-18T09:17:54Z</time>
      </trkpt>
      <trkpt lat="45.76316" lon="4.82922">
        <ele>157.6</ele>
        <time>2018-11-18T09:17:58Z</time>
      </trkpt>
      <trkpt lat="45.76307" lon="4.82919">
        <ele>156.6</ele>
        <time>2018-11-18T09:18:01Z</time>
      </trkpt>
      <trkpt lat="45.76298" lon="4.82917">
        <ele>155.6</ele>
        <time>2018-11-18T09:18:04Z</time>
      </trkpt>
      <trkpt lat="45.76289" lon="4.82915">
        <ele>154.5</ele>
        <time>2018-11-18T09:18:08Z</time>
      </trkpt>
      <trkpt lat="45.76281" lon="4.82911">
        <ele>153.2</ele>
        <time>2018-11-18T09:18:13Z</time>
      </trkpt>
      <trkpt lat="45.76274" lon="4.82909">
        <ele>152.4</ele>
        <time>2018-11-18T09:18:17Z</time>
      </trkpt>
      <trkpt lat="45.76266" lon="4.82905">
        <ele>151.5</ele>
        <time>2018-11-18T09:18:22Z</time>
      </trkpt>
      <trkpt lat="45.7626" lon="4.82895">
        <ele>150.5</ele>
        <time>2018-11-18T09:18:28Z</time>
      </trkpt>
      <trkpt lat="45.76253" lon="4.8289">
        <ele>150.1</ele>
        <time>2018-11-18T09:18:32Z</time>
      </trkpt>
      <trkpt lat="45.76245" lon="4.82886">
        <ele>149.7</ele>
        <time>2018-11-18T09:18:36Z</time>
      </trkpt>
      <trkpt lat="45.76236" lon="4.82882">
        <ele>149.5</ele>
        <time>2018-11-18T09:18:40Z</time>
      </trkpt>
      <trkpt lat="45.76226" lon="4.8288">
        <ele>149.6</ele>
        <time>2018-11-18T09:18:44Z</time>
      </trkpt>
      <trkpt lat="45.76218" lon="4.82877">
        <ele>149.8</ele>
        <time>2018-11-18T09:18:47Z</time>
      </trkpt>
      <trkpt lat="45.76209" lon="4.82874">
        <ele>150.2</ele>
        <time>2018-11-18T09:18:50Z</time>
      </trkpt>
      <trkpt lat="45.76202" lon="4.82869">
        <ele>150.5</ele>
        <time>2018-11-18T09:18:53Z</time>
      </trkpt>
      <trkpt lat="45.76195" lon="4.82861">
        <ele>151.1</ele>
        <time>2018-11-18T09:18:57Z</time>
      </trkpt>
      <trkpt lat="45.76187" lon="4.82855">
        <ele>151.6</ele>
        <time>2018-11-18T09:19:02Z</time>
      </trkpt>
      <trkpt lat="45.76181" lon="4.82845">
        <ele>152</ele>
        <time>2018-11-18T09:19:06Z</time>
      </trkpt>
      <trkpt lat="45.76174" lon="4.82836">
        <ele>152.3</ele>
        <time>2018-11-18T09:19:09Z</time>
      </trkpt>
      <trkpt lat="45.76176" lon="4.8283">
        <ele>152.6</ele>
        <time>2018-11-18T09:19:16Z</time>
      </trkpt>
      <trkpt lat="45.76174" lon="4.82826">
        <ele>152.9</ele>
        <time>2018-11-18T09:19:23Z</time>
      </trkpt>
      <trkpt lat="45.76172" lon="4.82818">
        <ele>154.7</ele>
        <time>2018-11-18T09:19:30Z</time>
      </trkpt>
      <trkpt lat="45.76174" lon="4.82807">
        <ele>156.3</ele>
        <time>2018-11-18T09:19:36Z</time>
      </trkpt>
      <trkpt lat="45.76175" lon="4.82797">
        <ele>158.9</ele>
        <time>2018-11-18T09:19:43Z</time>
      </trkpt>
      <trkpt lat="45.76177" lon="4.82787">
        <ele>163.4</ele>
        <time>2018-11-18T09:19:50Z</time>
      </trkpt>
      <trkpt lat="45.76175" lon="4.82777">
        <ele>165.6</ele>
        <time>2018-11-18T09:19:53Z</time>
      </trkpt>
      <trkpt lat="45.76174" lon="4.82765">
        <ele>168.7</ele>
        <time>2018-11-18T09:19:57Z</time>
      </trkpt>
      <trkpt lat="45.76172" lon="4.82754">
        <ele>172.2</ele>
        <time>2018-11-18T09:20:02Z</time>
      </trkpt>
      <trkpt lat="45.76167" lon="4.8274">
        <ele>174.5</ele>
        <time>2018-11-18T09:20:06Z</time>
      </trkpt>
      <trkpt lat="45.76166" lon="4.82728">
        <ele>177</ele>
        <time>2018-11-18T09:20:11Z</time>
      </trkpt>
      <trkpt lat="45.76167" lon="4.82716">
        <ele>178.6</ele>
        <time>2018-11-18T09:20:15Z</time>
      </trkpt>
      <trkpt lat="45.76166" lon="4.82705">
        <ele>179.7</ele>
        <time>2018-11-18T09:20:18Z</time>
      </trkpt>
      <trkpt lat="45.76164" lon="4.82695">
        <ele>181.6</ele>
        <time>2018-11-18T09:20:23Z</time>
      </trkpt>
      <trkpt lat="45.76171" lon="4.82684">
        <ele>183.6</ele>
        <time>2018-11-18T09:20:29Z</time>
      </trkpt>
      <trkpt lat="45.76179" lon="4.8268">
        <ele>184.8</ele>
        <time>2018-11-18T09:20:31Z</time>
      </trkpt>
      <trkpt lat="45.76183" lon="4.8267">
        <ele>187.3</ele>
        <time>2018-11-18T09:20:35Z</time>
      </trkpt>
      <trkpt lat="45.76187" lon="4.82658">
        <ele>189.9</ele>
        <time>2018-11-18T09:20:39Z</time>
      </trkpt>
      <trkpt lat="45.76189" lon="4.82646">
        <ele>192.7</ele>
        <time>2018-11-18T09:20:43Z</time>
      </trkpt>
      <trkpt lat="45.76193" lon="4.82636">
        <ele>195.4</ele>
        <time>2018-11-18T09:20:47Z</time>
      </trkpt>
      <trkpt lat="45.76194" lon="4.82625">
        <ele>198.6</ele>
        <time>2018-11-18T09:20:52Z</time>
      </trkpt>
      <trkpt lat="45.76202" lon="4.8262">
        <ele>202.1</ele>
        <time>2018-11-18T09:20:56Z</time>
      </trkpt>
      <trkpt lat="45.76205" lon="4.82611">
        <ele>204.9</ele>
        <time>2018-11-18T09:21:02Z</time>
      </trkpt>
      <trkpt lat="45.76204" lon="4.82599">
        <ele>208.3</ele>
        <time>2018-11-18T09:21:07Z</time>
      </trkpt>
      <trkpt lat="45.76201" lon="4.82588">
        <ele>210.7</ele>
        <time>2018-11-18T09:21:12Z</time>
      </trkpt>
      <trkpt lat="45.76197" lon="4.82578">
        <ele>212.4</ele>
        <time>2018-11-18T09:21:17Z</time>
      </trkpt>
      <trkpt lat="45.76192" lon="4.82569">
        <ele>214</ele>
        <time>2018-11-18T09:21:23Z</time>
      </trkpt>
      <trkpt lat="45.76186" lon="4.82559">
        <ele>215</ele>
        <time>2018-11-18T09:21:27Z</time>
      </trkpt>
      <trkpt lat="45.76178" lon="4.82557">
        <ele>216.7</ele>
        <time>2018-11-18T09:21:34Z</time>
      </trkpt>
      <trkpt lat="45.76173" lon="4.82554">
        <ele>218.4</ele>
        <time>2018-11-18T09:21:41Z</time>
      </trkpt>
      <trkpt lat="45.76166" lon="4.82549">
        <ele>219.7</ele>
        <time>2018-11-18T09:21:47Z</time>
      </trkpt>
      <trkpt lat="45.7616" lon="4.82543">
        <ele>220.8</ele>
        <time>2018-11-18T09:21:52Z</time>
      </trkpt>
      <trkpt lat="45.76152" lon="4.82541">
        <ele>221.7</ele>
        <time>2018-11-18T09:21:57Z</time>
      </trkpt>
      <trkpt lat="45.76145" lon="4.82537">
        <ele>222.7</ele>
        <time>2018-11-18T09:22:03Z</time>
      </trkpt>
      <trkpt lat="45.7614" lon="4.8253">
        <ele>223.8</ele>
        <time>2018-11-18T09:22:10Z</time>
      </trkpt>
      <trkpt lat="45.76133" lon="4.82525">
        <ele>224.9</ele>
        <time>2018-11-18T09:22:17Z</time>
      </trkpt>
      <trkpt lat="45.76126" lon="4.82521">
        <ele>226</ele>
        <time>2018-11-18T09:22:23Z</time>
      </trkpt>
      <trkpt lat="45.7612" lon="4.82515">
        <ele>227.5</ele>
        <time>2018-11-18T09:22:30Z</time>
      </trkpt>
      <trkpt lat="45.76113" lon="4.82511">
        <ele>228.3</ele>
        <time>2018-11-18T09:22:34Z</time>
      </trkpt>
      <trkpt lat="45.76105" lon="4.82509">
        <ele>228.9</ele>
        <time>2018-11-18T09:22:38Z</time>
      </trkpt>
      <trkpt lat="45.76098" lon="4.82507">
        <ele>229.7</ele>
        <time>2018-11-18T09:22:43Z</time>
      </trkpt>
      <trkpt lat="45.76092" lon="4.82502">
        <ele>230.4</ele>
        <time>2018-11-18T09:22:50Z</time>
      </trkpt>
      <trkpt lat="45.76083" lon="4.82499">
        <ele>230.8</ele>
        <time>2018-11-18T09:22:55Z</time>
      </trkpt>
      <trkpt lat="45.76076" lon="4.82499">
        <ele>231.6</ele>
        <time>2018-11-18T09:23:01Z</time>
      </trkpt>
      <trkpt lat="45.76068" lon="4.82496">
        <ele>232.6</ele>
        <time>2018-11-18T09:23:07Z</time>
      </trkpt>
      <trkpt lat="45.76062" lon="4.82494">
        <ele>233.8</ele>
        <time>2018-11-18T09:23:14Z</time>
      </trkpt>
      <trkpt lat="45.76055" lon="4.8249">
        <ele>234.7</ele>
        <time>2018-11-18T09:23:19Z</time>
      </trkpt>
      <trkpt lat="45.76046" lon="4.82487">
        <ele>235.8</ele>
        <time>2018-11-18T09:23:26Z</time>
      </trkpt>
      <trkpt lat="45.76039" lon="4.82483">
        <ele>236.4</ele>
        <time>2018-11-18T09:23:30Z</time>
      </trkpt>
      <trkpt lat="45.76033" lon="4.82478">
        <ele>237.3</ele>
        <time>2018-11-18T09:23:35Z</time>
      </trkpt>
      <trkpt lat="45.76026" lon="4.82473">
        <ele>238.2</ele>
        <time>2018-11-18T09:23:41Z</time>
      </trkpt>
      <trkpt lat="45.76018" lon="4.82469">
        <ele>239.2</ele>
        <time>2018-11-18T09:23:46Z</time>
      </trkpt>
      <trkpt lat="45.76011" lon="4.82465">
        <ele>240.8</ele>
        <time>2018-11-18T09:23:52Z</time>
      </trkpt>
      <trkpt lat="45.76006" lon="4.82458">
        <ele>242.5</ele>
        <time>2018-11-18T09:23:59Z</time>
      </trkpt>
      <trkpt lat="45.76" lon="4.82451">
        <ele>244.1</ele>
        <time>2018-11-18T09:24:06Z</time>
      </trkpt>
      <trkpt lat="45.75996" lon="4.82447">
        <ele>245.2</ele>
        <time>2018-11-18T09:24:13Z</time>
      </trkpt>
      <trkpt lat="45.75988" lon="4.82445">
        <ele>245.8</ele>
        <time>2018-11-18T09:24:19Z</time>
      </trkpt>
      <trkpt lat="45.75981" lon="4.82441">
        <ele>246.4</ele>
        <time>2018-11-18T09:24:25Z</time>
      </trkpt>
      <trkpt lat="45.75972" lon="4.82438">
        <ele>247.2</ele>
        <time>2018-11-18T09:24:31Z</time>
      </trkpt>
      <trkpt lat="45.75965" lon="4.82434">
        <ele>247.7</ele>
        <time>2018-11-18T09:24:36Z</time>
      </trkpt>
      <trkpt lat="45.75957" lon="4.8243">
        <ele>248.6</ele>
        <time>2018-11-18T09:24:40Z</time>
      </trkpt>
      <trkpt lat="45.7595" lon="4.82427">
        <ele>249.6</ele>
        <time>2018-11-18T09:24:44Z</time>
      </trkpt>
      <trkpt lat="45.75943" lon="4.82423">
        <ele>251</ele>
        <time>2018-11-18T09:24:49Z</time>
      </trkpt>
      <trkpt lat="45.75935" lon="4.82417">
        <ele>252.6</ele>
        <time>2018-11-18T09:24:54Z</time>
      </trkpt>
      <trkpt lat="45.75928" lon="4.82413">
        <ele>254.2</ele>
        <time>2018-11-18T09:24:59Z</time>
      </trkpt>
      <trkpt lat="45.7592" lon="4.82409">
        <ele>256.1</ele>
        <time>2018-11-18T09:25:05Z</time>
      </trkpt>
      <trkpt lat="45.75912" lon="4.82404">
        <ele>258</ele>
        <time>2018-11-18T09:25:11Z</time>
      </trkpt>
      <trkpt lat="45.75906" lon="4.82399">
        <ele>259.7</ele>
        <time>2018-11-18T09:25:17Z</time>
      </trkpt>
      <trkpt lat="45.75899" lon="4.82393">
        <ele>261.2</ele>
        <time>2018-11-18T09:25:23Z</time>
      </trkpt>
      <trkpt lat="45.75894" lon="4.82386">
        <ele>262.5</ele>
        <time>2018-11-18T09:25:28Z</time>
      </trkpt>
      <trkpt lat="45.7589" lon="4.82376">
        <ele>263.4</ele>
        <time>2018-11-18T09:25:33Z</time>
      </trkpt>
      <trkpt lat="45.75885" lon="4.82367">
        <ele>264.1</ele>
        <time>2018-11-18T09:25:37Z</time>
      </trkpt>
      <trkpt lat="45.75878" lon="4.82358">
        <ele>264.9</ele>
        <time>2018-11-18T09:25:41Z</time>
      </trkpt>
      <trkpt lat="45.75873" lon="4.82353">
        <ele>266.1</ele>
        <time>2018-11-18T09:25:48Z</time>
      </trkpt>
      <trkpt lat="45.75868" lon="4.82365">
        <ele>266.9</ele>
        <time>2018-11-18T09:25:51Z</time>
      </trkpt>
      <trkpt lat="45.75863" lon="4.82356">
        <ele>269.2</ele>
        <time>2018-11-18T09:25:58Z</time>
      </trkpt>
      <trkpt lat="45.75862" lon="4.82351">
        <ele>271.2</ele>
        <time>2018-11-18T09:26:05Z</time>
      </trkpt>
      <trkpt lat="45.75861" lon="4.82339">
        <ele>272.9</ele>
        <time>2018-11-18T09:26:12Z</time>
      </trkpt>
      <trkpt lat="45.75859" lon="4.82327">
        <ele>274.3</ele>
        <time>2018-11-18T09:26:18Z</time>
      </trkpt>
      <trkpt lat="45.75856" lon="4.82317">
        <ele>275.6</ele>
        <time>2018-11-18T09:26:23Z</time>
      </trkpt>
      <trkpt lat="45.75853" lon="4.82306">
        <ele>277.2</ele>
        <time>2018-11-18T09:26:28Z</time>
      </trkpt>
      <trkpt lat="45.75851" lon="4.82295">
        <ele>278.4</ele>
        <time>2018-11-18T09:26:32Z</time>
      </trkpt>
      <trkpt lat="45.7585" lon="4.82282">
        <ele>279.7</ele>
        <time>2018-11-18T09:26:37Z</time>
      </trkpt>
      <trkpt lat="45.75847" lon="4.82269">
        <ele>280.9</ele>
        <time>2018-11-18T09:26:41Z</time>
      </trkpt>
      <trkpt lat="45.75842" lon="4.82261">
        <ele>283.3</ele>
        <time>2018-11-18T09:26:48Z</time>
      </trkpt>
      <trkpt lat="45.75839" lon="4.8225">
        <ele>285.1</ele>
        <time>2018-11-18T09:26:54Z</time>
      </trkpt>
      <trkpt lat="45.75834" lon="4.8224">
        <ele>286.4</ele>
        <time>2018-11-18T09:26:59Z</time>
      </trkpt>
      <trkpt lat="45.75831" lon="4.8223">
        <ele>287.2</ele>
        <time>2018-11-18T09:27:03Z</time>
      </trkpt>
      <trkpt lat="45.75829" lon="4.8222">
        <ele>288</ele>
        <time>2018-11-18T09:27:07Z</time>
      </trkpt>
      <trkpt lat="45.75824" lon="4.82208">
        <ele>288.5</ele>
        <time>2018-11-18T09:27:11Z</time>
      </trkpt>
      <trkpt lat="45.75825" lon="4.82199">
        <ele>288.8</ele>
        <time>2018-11-18T09:27:18Z</time>
      </trkpt>
      <trkpt lat="45.75832" lon="4.82207">
        <ele>289</ele>
        <time>2018-11-18T09:27:24Z</time>
      </trkpt>
      <trkpt lat="45.75839" lon="4.82213">
        <ele>289</ele>
        <time>2018-11-18T09:27:29Z</time>
      </trkpt>
      <trkpt lat="45.75847" lon="4.82215">
        <ele>289</ele>
        <time>2018-11-18T09:27:33Z</time>
      </trkpt>
      <trkpt lat="45.75856" lon="4.82217">
        <ele>289.1</ele>
        <time>2018-11-18T09:27:38Z</time>
      </trkpt>
      <trkpt lat="45.75863" lon="4.8222">
        <ele>289.2</ele>
        <time>2018-11-18T09:27:42Z</time>
      </trkpt>
      <trkpt lat="45.7587" lon="4.82221">
        <ele>289.3</ele>
        <time>2018-11-18T09:27:47Z</time>
      </trkpt>
      <trkpt lat="45.75878" lon="4.82226">
        <ele>289.5</ele>
        <time>2018-11-18T09:27:53Z</time>
      </trkpt>
      <trkpt lat="45.7588" lon="4.82227">
        <ele>289.7</ele>
        <time>2018-11-18T09:28:00Z</time>
      </trkpt>
      <trkpt lat="45.75888" lon="4.82228">
        <ele>289.9</ele>
        <time>2018-11-18T09:28:07Z</time>
      </trkpt>
      <trkpt lat="45.75896" lon="4.82229">
        <ele>290.4</ele>
        <time>2018-11-18T09:28:11Z</time>
      </trkpt>
      <trkpt lat="45.75903" lon="4.82229">
        <ele>291.2</ele>
        <time>2018-11-18T09:28:16Z</time>
      </trkpt>
      <trkpt lat="45.75911" lon="4.82232">
        <ele>292.4</ele>
        <time>2018-11-18T09:28:23Z</time>
      </trkpt>
      <trkpt lat="45.75916" lon="4.82234">
        <ele>293.2</ele>
        <time>2018-11-18T09:28:30Z</time>
      </trkpt>
      <trkpt lat="45.75924" lon="4.82238">
        <ele>293.8</ele>
        <time>2018-11-18T09:28:35Z</time>
      </trkpt>
      <trkpt lat="45.75932" lon="4.82239">
        <ele>294.5</ele>
        <time>2018-11-18T09:28:40Z</time>
      </trkpt>
      <trkpt lat="45.75939" lon="4.82237">
        <ele>295.1</ele>
        <time>2018-11-18T09:28:46Z</time>
      </trkpt>
      <trkpt lat="45.75948" lon="4.82235">
        <ele>296.2</ele>
        <time>2018-11-18T09:28:52Z</time>
      </trkpt>
      <trkpt lat="45.75952" lon="4.82233">
        <ele>297.6</ele>
        <time>2018-11-18T09:28:59Z</time>
      </trkpt>
      <trkpt lat="45.75954" lon="4.82228">
        <ele>299.5</ele>
        <time>2018-11-18T09:29:06Z</time>
      </trkpt>
      <trkpt lat="45.75957" lon="4.82227">
        <ele>301.7</ele>
        <time>2018-11-18T09:29:13Z</time>
      </trkpt>
      <trkpt lat="45.75963" lon="4.82234">
        <ele>303.5</ele>
        <time>2018-11-18T09:29:20Z</time>
      </trkpt>
      <trkpt lat="45.7597" lon="4.82241">
        <ele>304</ele>
        <time>2018-11-18T09:29:23Z</time>
      </trkpt>
      <trkpt lat="45.75972" lon="4.82246">
        <ele>304.8</ele>
        <time>2018-11-18T09:29:30Z</time>
      </trkpt>
      <trkpt lat="45.75973" lon="4.82248">
        <ele>305.3</ele>
        <time>2018-11-18T09:29:37Z</time>
      </trkpt>
      <trkpt lat="45.7598" lon="4.82253">
        <ele>305.4</ele>
        <time>2018-11-18T09:29:41Z</time>
      </trkpt>
      <trkpt lat="45.75985" lon="4.82262">
        <ele>305.4</ele>
        <time>2018-11-18T09:29:45Z</time>
      </trkpt>
      <trkpt lat="45.75999" lon="4.82263">
        <ele>305.7</ele>
        <time>2018-11-18T09:29:49Z</time>
      </trkpt>
      <trkpt lat="45.76006" lon="4.82264">
        <ele>307.3</ele>
        <time>2018-11-18T09:29:55Z</time>
      </trkpt>
      <trkpt lat="45.76091" lon="4.82337">
        <ele>315.5</ele>
        <time>2018-11-18T09:31:12Z</time>
      </trkpt>
      <trkpt lat="45.761" lon="4.82336">
        <ele>319.3</ele>
        <time>2018-11-18T09:31:14Z</time>
      </trkpt>
      <trkpt lat="45.76101" lon="4.82338">
        <ele>321.2</ele>
        <time>2018-11-18T09:31:21Z</time>
      </trkpt>
      <trkpt lat="45.76108" lon="4.82333">
        <ele>317.9</ele>
        <time>2018-11-18T09:31:26Z</time>
      </trkpt>
      <trkpt lat="45.76111" lon="4.82324">
        <ele>311.6</ele>
        <time>2018-11-18T09:31:33Z</time>
      </trkpt>
      <trkpt lat="45.76118" lon="4.8232">
        <ele>310.4</ele>
        <time>2018-11-18T09:31:35Z</time>
      </trkpt>
      <trkpt lat="45.76123" lon="4.82313">
        <ele>310.6</ele>
        <time>2018-11-18T09:31:39Z</time>
      </trkpt>
      <trkpt lat="45.76132" lon="4.82314">
        <ele>311</ele>
        <time>2018-11-18T09:31:46Z</time>
      </trkpt>
      <trkpt lat="45.7614" lon="4.82316">
        <ele>310.9</ele>
        <time>2018-11-18T09:31:51Z</time>
      </trkpt>
      <trkpt lat="45.76149" lon="4.82313">
        <ele>310.6</ele>
        <time>2018-11-18T09:31:55Z</time>
      </trkpt>
      <trkpt lat="45.76159" lon="4.82313">
        <ele>310.4</ele>
        <time>2018-11-18T09:31:59Z</time>
      </trkpt>
      <trkpt lat="45.76167" lon="4.82311">
        <ele>310.3</ele>
        <time>2018-11-18T09:32:04Z</time>
      </trkpt>
      <trkpt lat="45.76174" lon="4.82303">
        <ele>311.2</ele>
        <time>2018-11-18T09:32:11Z</time>
      </trkpt>
      <trkpt lat="45.76181" lon="4.823">
        <ele>312.1</ele>
        <time>2018-11-18T09:32:17Z</time>
      </trkpt>
      <trkpt lat="45.76188" lon="4.82297">
        <ele>313</ele>
        <time>2018-11-18T09:32:23Z</time>
      </trkpt>
      <trkpt lat="45.76195" lon="4.82297">
        <ele>314.1</ele>
        <time>2018-11-18T09:32:30Z</time>
      </trkpt>
      <trkpt lat="45.76198" lon="4.82293">
        <ele>315.3</ele>
        <time>2018-11-18T09:32:37Z</time>
      </trkpt>
      <trkpt lat="45.76205" lon="4.82297">
        <ele>316.3</ele>
        <time>2018-11-18T09:32:43Z</time>
      </trkpt>
      <trkpt lat="45.76214" lon="4.82297">
        <ele>316.7</ele>
        <time>2018-11-18T09:32:49Z</time>
      </trkpt>
      <trkpt lat="45.76221" lon="4.82297">
        <ele>316.4</ele>
        <time>2018-11-18T09:32:53Z</time>
      </trkpt>
      <trkpt lat="45.76228" lon="4.82302">
        <ele>316.2</ele>
        <time>2018-11-18T09:32:59Z</time>
      </trkpt>
      <trkpt lat="45.76236" lon="4.82303">
        <ele>316.1</ele>
        <time>2018-11-18T09:33:04Z</time>
      </trkpt>
      <trkpt lat="45.76241" lon="4.82297">
        <ele>316.4</ele>
        <time>2018-11-18T09:33:11Z</time>
      </trkpt>
      <trkpt lat="45.76242" lon="4.8229">
        <ele>317.2</ele>
        <time>2018-11-18T09:33:18Z</time>
      </trkpt>
      <trkpt lat="45.76249" lon="4.82288">
        <ele>318.4</ele>
        <time>2018-11-18T09:33:25Z</time>
      </trkpt>
      <trkpt lat="45.76252" lon="4.82289">
        <ele>319.3</ele>
        <time>2018-11-18T09:33:32Z</time>
      </trkpt>
      <trkpt lat="45.76257" lon="4.82295">
        <ele>320.9</ele>
        <time>2018-11-18T09:33:39Z</time>
      </trkpt>
      <trkpt lat="45.76264" lon="4.82296">
        <ele>322.2</ele>
        <time>2018-11-18T09:33:46Z</time>
      </trkpt>
      <trkpt lat="45.7627" lon="4.82298">
        <ele>323.1</ele>
        <time>2018-11-18T09:33:53Z</time>
      </trkpt>
      <trkpt lat="45.76277" lon="4.82302">
        <ele>323.8</ele>
        <time>2018-11-18T09:33:59Z</time>
      </trkpt>
      <trkpt lat="45.76279" lon="4.82301">
        <ele>323.9</ele>
        <time>2018-11-18T09:34:06Z</time>
      </trkpt>
      <trkpt lat="45.76279" lon="4.82284">
        <ele>326.5</ele>
        <time>2018-11-18T09:34:43Z</time>
      </trkpt>
      <trkpt lat="45.76278" lon="4.82272">
        <ele>327.3</ele>
        <time>2018-11-18T09:34:48Z</time>
      </trkpt>
      <trkpt lat="45.76281" lon="4.82262">
        <ele>328.4</ele>
        <time>2018-11-18T09:34:54Z</time>
      </trkpt>
      <trkpt lat="45.76286" lon="4.82252">
        <ele>329.5</ele>
        <time>2018-11-18T09:35:00Z</time>
      </trkpt>
      <trkpt lat="45.76281" lon="4.8225">
        <ele>330.9</ele>
        <time>2018-11-18T09:35:07Z</time>
      </trkpt>
      <trkpt lat="45.76278" lon="4.82241">
        <ele>332.3</ele>
        <time>2018-11-18T09:35:13Z</time>
      </trkpt>
      <trkpt lat="45.76275" lon="4.8224">
        <ele>333.8</ele>
        <time>2018-11-18T09:35:20Z</time>
      </trkpt>
      <trkpt lat="45.76271" lon="4.8223">
        <ele>334.7</ele>
        <time>2018-11-18T09:35:26Z</time>
      </trkpt>
      <trkpt lat="45.76272" lon="4.82227">
        <ele>335.8</ele>
        <time>2018-11-18T09:35:33Z</time>
      </trkpt>
      <trkpt lat="45.76281" lon="4.82224">
        <ele>336.6</ele>
        <time>2018-11-18T09:35:38Z</time>
      </trkpt>
      <trkpt lat="45.76288" lon="4.82224">
        <ele>336.9</ele>
        <time>2018-11-18T09:35:42Z</time>
      </trkpt>
      <trkpt lat="45.76296" lon="4.82222">
        <ele>337.3</ele>
        <time>2018-11-18T09:35:45Z</time>
      </trkpt>
      <trkpt lat="45.76305" lon="4.82219">
        <ele>337.8</ele>
        <time>2018-11-18T09:35:49Z</time>
      </trkpt>
      <trkpt lat="45.76314" lon="4.82219">
        <ele>338.2</ele>
        <time>2018-11-18T09:35:52Z</time>
      </trkpt>
      <trkpt lat="45.76323" lon="4.82219">
        <ele>338.7</ele>
        <time>2018-11-18T09:35:55Z</time>
      </trkpt>
      <trkpt lat="45.76331" lon="4.82219">
        <ele>339.2</ele>
        <time>2018-11-18T09:35:58Z</time>
      </trkpt>
      <trkpt lat="45.76339" lon="4.8222">
        <ele>339.8</ele>
        <time>2018-11-18T09:36:02Z</time>
      </trkpt>
      <trkpt lat="45.76347" lon="4.8222">
        <ele>340.5</ele>
        <time>2018-11-18T09:36:06Z</time>
      </trkpt>
      <trkpt lat="45.76351" lon="4.82212">
        <ele>340.9</ele>
        <time>2018-11-18T09:36:10Z</time>
      </trkpt>
      <trkpt lat="45.7635" lon="4.82199">
        <ele>341.1</ele>
        <time>2018-11-18T09:36:15Z</time>
      </trkpt>
      <trkpt lat="45.7635" lon="4.82188">
        <ele>341.1</ele>
        <time>2018-11-18T09:36:19Z</time>
      </trkpt>
      <trkpt lat="45.76348" lon="4.82176">
        <ele>341.1</ele>
        <time>2018-11-18T09:36:22Z</time>
      </trkpt>
      <trkpt lat="45.76346" lon="4.82165">
        <ele>341.1</ele>
        <time>2018-11-18T09:36:25Z</time>
      </trkpt>
      <trkpt lat="45.76341" lon="4.82155">
        <ele>341.2</ele>
        <time>2018-11-18T09:36:28Z</time>
      </trkpt>
      <trkpt lat="45.76334" lon="4.82149">
        <ele>341.1</ele>
        <time>2018-11-18T09:36:32Z</time>
      </trkpt>
      <trkpt lat="45.7633" lon="4.82139">
        <ele>341.1</ele>
        <time>2018-11-18T09:36:36Z</time>
      </trkpt>
      <trkpt lat="45.76326" lon="4.82128">
        <ele>341</ele>
        <time>2018-11-18T09:36:39Z</time>
      </trkpt>
      <trkpt lat="45.76323" lon="4.82118">
        <ele>341</ele>
        <time>2018-11-18T09:36:42Z</time>
      </trkpt>
      <trkpt lat="45.76321" lon="4.82108">
        <ele>340.9</ele>
        <time>2018-11-18T09:36:45Z</time>
      </trkpt>
      <trkpt lat="45.76318" lon="4.82096">
        <ele>340.7</ele>
        <time>2018-11-18T09:36:49Z</time>
      </trkpt>
      <trkpt lat="45.76316" lon="4.82086">
        <ele>340.6</ele>
        <time>2018-11-18T09:36:52Z</time>
      </trkpt>
      <trkpt lat="45.76314" lon="4.82075">
        <ele>340.3</ele>
        <time>2018-11-18T09:36:57Z</time>
      </trkpt>
      <trkpt lat="45.76311" lon="4.82065">
        <ele>340.1</ele>
        <time>2018-11-18T09:37:01Z</time>
      </trkpt>
      <trkpt lat="45.76308" lon="4.82054">
        <ele>339.9</ele>
        <time>2018-11-18T09:37:04Z</time>
      </trkpt>
      <trkpt lat="45.76305" lon="4.82042">
        <ele>339.7</ele>
        <time>2018-11-18T09:37:08Z</time>
      </trkpt>
      <trkpt lat="45.76303" lon="4.82032">
        <ele>339.5</ele>
        <time>2018-11-18T09:37:11Z</time>
      </trkpt>
      <trkpt lat="45.763" lon="4.82022">
        <ele>339.3</ele>
        <time>2018-11-18T09:37:14Z</time>
      </trkpt>
      <trkpt lat="45.76299" lon="4.82008">
        <ele>339.1</ele>
        <time>2018-11-18T09:37:18Z</time>
      </trkpt>
      <trkpt lat="45.763" lon="4.81997">
        <ele>338.8</ele>
        <time>2018-11-18T09:37:21Z</time>
      </trkpt>
      <trkpt lat="45.76301" lon="4.81985">
        <ele>338.5</ele>
        <time>2018-11-18T09:37:24Z</time>
      </trkpt>
      <trkpt lat="45.76302" lon="4.81975">
        <ele>338.3</ele>
        <time>2018-11-18T09:37:27Z</time>
      </trkpt>
      <trkpt lat="45.76304" lon="4.81964">
        <ele>338</ele>
        <time>2018-11-18T09:37:30Z</time>
      </trkpt>
      <trkpt lat="45.76306" lon="4.81955">
        <ele>337.7</ele>
        <time>2018-11-18T09:37:37Z</time>
      </trkpt>
      <trkpt lat="45.76309" lon="4.81944">
        <ele>336.7</ele>
        <time>2018-11-18T09:37:48Z</time>
      </trkpt>
      <trkpt lat="45.76311" lon="4.81934">
        <ele>336.1</ele>
        <time>2018-11-18T09:37:51Z</time>
      </trkpt>
      <trkpt lat="45.76314" lon="4.81922">
        <ele>335.6</ele>
        <time>2018-11-18T09:37:54Z</time>
      </trkpt>
      <trkpt lat="45.76316" lon="4.81911">
        <ele>335.1</ele>
        <time>2018-11-18T09:37:57Z</time>
      </trkpt>
      <trkpt lat="45.76319" lon="4.81899">
        <ele>334.5</ele>
        <time>2018-11-18T09:38:01Z</time>
      </trkpt>
      <trkpt lat="45.76322" lon="4.81889">
        <ele>334.1</ele>
        <time>2018-11-18T09:38:04Z</time>
      </trkpt>
      <trkpt lat="45.76326" lon="4.81877">
        <ele>333.7</ele>
        <time>2018-11-18T09:38:08Z</time>
      </trkpt>
      <trkpt lat="45.76328" lon="4.81865">
        <ele>333.2</ele>
        <time>2018-11-18T09:38:12Z</time>
      </trkpt>
      <trkpt lat="45.76328" lon="4.81855">
        <ele>332.6</ele>
        <time>2018-11-18T09:38:16Z</time>
      </trkpt>
      <trkpt lat="45.76329" lon="4.81842">
        <ele>331.7</ele>
        <time>2018-11-18T09:38:20Z</time>
      </trkpt>
      <trkpt lat="45.76329" lon="4.81831">
        <ele>331.1</ele>
        <time>2018-11-18T09:38:23Z</time>
      </trkpt>
      <trkpt lat="45.76329" lon="4.81821">
        <ele>330.4</ele>
        <time>2018-11-18T09:38:26Z</time>
      </trkpt>
      <trkpt lat="45.76328" lon="4.8181">
        <ele>329.8</ele>
        <time>2018-11-18T09:38:29Z</time>
      </trkpt>
      <trkpt lat="45.76327" lon="4.81799">
        <ele>329.1</ele>
        <time>2018-11-18T09:38:33Z</time>
      </trkpt>
      <trkpt lat="45.76328" lon="4.81786">
        <ele>328.4</ele>
        <time>2018-11-18T09:38:37Z</time>
      </trkpt>
      <trkpt lat="45.76326" lon="4.81776">
        <ele>327.9</ele>
        <time>2018-11-18T09:38:40Z</time>
      </trkpt>
      <trkpt lat="45.76328" lon="4.81765">
        <ele>327.3</ele>
        <time>2018-11-18T09:38:44Z</time>
      </trkpt>
      <trkpt lat="45.76329" lon="4.81752">
        <ele>326.9</ele>
        <time>2018-11-18T09:38:48Z</time>
      </trkpt>
      <trkpt lat="45.7633" lon="4.81738">
        <ele>326.8</ele>
        <time>2018-11-18T09:38:52Z</time>
      </trkpt>
      <trkpt lat="45.7633" lon="4.81727">
        <ele>326.7</ele>
        <time>2018-11-18T09:38:56Z</time>
      </trkpt>
      <trkpt lat="45.76333" lon="4.81717">
        <ele>326.9</ele>
        <time>2018-11-18T09:39:02Z</time>
      </trkpt>
      <trkpt lat="45.76335" lon="4.81704">
        <ele>326.9</ele>
        <time>2018-11-18T09:39:06Z</time>
      </trkpt>
      <trkpt lat="45.76335" lon="4.81692">
        <ele>327</ele>
        <time>2018-11-18T09:39:10Z</time>
      </trkpt>
      <trkpt lat="45.76333" lon="4.81682">
        <ele>327</ele>
        <time>2018-11-18T09:39:13Z</time>
      </trkpt>
      <trkpt lat="45.76329" lon="4.81673">
        <ele>327.3</ele>
        <time>2018-11-18T09:39:17Z</time>
      </trkpt>
      <trkpt lat="45.76326" lon="4.81662">
        <ele>327.8</ele>
        <time>2018-11-18T09:39:21Z</time>
      </trkpt>
      <trkpt lat="45.76323" lon="4.81649">
        <ele>328.3</ele>
        <time>2018-11-18T09:39:25Z</time>
      </trkpt>
      <trkpt lat="45.76321" lon="4.81638">
        <ele>328.8</ele>
        <time>2018-11-18T09:39:29Z</time>
      </trkpt>
      <trkpt lat="45.76321" lon="4.81624">
        <ele>329.4</ele>
        <time>2018-11-18T09:39:33Z</time>
      </trkpt>
      <trkpt lat="45.76319" lon="4.81613">
        <ele>330</ele>
        <time>2018-11-18T09:39:37Z</time>
      </trkpt>
      <trkpt lat="45.76317" lon="4.81602">
        <ele>330.8</ele>
        <time>2018-11-18T09:39:42Z</time>
      </trkpt>
      <trkpt lat="45.76315" lon="4.81589">
        <ele>331.8</ele>
        <time>2018-11-18T09:39:47Z</time>
      </trkpt>
      <trkpt lat="45.76315" lon="4.81576">
        <ele>332.8</ele>
        <time>2018-11-18T09:39:52Z</time>
      </trkpt>
      <trkpt lat="45.76315" lon="4.81565">
        <ele>333.5</ele>
        <time>2018-11-18T09:39:56Z</time>
      </trkpt>
      <trkpt lat="45.76312" lon="4.81553">
        <ele>334.1</ele>
        <time>2018-11-18T09:40:00Z</time>
      </trkpt>
      <trkpt lat="45.7631" lon="4.81541">
        <ele>334.8</ele>
        <time>2018-11-18T09:40:05Z</time>
      </trkpt>
      <trkpt lat="45.76308" lon="4.81529">
        <ele>335.2</ele>
        <time>2018-11-18T09:40:09Z</time>
      </trkpt>
      <trkpt lat="45.76304" lon="4.81518">
        <ele>335.4</ele>
        <time>2018-11-18T09:40:13Z</time>
      </trkpt>
      <trkpt lat="45.76303" lon="4.81505">
        <ele>335.6</ele>
        <time>2018-11-18T09:40:17Z</time>
      </trkpt>
      <trkpt lat="45.76302" lon="4.81494">
        <ele>335.8</ele>
        <time>2018-11-18T09:40:20Z</time>
      </trkpt>
      <trkpt lat="45.76303" lon="4.81483">
        <ele>336</ele>
        <time>2018-11-18T09:40:23Z</time>
      </trkpt>
      <trkpt lat="45.76302" lon="4.81471">
        <ele>336.4</ele>
        <time>2018-11-18T09:40:27Z</time>
      </trkpt>
      <trkpt lat="45.76299" lon="4.81459">
        <ele>336.9</ele>
        <time>2018-11-18T09:40:31Z</time>
      </trkpt>
      <trkpt lat="45.76298" lon="4.81447">
        <ele>337.5</ele>
        <time>2018-11-18T09:40:36Z</time>
      </trkpt>
      <trkpt lat="45.76296" lon="4.81437">
        <ele>338</ele>
        <time>2018-11-18T09:40:40Z</time>
      </trkpt>
      <trkpt lat="45.76299" lon="4.81427">
        <ele>338.5</ele>
        <time>2018-11-18T09:40:45Z</time>
      </trkpt>
      <trkpt lat="45.76302" lon="4.81418">
        <ele>338.5</ele>
        <time>2018-11-18T09:40:49Z</time>
      </trkpt>
      <trkpt lat="45.76303" lon="4.81407">
        <ele>338.3</ele>
        <time>2018-11-18T09:40:53Z</time>
      </trkpt>
      <trkpt lat="45.76302" lon="4.81394">
        <ele>338</ele>
        <time>2018-11-18T09:40:58Z</time>
      </trkpt>
      <trkpt lat="45.76302" lon="4.81384">
        <ele>337.8</ele>
        <time>2018-11-18T09:41:02Z</time>
      </trkpt>
      <trkpt lat="45.76299" lon="4.8137">
        <ele>337.5</ele>
        <time>2018-11-18T09:41:06Z</time>
      </trkpt>
      <trkpt lat="45.76297" lon="4.81357">
        <ele>337.3</ele>
        <time>2018-11-18T09:41:10Z</time>
      </trkpt>
      <trkpt lat="45.76296" lon="4.81345">
        <ele>337</ele>
        <time>2018-11-18T09:41:15Z</time>
      </trkpt>
      <trkpt lat="45.76302" lon="4.81338">
        <ele>336.6</ele>
        <time>2018-11-18T09:41:22Z</time>
      </trkpt>
      <trkpt lat="45.7631" lon="4.81331">
        <ele>336.5</ele>
        <time>2018-11-18T09:41:27Z</time>
      </trkpt>
      <trkpt lat="45.76317" lon="4.81325">
        <ele>336.4</ele>
        <time>2018-11-18T09:41:31Z</time>
      </trkpt>
      <trkpt lat="45.76325" lon="4.81322">
        <ele>336.3</ele>
        <time>2018-11-18T09:41:36Z</time>
      </trkpt>
      <trkpt lat="45.76333" lon="4.81324">
        <ele>336</ele>
        <time>2018-11-18T09:41:40Z</time>
      </trkpt>
      <trkpt lat="45.76341" lon="4.81325">
        <ele>335.7</ele>
        <time>2018-11-18T09:41:43Z</time>
      </trkpt>
      <trkpt lat="45.76348" lon="4.81327">
        <ele>335.6</ele>
        <time>2018-11-18T09:41:46Z</time>
      </trkpt>
      <trkpt lat="45.76357" lon="4.81327">
        <ele>335.3</ele>
        <time>2018-11-18T09:41:50Z</time>
      </trkpt>
      <trkpt lat="45.76366" lon="4.81325">
        <ele>334.8</ele>
        <time>2018-11-18T09:41:54Z</time>
      </trkpt>
      <trkpt lat="45.76373" lon="4.81322">
        <ele>334.3</ele>
        <time>2018-11-18T09:41:57Z</time>
      </trkpt>
      <trkpt lat="45.76381" lon="4.81313">
        <ele>333.4</ele>
        <time>2018-11-18T09:42:02Z</time>
      </trkpt>
      <trkpt lat="45.76387" lon="4.81306">
        <ele>332.6</ele>
        <time>2018-11-18T09:42:06Z</time>
      </trkpt>
      <trkpt lat="45.76393" lon="4.81298">
        <ele>332</ele>
        <time>2018-11-18T09:42:09Z</time>
      </trkpt>
      <trkpt lat="45.76399" lon="4.81292">
        <ele>331.5</ele>
        <time>2018-11-18T09:42:12Z</time>
      </trkpt>
      <trkpt lat="45.76406" lon="4.81286">
        <ele>331.1</ele>
        <time>2018-11-18T09:42:15Z</time>
      </trkpt>
      <trkpt lat="45.76414" lon="4.81281">
        <ele>330.7</ele>
        <time>2018-11-18T09:42:18Z</time>
      </trkpt>
      <trkpt lat="45.76421" lon="4.81275">
        <ele>330.3</ele>
        <time>2018-11-18T09:42:21Z</time>
      </trkpt>
      <trkpt lat="45.76428" lon="4.81268">
        <ele>330</ele>
        <time>2018-11-18T09:42:24Z</time>
      </trkpt>
      <trkpt lat="45.76434" lon="4.81261">
        <ele>329.6</ele>
        <time>2018-11-18T09:42:27Z</time>
      </trkpt>
      <trkpt lat="45.7644" lon="4.81251">
        <ele>329.2</ele>
        <time>2018-11-18T09:42:31Z</time>
      </trkpt>
      <trkpt lat="45.76445" lon="4.81243">
        <ele>329</ele>
        <time>2018-11-18T09:42:34Z</time>
      </trkpt>
      <trkpt lat="45.76451" lon="4.81234">
        <ele>328.6</ele>
        <time>2018-11-18T09:42:38Z</time>
      </trkpt>
      <trkpt lat="45.76457" lon="4.81224">
        <ele>328.1</ele>
        <time>2018-11-18T09:42:42Z</time>
      </trkpt>
      <trkpt lat="45.76462" lon="4.81217">
        <ele>327.6</ele>
        <time>2018-11-18T09:42:45Z</time>
      </trkpt>
      <trkpt lat="45.76469" lon="4.81207">
        <ele>326.9</ele>
        <time>2018-11-18T09:42:49Z</time>
      </trkpt>
      <trkpt lat="45.76475" lon="4.81199">
        <ele>326.3</ele>
        <time>2018-11-18T09:42:52Z</time>
      </trkpt>
      <trkpt lat="45.7648" lon="4.81189">
        <ele>325.6</ele>
        <time>2018-11-18T09:42:55Z</time>
      </trkpt>
      <trkpt lat="45.76483" lon="4.81179">
        <ele>324.9</ele>
        <time>2018-11-18T09:42:58Z</time>
      </trkpt>
      <trkpt lat="45.76489" lon="4.81169">
        <ele>324</ele>
        <time>2018-11-18T09:43:02Z</time>
      </trkpt>
      <trkpt lat="45.76492" lon="4.81158">
        <ele>323</ele>
        <time>2018-11-18T09:43:06Z</time>
      </trkpt>
      <trkpt lat="45.76498" lon="4.81147">
        <ele>321.9</ele>
        <time>2018-11-18T09:43:10Z</time>
      </trkpt>
      <trkpt lat="45.76505" lon="4.81139">
        <ele>320.6</ele>
        <time>2018-11-18T09:43:14Z</time>
      </trkpt>
      <trkpt lat="45.7651" lon="4.81129">
        <ele>319.3</ele>
        <time>2018-11-18T09:43:18Z</time>
      </trkpt>
      <trkpt lat="45.76513" lon="4.81118">
        <ele>317.9</ele>
        <time>2018-11-18T09:43:22Z</time>
      </trkpt>
      <trkpt lat="45.76515" lon="4.81107">
        <ele>316.8</ele>
        <time>2018-11-18T09:43:25Z</time>
      </trkpt>
      <trkpt lat="45.76519" lon="4.81095">
        <ele>315.2</ele>
        <time>2018-11-18T09:43:29Z</time>
      </trkpt>
      <trkpt lat="45.76522" lon="4.81083">
        <ele>313.7</ele>
        <time>2018-11-18T09:43:33Z</time>
      </trkpt>
      <trkpt lat="45.76526" lon="4.81071">
        <ele>311.9</ele>
        <time>2018-11-18T09:43:38Z</time>
      </trkpt>
      <trkpt lat="45.76531" lon="4.81063">
        <ele>310.9</ele>
        <time>2018-11-18T09:43:41Z</time>
      </trkpt>
      <trkpt lat="45.76536" lon="4.81054">
        <ele>310</ele>
        <time>2018-11-18T09:43:44Z</time>
      </trkpt>
      <trkpt lat="45.7654" lon="4.81044">
        <ele>309</ele>
        <time>2018-11-18T09:43:48Z</time>
      </trkpt>
      <trkpt lat="45.76546" lon="4.81035">
        <ele>308.3</ele>
        <time>2018-11-18T09:43:51Z</time>
      </trkpt>
      <trkpt lat="45.76552" lon="4.81027">
        <ele>307.7</ele>
        <time>2018-11-18T09:43:54Z</time>
      </trkpt>
      <trkpt lat="45.76558" lon="4.81018">
        <ele>306.9</ele>
        <time>2018-11-18T09:43:58Z</time>
      </trkpt>
      <trkpt lat="45.76564" lon="4.81011">
        <ele>306.1</ele>
        <time>2018-11-18T09:44:02Z</time>
      </trkpt>
      <trkpt lat="45.76571" lon="4.81003">
        <ele>305.2</ele>
        <time>2018-11-18T09:44:06Z</time>
      </trkpt>
      <trkpt lat="45.76578" lon="4.80997">
        <ele>304.6</ele>
        <time>2018-11-18T09:44:09Z</time>
      </trkpt>
      <trkpt lat="45.76585" lon="4.80993">
        <ele>304.1</ele>
        <time>2018-11-18T09:44:12Z</time>
      </trkpt>
      <trkpt lat="45.76592" lon="4.80989">
        <ele>303.7</ele>
        <time>2018-11-18T09:44:15Z</time>
      </trkpt>
      <trkpt lat="45.76599" lon="4.80984">
        <ele>303.2</ele>
        <time>2018-11-18T09:44:18Z</time>
      </trkpt>
      <trkpt lat="45.76608" lon="4.80978">
        <ele>302.7</ele>
        <time>2018-11-18T09:44:22Z</time>
      </trkpt>
      <trkpt lat="45.76615" lon="4.80974">
        <ele>302.3</ele>
        <time>2018-11-18T09:44:25Z</time>
      </trkpt>
      <trkpt lat="45.76623" lon="4.80974">
        <ele>301.9</ele>
        <time>2018-11-18T09:44:29Z</time>
      </trkpt>
      <trkpt lat="45.76632" lon="4.80969">
        <ele>301.5</ele>
        <time>2018-11-18T09:44:32Z</time>
      </trkpt>
      <trkpt lat="45.76641" lon="4.80963">
        <ele>301.1</ele>
        <time>2018-11-18T09:44:35Z</time>
      </trkpt>
      <trkpt lat="45.7665" lon="4.80959">
        <ele>300.8</ele>
        <time>2018-11-18T09:44:38Z</time>
      </trkpt>
      <trkpt lat="45.76657" lon="4.80956">
        <ele>300.5</ele>
        <time>2018-11-18T09:44:41Z</time>
      </trkpt>
      <trkpt lat="45.76667" lon="4.80953">
        <ele>300.3</ele>
        <time>2018-11-18T09:44:44Z</time>
      </trkpt>
      <trkpt lat="45.76676" lon="4.8095">
        <ele>300.1</ele>
        <time>2018-11-18T09:44:47Z</time>
      </trkpt>
      <trkpt lat="45.76684" lon="4.80947">
        <ele>299.7</ele>
        <time>2018-11-18T09:44:51Z</time>
      </trkpt>
      <trkpt lat="45.76691" lon="4.80945">
        <ele>299.5</ele>
        <time>2018-11-18T09:44:54Z</time>
      </trkpt>
      <trkpt lat="45.76698" lon="4.80943">
        <ele>299.3</ele>
        <time>2018-11-18T09:44:57Z</time>
      </trkpt>
      <trkpt lat="45.76706" lon="4.80943">
        <ele>299.2</ele>
        <time>2018-11-18T09:45:00Z</time>
      </trkpt>
      <trkpt lat="45.76713" lon="4.80944">
        <ele>299.1</ele>
        <time>2018-11-18T09:45:03Z</time>
      </trkpt>
      <trkpt lat="45.76722" lon="4.80945">
        <ele>298.9</ele>
        <time>2018-11-18T09:45:07Z</time>
      </trkpt>
      <trkpt lat="45.76729" lon="4.80947">
        <ele>298.8</ele>
        <time>2018-11-18T09:45:10Z</time>
      </trkpt>
      <trkpt lat="45.76737" lon="4.8095">
        <ele>298.6</ele>
        <time>2018-11-18T09:45:13Z</time>
      </trkpt>
      <trkpt lat="45.76746" lon="4.80953">
        <ele>298.4</ele>
        <time>2018-11-18T09:45:16Z</time>
      </trkpt>
      <trkpt lat="45.76754" lon="4.80954">
        <ele>298.2</ele>
        <time>2018-11-18T09:45:19Z</time>
      </trkpt>
      <trkpt lat="45.76763" lon="4.80955">
        <ele>298</ele>
        <time>2018-11-18T09:45:23Z</time>
      </trkpt>
      <trkpt lat="45.76771" lon="4.80956">
        <ele>297.9</ele>
        <time>2018-11-18T09:45:26Z</time>
      </trkpt>
      <trkpt lat="45.76779" lon="4.80956">
        <ele>297.8</ele>
        <time>2018-11-18T09:45:29Z</time>
      </trkpt>
      <trkpt lat="45.76788" lon="4.80956">
        <ele>297.7</ele>
        <time>2018-11-18T09:45:33Z</time>
      </trkpt>
      <trkpt lat="45.76795" lon="4.80959">
        <ele>297.7</ele>
        <time>2018-11-18T09:45:36Z</time>
      </trkpt>
      <trkpt lat="45.76803" lon="4.80961">
        <ele>297.4</ele>
        <time>2018-11-18T09:45:39Z</time>
      </trkpt>
      <trkpt lat="45.7681" lon="4.80964">
        <ele>297</ele>
        <time>2018-11-18T09:45:43Z</time>
      </trkpt>
      <trkpt lat="45.76818" lon="4.80965">
        <ele>296.8</ele>
        <time>2018-11-18T09:45:46Z</time>
      </trkpt>
      <trkpt lat="45.76826" lon="4.80968">
        <ele>296.4</ele>
        <time>2018-11-18T09:45:49Z</time>
      </trkpt>
      <trkpt lat="45.76835" lon="4.80969">
        <ele>295.9</ele>
        <time>2018-11-18T09:45:53Z</time>
      </trkpt>
      <trkpt lat="45.76845" lon="4.8097">
        <ele>295.1</ele>
        <time>2018-11-18T09:45:57Z</time>
      </trkpt>
      <trkpt lat="45.76855" lon="4.80969">
        <ele>294.3</ele>
        <time>2018-11-18T09:46:01Z</time>
      </trkpt>
      <trkpt lat="45.76862" lon="4.80968">
        <ele>293.7</ele>
        <time>2018-11-18T09:46:04Z</time>
      </trkpt>
      <trkpt lat="45.76871" lon="4.8097">
        <ele>293.2</ele>
        <time>2018-11-18T09:46:07Z</time>
      </trkpt>
      <trkpt lat="45.76881" lon="4.80971">
        <ele>292.4</ele>
        <time>2018-11-18T09:46:11Z</time>
      </trkpt>
      <trkpt lat="45.76889" lon="4.80973">
        <ele>291.9</ele>
        <time>2018-11-18T09:46:14Z</time>
      </trkpt>
      <trkpt lat="45.76898" lon="4.80976">
        <ele>291.1</ele>
        <time>2018-11-18T09:46:18Z</time>
      </trkpt>
      <trkpt lat="45.76903" lon="4.80983">
        <ele>290.4</ele>
        <time>2018-11-18T09:46:21Z</time>
      </trkpt>
      <trkpt lat="45.76907" lon="4.80992">
        <ele>289.7</ele>
        <time>2018-11-18T09:46:24Z</time>
      </trkpt>
      <trkpt lat="45.7691" lon="4.81002">
        <ele>289.1</ele>
        <time>2018-11-18T09:46:27Z</time>
      </trkpt>
      <trkpt lat="45.76909" lon="4.81014">
        <ele>288.2</ele>
        <time>2018-11-18T09:46:31Z</time>
      </trkpt>
      <trkpt lat="45.76905" lon="4.81024">
        <ele>287.5</ele>
        <time>2018-11-18T09:46:35Z</time>
      </trkpt>
      <trkpt lat="45.76897" lon="4.81027">
        <ele>287</ele>
        <time>2018-11-18T09:46:38Z</time>
      </trkpt>
      <trkpt lat="45.7689" lon="4.81028">
        <ele>286.5</ele>
        <time>2018-11-18T09:46:41Z</time>
      </trkpt>
      <trkpt lat="45.76882" lon="4.81026">
        <ele>285.8</ele>
        <time>2018-11-18T09:46:45Z</time>
      </trkpt>
      <trkpt lat="45.76874" lon="4.81021">
        <ele>284.9</ele>
        <time>2018-11-18T09:46:49Z</time>
      </trkpt>
      <trkpt lat="45.76867" lon="4.81018">
        <ele>284.2</ele>
        <time>2018-11-18T09:46:52Z</time>
      </trkpt>
      <trkpt lat="45.76859" lon="4.81016">
        <ele>283.6</ele>
        <time>2018-11-18T09:46:55Z</time>
      </trkpt>
      <trkpt lat="45.76849" lon="4.81015">
        <ele>282.7</ele>
        <time>2018-11-18T09:46:59Z</time>
      </trkpt>
      <trkpt lat="45.76842" lon="4.81018">
        <ele>282</ele>
        <time>2018-11-18T09:47:02Z</time>
      </trkpt>
      <trkpt lat="45.76834" lon="4.81022">
        <ele>280.9</ele>
        <time>2018-11-18T09:47:06Z</time>
      </trkpt>
      <trkpt lat="45.76825" lon="4.81026">
        <ele>279.8</ele>
        <time>2018-11-18T09:47:10Z</time>
      </trkpt>
      <trkpt lat="45.76818" lon="4.8103">
        <ele>278.9</ele>
        <time>2018-11-18T09:47:13Z</time>
      </trkpt>
      <trkpt lat="45.76811" lon="4.81035">
        <ele>277.7</ele>
        <time>2018-11-18T09:47:17Z</time>
      </trkpt>
      <trkpt lat="45.76803" lon="4.8104">
        <ele>276.8</ele>
        <time>2018-11-18T09:47:20Z</time>
      </trkpt>
      <trkpt lat="45.76797" lon="4.81046">
        <ele>275.9</ele>
        <time>2018-11-18T09:47:23Z</time>
      </trkpt>
      <trkpt lat="45.76791" lon="4.81052">
        <ele>274.9</ele>
        <time>2018-11-18T09:47:26Z</time>
      </trkpt>
      <trkpt lat="45.76785" lon="4.81058">
        <ele>274</ele>
        <time>2018-11-18T09:47:29Z</time>
      </trkpt>
      <trkpt lat="45.76778" lon="4.81064">
        <ele>273</ele>
        <time>2018-11-18T09:47:32Z</time>
      </trkpt>
      <trkpt lat="45.7677" lon="4.81068">
        <ele>271.9</ele>
        <time>2018-11-18T09:47:35Z</time>
      </trkpt>
      <trkpt lat="45.76762" lon="4.8107">
        <ele>271</ele>
        <time>2018-11-18T09:47:38Z</time>
      </trkpt>
      <trkpt lat="45.76755" lon="4.81074">
        <ele>270.1</ele>
        <time>2018-11-18T09:47:41Z</time>
      </trkpt>
      <trkpt lat="45.76746" lon="4.81078">
        <ele>268.9</ele>
        <time>2018-11-18T09:47:45Z</time>
      </trkpt>
      <trkpt lat="45.76738" lon="4.81084">
        <ele>267.9</ele>
        <time>2018-11-18T09:47:48Z</time>
      </trkpt>
      <trkpt lat="45.76733" lon="4.81092">
        <ele>266.8</ele>
        <time>2018-11-18T09:47:51Z</time>
      </trkpt>
      <trkpt lat="45.76727" lon="4.811">
        <ele>265.6</ele>
        <time>2018-11-18T09:47:54Z</time>
      </trkpt>
      <trkpt lat="45.76721" lon="4.81109">
        <ele>264.1</ele>
        <time>2018-11-18T09:47:58Z</time>
      </trkpt>
      <trkpt lat="45.76716" lon="4.81116">
        <ele>263</ele>
        <time>2018-11-18T09:48:01Z</time>
      </trkpt>
      <trkpt lat="45.7671" lon="4.81124">
        <ele>261.6</ele>
        <time>2018-11-18T09:48:05Z</time>
      </trkpt>
      <trkpt lat="45.76704" lon="4.81131">
        <ele>260.5</ele>
        <time>2018-11-18T09:48:08Z</time>
      </trkpt>
      <trkpt lat="45.76697" lon="4.8114">
        <ele>259.1</ele>
        <time>2018-11-18T09:48:12Z</time>
      </trkpt>
      <trkpt lat="45.76691" lon="4.81147">
        <ele>258.1</ele>
        <time>2018-11-18T09:48:15Z</time>
      </trkpt>
      <trkpt lat="45.76686" lon="4.81154">
        <ele>257.2</ele>
        <time>2018-11-18T09:48:18Z</time>
      </trkpt>
      <trkpt lat="45.76682" lon="4.81165">
        <ele>255.9</ele>
        <time>2018-11-18T09:48:22Z</time>
      </trkpt>
      <trkpt lat="45.76681" lon="4.81175">
        <ele>254.6</ele>
        <time>2018-11-18T09:48:27Z</time>
      </trkpt>
      <trkpt lat="45.76684" lon="4.81186">
        <ele>253.9</ele>
        <time>2018-11-18T09:48:32Z</time>
      </trkpt>
      <trkpt lat="45.76689" lon="4.81193">
        <ele>253.5</ele>
        <time>2018-11-18T09:48:36Z</time>
      </trkpt>
      <trkpt lat="45.76697" lon="4.81198">
        <ele>253.3</ele>
        <time>2018-11-18T09:48:40Z</time>
      </trkpt>
      <trkpt lat="45.76705" lon="4.812">
        <ele>253.2</ele>
        <time>2018-11-18T09:48:44Z</time>
      </trkpt>
      <trkpt lat="45.7671" lon="4.81188">
        <ele>253.1</ele>
        <time>2018-11-18T09:48:47Z</time>
      </trkpt>
      <trkpt lat="45.76712" lon="4.81174">
        <ele>252.8</ele>
        <time>2018-11-18T09:48:50Z</time>
      </trkpt>
      <trkpt lat="45.76714" lon="4.81163">
        <ele>252.4</ele>
        <time>2018-11-18T09:48:53Z</time>
      </trkpt>
      <trkpt lat="45.76716" lon="4.8115">
        <ele>251.9</ele>
        <time>2018-11-18T09:48:57Z</time>
      </trkpt>
      <trkpt lat="45.76716" lon="4.81137">
        <ele>251.3</ele>
        <time>2018-11-18T09:49:01Z</time>
      </trkpt>
      <trkpt lat="45.76722" lon="4.81131">
        <ele>250.1</ele>
        <time>2018-11-18T09:49:08Z</time>
      </trkpt>
      <trkpt lat="45.7673" lon="4.81127">
        <ele>249.6</ele>
        <time>2018-11-18T09:49:12Z</time>
      </trkpt>
      <trkpt lat="45.76739" lon="4.81124">
        <ele>249.6</ele>
        <time>2018-11-18T09:49:16Z</time>
      </trkpt>
      <trkpt lat="45.76747" lon="4.81121">
        <ele>249.7</ele>
        <time>2018-11-18T09:49:19Z</time>
      </trkpt>
      <trkpt lat="45.76756" lon="4.81117">
        <ele>249.9</ele>
        <time>2018-11-18T09:49:22Z</time>
      </trkpt>
      <trkpt lat="45.76765" lon="4.81117">
        <ele>250.4</ele>
        <time>2018-11-18T09:49:26Z</time>
      </trkpt>
      <trkpt lat="45.76773" lon="4.81117">
        <ele>250.9</ele>
        <time>2018-11-18T09:49:29Z</time>
      </trkpt>
      <trkpt lat="45.7678" lon="4.81113">
        <ele>251.4</ele>
        <time>2018-11-18T09:49:32Z</time>
      </trkpt>
      <trkpt lat="45.76787" lon="4.81108">
        <ele>252.3</ele>
        <time>2018-11-18T09:49:36Z</time>
      </trkpt>
      <trkpt lat="45.76795" lon="4.81107">
        <ele>252.9</ele>
        <time>2018-11-18T09:49:39Z</time>
      </trkpt>
      <trkpt lat="45.76802" lon="4.81108">
        <ele>253.1</ele>
        <time>2018-11-18T09:49:41Z</time>
      </trkpt>
      <trkpt lat="45.7681" lon="4.81109">
        <ele>253.1</ele>
        <time>2018-11-18T09:49:43Z</time>
      </trkpt>
      <trkpt lat="45.76818" lon="4.81107">
        <ele>253</ele>
        <time>2018-11-18T09:49:46Z</time>
      </trkpt>
      <trkpt lat="45.76827" lon="4.81106">
        <ele>252.5</ele>
        <time>2018-11-18T09:49:49Z</time>
      </trkpt>
      <trkpt lat="45.76834" lon="4.81113">
        <ele>252.1</ele>
        <time>2018-11-18T09:49:52Z</time>
      </trkpt>
      <trkpt lat="45.76835" lon="4.81124">
        <ele>251.3</ele>
        <time>2018-11-18T09:49:57Z</time>
      </trkpt>
      <trkpt lat="45.76833" lon="4.81135">
        <ele>250.7</ele>
        <time>2018-11-18T09:50:00Z</time>
      </trkpt>
      <trkpt lat="45.76829" lon="4.81144">
        <ele>250.1</ele>
        <time>2018-11-18T09:50:03Z</time>
      </trkpt>
      <trkpt lat="45.76822" lon="4.81148">
        <ele>249.2</ele>
        <time>2018-11-18T09:50:06Z</time>
      </trkpt>
      <trkpt lat="45.76813" lon="4.81153">
        <ele>247.9</ele>
        <time>2018-11-18T09:50:10Z</time>
      </trkpt>
      <trkpt lat="45.76806" lon="4.81155">
        <ele>246.9</ele>
        <time>2018-11-18T09:50:13Z</time>
      </trkpt>
      <trkpt lat="45.76799" lon="4.8116">
        <ele>245.8</ele>
        <time>2018-11-18T09:50:16Z</time>
      </trkpt>
      <trkpt lat="45.76791" lon="4.81164">
        <ele>244.5</ele>
        <time>2018-11-18T09:50:20Z</time>
      </trkpt>
      <trkpt lat="45.76784" lon="4.81168">
        <ele>243.5</ele>
        <time>2018-11-18T09:50:23Z</time>
      </trkpt>
      <trkpt lat="45.76776" lon="4.81173">
        <ele>242.4</ele>
        <time>2018-11-18T09:50:26Z</time>
      </trkpt>
      <trkpt lat="45.76768" lon="4.81179">
        <ele>241</ele>
        <time>2018-11-18T09:50:30Z</time>
      </trkpt>
      <trkpt lat="45.76761" lon="4.81184">
        <ele>240.1</ele>
        <time>2018-11-18T09:50:33Z</time>
      </trkpt>
      <trkpt lat="45.76754" lon="4.8119">
        <ele>239</ele>
        <time>2018-11-18T09:50:37Z</time>
      </trkpt>
      <trkpt lat="45.76745" lon="4.81196">
        <ele>238.1</ele>
        <time>2018-11-18T09:50:41Z</time>
      </trkpt>
      <trkpt lat="45.76738" lon="4.81202">
        <ele>237.2</ele>
        <time>2018-11-18T09:50:45Z</time>
      </trkpt>
      <trkpt lat="45.76732" lon="4.81211">
        <ele>235.9</ele>
        <time>2018-11-18T09:50:51Z</time>
      </trkpt>
      <trkpt lat="45.76732" lon="4.81222">
        <ele>234.9</ele>
        <time>2018-11-18T09:50:56Z</time>
      </trkpt>
      <trkpt lat="45.76734" lon="4.81234">
        <ele>234.3</ele>
        <time>2018-11-18T09:51:01Z</time>
      </trkpt>
      <trkpt lat="45.76737" lon="4.81247">
        <ele>234.1</ele>
        <time>2018-11-18T09:51:03Z</time>
      </trkpt>
      <trkpt lat="45.76742" lon="4.8126">
        <ele>233.8</ele>
        <time>2018-11-18T09:51:05Z</time>
      </trkpt>
      <trkpt lat="45.76746" lon="4.8127">
        <ele>233.4</ele>
        <time>2018-11-18T09:51:07Z</time>
      </trkpt>
      <trkpt lat="45.76751" lon="4.81281">
        <ele>232.6</ele>
        <time>2018-11-18T09:51:10Z</time>
      </trkpt>
      <trkpt lat="45.76756" lon="4.8129">
        <ele>231.3</ele>
        <time>2018-11-18T09:51:14Z</time>
      </trkpt>
      <trkpt lat="45.76762" lon="4.81297">
        <ele>229.2</ele>
        <time>2018-11-18T09:51:19Z</time>
      </trkpt>
      <trkpt lat="45.76769" lon="4.81301">
        <ele>227.6</ele>
        <time>2018-11-18T09:51:23Z</time>
      </trkpt>
      <trkpt lat="45.76776" lon="4.81297">
        <ele>226</ele>
        <time>2018-11-18T09:51:27Z</time>
      </trkpt>
      <trkpt lat="45.76784" lon="4.81292">
        <ele>224.3</ele>
        <time>2018-11-18T09:51:32Z</time>
      </trkpt>
      <trkpt lat="45.76792" lon="4.8129">
        <ele>223.2</ele>
        <time>2018-11-18T09:51:37Z</time>
      </trkpt>
      <trkpt lat="45.76796" lon="4.8129">
        <ele>223</ele>
        <time>2018-11-18T09:51:44Z</time>
      </trkpt>
      <trkpt lat="45.76796" lon="4.81289">
        <ele>222.7</ele>
        <time>2018-11-18T09:51:56Z</time>
      </trkpt>
      <trkpt lat="45.76794" lon="4.81286">
        <ele>223.3</ele>
        <time>2018-11-18T09:52:20Z</time>
      </trkpt>
      <trkpt lat="45.76787" lon="4.81293">
        <ele>223.5</ele>
        <time>2018-11-18T09:52:26Z</time>
      </trkpt>
      <trkpt lat="45.7678" lon="4.81292">
        <ele>223.5</ele>
        <time>2018-11-18T09:52:33Z</time>
      </trkpt>
      <trkpt lat="45.76776" lon="4.81288">
        <ele>223.2</ele>
        <time>2018-11-18T09:52:40Z</time>
      </trkpt>
      <trkpt lat="45.76768" lon="4.81284">
        <ele>222.9</ele>
        <time>2018-11-18T09:52:47Z</time>
      </trkpt>
      <trkpt lat="45.7676" lon="4.81282">
        <ele>222.7</ele>
        <time>2018-11-18T09:52:51Z</time>
      </trkpt>
      <trkpt lat="45.76754" lon="4.81275">
        <ele>222.8</ele>
        <time>2018-11-18T09:52:55Z</time>
      </trkpt>
      <trkpt lat="45.76748" lon="4.81268">
        <ele>222.8</ele>
        <time>2018-11-18T09:53:00Z</time>
      </trkpt>
      <trkpt lat="45.76744" lon="4.81258">
        <ele>222.9</ele>
        <time>2018-11-18T09:53:05Z</time>
      </trkpt>
      <trkpt lat="45.76741" lon="4.81247">
        <ele>223.1</ele>
        <time>2018-11-18T09:53:11Z</time>
      </trkpt>
      <trkpt lat="45.76741" lon="4.81236">
        <ele>223.1</ele>
        <time>2018-11-18T09:53:16Z</time>
      </trkpt>
      <trkpt lat="45.7674" lon="4.81225">
        <ele>222.5</ele>
        <time>2018-11-18T09:53:22Z</time>
      </trkpt>
      <trkpt lat="45.76745" lon="4.81216">
        <ele>221.8</ele>
        <time>2018-11-18T09:53:28Z</time>
      </trkpt>
      <trkpt lat="45.7675" lon="4.81207">
        <ele>221.2</ele>
        <time>2018-11-18T09:53:32Z</time>
      </trkpt>
      <trkpt lat="45.7675" lon="4.81186">
        <ele>220.9</ele>
        <time>2018-11-18T09:53:39Z</time>
      </trkpt>
      <trkpt lat="45.76755" lon="4.81181">
        <ele>221.1</ele>
        <time>2018-11-18T09:53:45Z</time>
      </trkpt>
      <trkpt lat="45.76761" lon="4.81178">
        <ele>221.5</ele>
        <time>2018-11-18T09:53:48Z</time>
      </trkpt>
      <trkpt lat="45.76768" lon="4.81172">
        <ele>222.3</ele>
        <time>2018-11-18T09:53:54Z</time>
      </trkpt>
      <trkpt lat="45.76775" lon="4.81168">
        <ele>223.1</ele>
        <time>2018-11-18T09:54:00Z</time>
      </trkpt>
      <trkpt lat="45.76782" lon="4.81162">
        <ele>223.8</ele>
        <time>2018-11-18T09:54:07Z</time>
      </trkpt>
      <trkpt lat="45.76789" lon="4.81154">
        <ele>224.4</ele>
        <time>2018-11-18T09:54:13Z</time>
      </trkpt>
      <trkpt lat="45.76796" lon="4.81149">
        <ele>225.1</ele>
        <time>2018-11-18T09:54:20Z</time>
      </trkpt>
      <trkpt lat="45.76801" lon="4.8114">
        <ele>225.7</ele>
        <time>2018-11-18T09:54:27Z</time>
      </trkpt>
      <trkpt lat="45.76807" lon="4.81132">
        <ele>226</ele>
        <time>2018-11-18T09:54:33Z</time>
      </trkpt>
      <trkpt lat="45.76814" lon="4.81127">
        <ele>226.1</ele>
        <time>2018-11-18T09:54:37Z</time>
      </trkpt>
      <trkpt lat="45.7682" lon="4.81121">
        <ele>226.3</ele>
        <time>2018-11-18T09:54:42Z</time>
      </trkpt>
      <trkpt lat="45.76826" lon="4.81113">
        <ele>226.6</ele>
        <time>2018-11-18T09:54:47Z</time>
      </trkpt>
      <trkpt lat="45.76831" lon="4.81103">
        <ele>227.4</ele>
        <time>2018-11-18T09:54:53Z</time>
      </trkpt>
      <trkpt lat="45.76833" lon="4.81092">
        <ele>228.6</ele>
        <time>2018-11-18T09:55:00Z</time>
      </trkpt>
      <trkpt lat="45.76825" lon="4.81089">
        <ele>229.3</ele>
        <time>2018-11-18T09:55:06Z</time>
      </trkpt>
      <trkpt lat="45.76819" lon="4.81096">
        <ele>229.9</ele>
        <time>2018-11-18T09:55:10Z</time>
      </trkpt>
      <trkpt lat="45.76814" lon="4.81104">
        <ele>230.5</ele>
        <time>2018-11-18T09:55:14Z</time>
      </trkpt>
      <trkpt lat="45.76807" lon="4.8111">
        <ele>231.6</ele>
        <time>2018-11-18T09:55:20Z</time>
      </trkpt>
      <trkpt lat="45.76799" lon="4.81115">
        <ele>232.5</ele>
        <time>2018-11-18T09:55:27Z</time>
      </trkpt>
      <trkpt lat="45.76792" lon="4.81115">
        <ele>233.2</ele>
        <time>2018-11-18T09:55:32Z</time>
      </trkpt>
      <trkpt lat="45.76784" lon="4.81118">
        <ele>233.6</ele>
        <time>2018-11-18T09:55:38Z</time>
      </trkpt>
      <trkpt lat="45.76776" lon="4.81119">
        <ele>233.8</ele>
        <time>2018-11-18T09:55:42Z</time>
      </trkpt>
      <trkpt lat="45.7677" lon="4.81124">
        <ele>234</ele>
        <time>2018-11-18T09:55:49Z</time>
      </trkpt>
      <trkpt lat="45.76763" lon="4.8113">
        <ele>234.1</ele>
        <time>2018-11-18T09:55:54Z</time>
      </trkpt>
      <trkpt lat="45.76755" lon="4.81131">
        <ele>234.2</ele>
        <time>2018-11-18T09:55:58Z</time>
      </trkpt>
      <trkpt lat="45.76747" lon="4.81132">
        <ele>234.3</ele>
        <time>2018-11-18T09:56:01Z</time>
      </trkpt>
      <trkpt lat="45.7674" lon="4.81135">
        <ele>234.9</ele>
        <time>2018-11-18T09:56:07Z</time>
      </trkpt>
      <trkpt lat="45.76732" lon="4.81138">
        <ele>235.8</ele>
        <time>2018-11-18T09:56:13Z</time>
      </trkpt>
      <trkpt lat="45.76724" lon="4.81141">
        <ele>236.8</ele>
        <time>2018-11-18T09:56:19Z</time>
      </trkpt>
      <trkpt lat="45.76719" lon="4.81148">
        <ele>238.1</ele>
        <time>2018-11-18T09:56:23Z</time>
      </trkpt>
      <trkpt lat="45.76715" lon="4.81157">
        <ele>239</ele>
        <time>2018-11-18T09:56:27Z</time>
      </trkpt>
      <trkpt lat="45.76714" lon="4.81169">
        <ele>240.1</ele>
        <time>2018-11-18T09:56:32Z</time>
      </trkpt>
      <trkpt lat="45.76712" lon="4.81181">
        <ele>241.6</ele>
        <time>2018-11-18T09:56:38Z</time>
      </trkpt>
      <trkpt lat="45.76705" lon="4.81185">
        <ele>243</ele>
        <time>2018-11-18T09:56:44Z</time>
      </trkpt>
      <trkpt lat="45.76697" lon="4.81186">
        <ele>244</ele>
        <time>2018-11-18T09:56:50Z</time>
      </trkpt>
      <trkpt lat="45.7669" lon="4.81183">
        <ele>245</ele>
        <time>2018-11-18T09:56:57Z</time>
      </trkpt>
      <trkpt lat="45.76685" lon="4.81175">
        <ele>245.7</ele>
        <time>2018-11-18T09:57:01Z</time>
      </trkpt>
      <trkpt lat="45.76681" lon="4.81165">
        <ele>246.6</ele>
        <time>2018-11-18T09:57:06Z</time>
      </trkpt>
      <trkpt lat="45.76679" lon="4.81155">
        <ele>248.2</ele>
        <time>2018-11-18T09:57:13Z</time>
      </trkpt>
      <trkpt lat="45.7668" lon="4.81144">
        <ele>249.3</ele>
        <time>2018-11-18T09:57:20Z</time>
      </trkpt>
      <trkpt lat="45.76681" lon="4.81134">
        <ele>249.9</ele>
        <time>2018-11-18T09:57:24Z</time>
      </trkpt>
      <trkpt lat="45.76686" lon="4.81124">
        <ele>250.6</ele>
        <time>2018-11-18T09:57:31Z</time>
      </trkpt>
      <trkpt lat="45.76692" lon="4.81118">
        <ele>250.9</ele>
        <time>2018-11-18T09:57:38Z</time>
      </trkpt>
      <trkpt lat="45.76697" lon="4.8111">
        <ele>250.9</ele>
        <time>2018-11-18T09:57:44Z</time>
      </trkpt>
      <trkpt lat="45.76703" lon="4.81103">
        <ele>251</ele>
        <time>2018-11-18T09:57:48Z</time>
      </trkpt>
      <trkpt lat="45.7671" lon="4.81099">
        <ele>251.3</ele>
        <time>2018-11-18T09:57:52Z</time>
      </trkpt>
      <trkpt lat="45.76715" lon="4.8109">
        <ele>251.9</ele>
        <time>2018-11-18T09:57:58Z</time>
      </trkpt>
      <trkpt lat="45.76721" lon="4.81082">
        <ele>252.5</ele>
        <time>2018-11-18T09:58:04Z</time>
      </trkpt>
      <trkpt lat="45.76729" lon="4.81075">
        <ele>253.1</ele>
        <time>2018-11-18T09:58:09Z</time>
      </trkpt>
      <trkpt lat="45.76736" lon="4.8107">
        <ele>254</ele>
        <time>2018-11-18T09:58:14Z</time>
      </trkpt>
      <trkpt lat="45.76743" lon="4.81066">
        <ele>255.2</ele>
        <time>2018-11-18T09:58:20Z</time>
      </trkpt>
      <trkpt lat="45.7675" lon="4.81064">
        <ele>256.8</ele>
        <time>2018-11-18T09:58:26Z</time>
      </trkpt>
      <trkpt lat="45.76758" lon="4.81061">
        <ele>258</ele>
        <time>2018-11-18T09:58:31Z</time>
      </trkpt>
      <trkpt lat="45.76764" lon="4.81057">
        <ele>258.8</ele>
        <time>2018-11-18T09:58:35Z</time>
      </trkpt>
      <trkpt lat="45.76769" lon="4.81049">
        <ele>259.7</ele>
        <time>2018-11-18T09:58:39Z</time>
      </trkpt>
      <trkpt lat="45.76775" lon="4.81043">
        <ele>260.8</ele>
        <time>2018-11-18T09:58:45Z</time>
      </trkpt>
      <trkpt lat="45.76783" lon="4.81037">
        <ele>261.7</ele>
        <time>2018-11-18T09:58:51Z</time>
      </trkpt>
      <trkpt lat="45.76788" lon="4.81036">
        <ele>262.8</ele>
        <time>2018-11-18T09:58:58Z</time>
      </trkpt>
      <trkpt lat="45.76796" lon="4.81037">
        <ele>264.2</ele>
        <time>2018-11-18T09:59:14Z</time>
      </trkpt>
      <trkpt lat="45.76804" lon="4.81035">
        <ele>264.6</ele>
        <time>2018-11-18T09:59:20Z</time>
      </trkpt>
      <trkpt lat="45.76809" lon="4.81031">
        <ele>265</ele>
        <time>2018-11-18T09:59:27Z</time>
      </trkpt>
      <trkpt lat="45.76817" lon="4.8103">
        <ele>265.3</ele>
        <time>2018-11-18T09:59:33Z</time>
      </trkpt>
      <trkpt lat="45.76825" lon="4.81026">
        <ele>265.8</ele>
        <time>2018-11-18T09:59:39Z</time>
      </trkpt>
      <trkpt lat="45.76832" lon="4.81024">
        <ele>266</ele>
        <time>2018-11-18T09:59:44Z</time>
      </trkpt>
      <trkpt lat="45.7684" lon="4.8102">
        <ele>266.2</ele>
        <time>2018-11-18T09:59:50Z</time>
      </trkpt>
      <trkpt lat="45.76848" lon="4.81017">
        <ele>266.6</ele>
        <time>2018-11-18T09:59:55Z</time>
      </trkpt>
      <trkpt lat="45.76856" lon="4.81015">
        <ele>267</ele>
        <time>2018-11-18T10:00:01Z</time>
      </trkpt>
      <trkpt lat="45.76865" lon="4.81015">
        <ele>267.7</ele>
        <time>2018-11-18T10:00:06Z</time>
      </trkpt>
      <trkpt lat="45.76871" lon="4.81016">
        <ele>268.5</ele>
        <time>2018-11-18T10:00:13Z</time>
      </trkpt>
      <trkpt lat="45.76878" lon="4.81021">
        <ele>268.9</ele>
        <time>2018-11-18T10:00:18Z</time>
      </trkpt>
      <trkpt lat="45.76885" lon="4.81021">
        <ele>269.7</ele>
        <time>2018-11-18T10:00:25Z</time>
      </trkpt>
      <trkpt lat="45.76891" lon="4.8102">
        <ele>271.2</ele>
        <time>2018-11-18T10:00:32Z</time>
      </trkpt>
      <trkpt lat="45.76897" lon="4.8102">
        <ele>272.8</ele>
        <time>2018-11-18T10:00:39Z</time>
      </trkpt>
      <trkpt lat="45.76902" lon="4.81022">
        <ele>274.2</ele>
        <time>2018-11-18T10:00:46Z</time>
      </trkpt>
      <trkpt lat="45.7691" lon="4.81016">
        <ele>275.3</ele>
        <time>2018-11-18T10:00:53Z</time>
      </trkpt>
      <trkpt lat="45.76913" lon="4.81005">
        <ele>276</ele>
        <time>2018-11-18T10:00:58Z</time>
      </trkpt>
      <trkpt lat="45.76915" lon="4.80995">
        <ele>276.7</ele>
        <time>2018-11-18T10:01:03Z</time>
      </trkpt>
      <trkpt lat="45.76914" lon="4.80984">
        <ele>277.9</ele>
        <time>2018-11-18T10:01:10Z</time>
      </trkpt>
      <trkpt lat="45.76913" lon="4.8098">
        <ele>278.5</ele>
        <time>2018-11-18T10:01:17Z</time>
      </trkpt>
      <trkpt lat="45.76906" lon="4.80973">
        <ele>279.4</ele>
        <time>2018-11-18T10:01:21Z</time>
      </trkpt>
      <trkpt lat="45.769" lon="4.80968">
        <ele>280.1</ele>
        <time>2018-11-18T10:01:24Z</time>
      </trkpt>
      <trkpt lat="45.76892" lon="4.80957">
        <ele>281</ele>
        <time>2018-11-18T10:01:29Z</time>
      </trkpt>
      <trkpt lat="45.76884" lon="4.80952">
        <ele>281.7</ele>
        <time>2018-11-18T10:01:32Z</time>
      </trkpt>
      <trkpt lat="45.76876" lon="4.80953">
        <ele>282.4</ele>
        <time>2018-11-18T10:01:37Z</time>
      </trkpt>
      <trkpt lat="45.76868" lon="4.80954">
        <ele>283</ele>
        <time>2018-11-18T10:01:41Z</time>
      </trkpt>
      <trkpt lat="45.76861" lon="4.80955">
        <ele>283.7</ele>
        <time>2018-11-18T10:01:45Z</time>
      </trkpt>
      <trkpt lat="45.76853" lon="4.80958">
        <ele>284.6</ele>
        <time>2018-11-18T10:01:50Z</time>
      </trkpt>
      <trkpt lat="45.76846" lon="4.80964">
        <ele>285.2</ele>
        <time>2018-11-18T10:01:54Z</time>
      </trkpt>
      <trkpt lat="45.76837" lon="4.80961">
        <ele>285.9</ele>
        <time>2018-11-18T10:01:59Z</time>
      </trkpt>
      <trkpt lat="45.76829" lon="4.80955">
        <ele>286.5</ele>
        <time>2018-11-18T10:02:03Z</time>
      </trkpt>
      <trkpt lat="45.76822" lon="4.80952">
        <ele>287.5</ele>
        <time>2018-11-18T10:02:09Z</time>
      </trkpt>
      <trkpt lat="45.76814" lon="4.80952">
        <ele>288.2</ele>
        <time>2018-11-18T10:02:14Z</time>
      </trkpt>
      <trkpt lat="45.76807" lon="4.80954">
        <ele>288.9</ele>
        <time>2018-11-18T10:02:20Z</time>
      </trkpt>
      <trkpt lat="45.76799" lon="4.80955">
        <ele>289.7</ele>
        <time>2018-11-18T10:02:27Z</time>
      </trkpt>
      <trkpt lat="45.76791" lon="4.80955">
        <ele>290.2</ele>
        <time>2018-11-18T10:02:33Z</time>
      </trkpt>
      <trkpt lat="45.76783" lon="4.80953">
        <ele>290.7</ele>
        <time>2018-11-18T10:02:39Z</time>
      </trkpt>
      <trkpt lat="45.76776" lon="4.8095">
        <ele>291.2</ele>
        <time>2018-11-18T10:02:44Z</time>
      </trkpt>
      <trkpt lat="45.76769" lon="4.8095">
        <ele>291.6</ele>
        <time>2018-11-18T10:02:48Z</time>
      </trkpt>
      <trkpt lat="45.76761" lon="4.8095">
        <ele>292.1</ele>
        <time>2018-11-18T10:02:52Z</time>
      </trkpt>
      <trkpt lat="45.76754" lon="4.80947">
        <ele>292.8</ele>
        <time>2018-11-18T10:02:57Z</time>
      </trkpt>
      <trkpt lat="45.76746" lon="4.80947">
        <ele>293.5</ele>
        <time>2018-11-18T10:03:01Z</time>
      </trkpt>
      <trkpt lat="45.76738" lon="4.80946">
        <ele>294</ele>
        <time>2018-11-18T10:03:05Z</time>
      </trkpt>
      <trkpt lat="45.7673" lon="4.80945">
        <ele>294.6</ele>
        <time>2018-11-18T10:03:10Z</time>
      </trkpt>
      <trkpt lat="45.76722" lon="4.80942">
        <ele>295.1</ele>
        <time>2018-11-18T10:03:15Z</time>
      </trkpt>
      <trkpt lat="45.76714" lon="4.80943">
        <ele>295.5</ele>
        <time>2018-11-18T10:03:20Z</time>
      </trkpt>
      <trkpt lat="45.76706" lon="4.80942">
        <ele>295.7</ele>
        <time>2018-11-18T10:03:25Z</time>
      </trkpt>
      <trkpt lat="45.76699" lon="4.80941">
        <ele>295.7</ele>
        <time>2018-11-18T10:03:30Z</time>
      </trkpt>
      <trkpt lat="45.76691" lon="4.8094">
        <ele>295.9</ele>
        <time>2018-11-18T10:03:37Z</time>
      </trkpt>
      <trkpt lat="45.76683" lon="4.80942">
        <ele>296.1</ele>
        <time>2018-11-18T10:03:42Z</time>
      </trkpt>
      <trkpt lat="45.76676" lon="4.80945">
        <ele>296.3</ele>
        <time>2018-11-18T10:03:46Z</time>
      </trkpt>
      <trkpt lat="45.76669" lon="4.8095">
        <ele>296.4</ele>
        <time>2018-11-18T10:03:50Z</time>
      </trkpt>
      <trkpt lat="45.76663" lon="4.80956">
        <ele>296.5</ele>
        <time>2018-11-18T10:03:55Z</time>
      </trkpt>
      <trkpt lat="45.76654" lon="4.8096">
        <ele>296.5</ele>
        <time>2018-11-18T10:04:00Z</time>
      </trkpt>
      <trkpt lat="45.76647" lon="4.80963">
        <ele>296.6</ele>
        <time>2018-11-18T10:04:04Z</time>
      </trkpt>
      <trkpt lat="45.7664" lon="4.80967">
        <ele>296.8</ele>
        <time>2018-11-18T10:04:10Z</time>
      </trkpt>
      <trkpt lat="45.76633" lon="4.8097">
        <ele>297.1</ele>
        <time>2018-11-18T10:04:15Z</time>
      </trkpt>
      <trkpt lat="45.76627" lon="4.80977">
        <ele>297.4</ele>
        <time>2018-11-18T10:04:21Z</time>
      </trkpt>
      <trkpt lat="45.76619" lon="4.80981">
        <ele>297.6</ele>
        <time>2018-11-18T10:04:26Z</time>
      </trkpt>
      <trkpt lat="45.76613" lon="4.80989">
        <ele>297.8</ele>
        <time>2018-11-18T10:04:31Z</time>
      </trkpt>
      <trkpt lat="45.76606" lon="4.80993">
        <ele>297.9</ele>
        <time>2018-11-18T10:04:36Z</time>
      </trkpt>
      <trkpt lat="45.76599" lon="4.80996">
        <ele>297.8</ele>
        <time>2018-11-18T10:04:41Z</time>
      </trkpt>
      <trkpt lat="45.76592" lon="4.81">
        <ele>297.8</ele>
        <time>2018-11-18T10:04:46Z</time>
      </trkpt>
      <trkpt lat="45.76585" lon="4.81007">
        <ele>298</ele>
        <time>2018-11-18T10:04:52Z</time>
      </trkpt>
      <trkpt lat="45.76578" lon="4.81013">
        <ele>298.3</ele>
        <time>2018-11-18T10:04:57Z</time>
      </trkpt>
      <trkpt lat="45.76571" lon="4.81017">
        <ele>298.6</ele>
        <time>2018-11-18T10:05:02Z</time>
      </trkpt>
      <trkpt lat="45.76563" lon="4.81022">
        <ele>298.8</ele>
        <time>2018-11-18T10:05:07Z</time>
      </trkpt>
      <trkpt lat="45.76556" lon="4.81029">
        <ele>299.3</ele>
        <time>2018-11-18T10:05:13Z</time>
      </trkpt>
      <trkpt lat="45.76551" lon="4.81037">
        <ele>299.8</ele>
        <time>2018-11-18T10:05:18Z</time>
      </trkpt>
      <trkpt lat="45.76544" lon="4.81042">
        <ele>300.3</ele>
        <time>2018-11-18T10:05:24Z</time>
      </trkpt>
      <trkpt lat="45.76537" lon="4.81051">
        <ele>300.7</ele>
        <time>2018-11-18T10:05:30Z</time>
      </trkpt>
      <trkpt lat="45.76532" lon="4.81058">
        <ele>301</ele>
        <time>2018-11-18T10:05:34Z</time>
      </trkpt>
      <trkpt lat="45.76524" lon="4.81063">
        <ele>301.5</ele>
        <time>2018-11-18T10:05:40Z</time>
      </trkpt>
      <trkpt lat="45.76518" lon="4.8107">
        <ele>302.7</ele>
        <time>2018-11-18T10:05:46Z</time>
      </trkpt>
      <trkpt lat="45.76514" lon="4.8108">
        <ele>304.1</ele>
        <time>2018-11-18T10:05:52Z</time>
      </trkpt>
      <trkpt lat="45.76511" lon="4.81091">
        <ele>305.4</ele>
        <time>2018-11-18T10:05:57Z</time>
      </trkpt>
      <trkpt lat="45.76508" lon="4.81101">
        <ele>306.5</ele>
        <time>2018-11-18T10:06:02Z</time>
      </trkpt>
      <trkpt lat="45.76504" lon="4.81112">
        <ele>307.7</ele>
        <time>2018-11-18T10:06:08Z</time>
      </trkpt>
      <trkpt lat="45.76501" lon="4.81122">
        <ele>308.7</ele>
        <time>2018-11-18T10:06:13Z</time>
      </trkpt>
      <trkpt lat="45.76498" lon="4.81133">
        <ele>309.6</ele>
        <time>2018-11-18T10:06:18Z</time>
      </trkpt>
      <trkpt lat="45.76494" lon="4.81143">
        <ele>310.4</ele>
        <time>2018-11-18T10:06:22Z</time>
      </trkpt>
      <trkpt lat="45.76491" lon="4.81153">
        <ele>311.7</ele>
        <time>2018-11-18T10:06:28Z</time>
      </trkpt>
      <trkpt lat="45.76484" lon="4.81153">
        <ele>313.4</ele>
        <time>2018-11-18T10:06:42Z</time>
      </trkpt>
      <trkpt lat="45.76479" lon="4.81155">
        <ele>314.2</ele>
        <time>2018-11-18T10:06:49Z</time>
      </trkpt>
      <trkpt lat="45.76479" lon="4.81157">
        <ele>314.6</ele>
        <time>2018-11-18T10:06:56Z</time>
      </trkpt>
      <trkpt lat="45.76477" lon="4.81168">
        <ele>315.1</ele>
        <time>2018-11-18T10:07:02Z</time>
      </trkpt>
      <trkpt lat="45.76476" lon="4.8118">
        <ele>315.4</ele>
        <time>2018-11-18T10:07:06Z</time>
      </trkpt>
      <trkpt lat="45.76471" lon="4.81191">
        <ele>315.7</ele>
        <time>2018-11-18T10:07:10Z</time>
      </trkpt>
      <trkpt lat="45.76465" lon="4.81197">
        <ele>315.9</ele>
        <time>2018-11-18T10:07:14Z</time>
      </trkpt>
      <trkpt lat="45.76462" lon="4.81208">
        <ele>316.5</ele>
        <time>2018-11-18T10:07:20Z</time>
      </trkpt>
      <trkpt lat="45.76459" lon="4.8122">
        <ele>316.9</ele>
        <time>2018-11-18T10:07:24Z</time>
      </trkpt>
      <trkpt lat="45.76455" lon="4.81231">
        <ele>317.5</ele>
        <time>2018-11-18T10:07:29Z</time>
      </trkpt>
      <trkpt lat="45.7645" lon="4.8124">
        <ele>318.1</ele>
        <time>2018-11-18T10:07:34Z</time>
      </trkpt>
      <trkpt lat="45.76446" lon="4.81248">
        <ele>318.6</ele>
        <time>2018-11-18T10:07:38Z</time>
      </trkpt>
      <trkpt lat="45.76441" lon="4.81257">
        <ele>319.1</ele>
        <time>2018-11-18T10:07:43Z</time>
      </trkpt>
      <trkpt lat="45.76435" lon="4.81265">
        <ele>319.5</ele>
        <time>2018-11-18T10:07:48Z</time>
      </trkpt>
      <trkpt lat="45.76429" lon="4.81273">
        <ele>319.8</ele>
        <time>2018-11-18T10:07:53Z</time>
      </trkpt>
      <trkpt lat="45.76423" lon="4.8128">
        <ele>320.3</ele>
        <time>2018-11-18T10:07:58Z</time>
      </trkpt>
      <trkpt lat="45.76416" lon="4.81285">
        <ele>320.7</ele>
        <time>2018-11-18T10:08:03Z</time>
      </trkpt>
      <trkpt lat="45.76409" lon="4.81291">
        <ele>321.3</ele>
        <time>2018-11-18T10:08:08Z</time>
      </trkpt>
      <trkpt lat="45.76402" lon="4.81295">
        <ele>321.7</ele>
        <time>2018-11-18T10:08:12Z</time>
      </trkpt>
      <trkpt lat="45.76396" lon="4.81301">
        <ele>322.3</ele>
        <time>2018-11-18T10:08:16Z</time>
      </trkpt>
      <trkpt lat="45.7639" lon="4.81309">
        <ele>323</ele>
        <time>2018-11-18T10:08:21Z</time>
      </trkpt>
      <trkpt lat="45.76385" lon="4.81319">
        <ele>323.6</ele>
        <time>2018-11-18T10:08:26Z</time>
      </trkpt>
      <trkpt lat="45.76378" lon="4.81325">
        <ele>324.1</ele>
        <time>2018-11-18T10:08:31Z</time>
      </trkpt>
      <trkpt lat="45.76371" lon="4.81321">
        <ele>325</ele>
        <time>2018-11-18T10:08:38Z</time>
      </trkpt>
      <trkpt lat="45.76364" lon="4.81318">
        <ele>325.5</ele>
        <time>2018-11-18T10:08:43Z</time>
      </trkpt>
      <trkpt lat="45.76355" lon="4.81314">
        <ele>326.2</ele>
        <time>2018-11-18T10:08:49Z</time>
      </trkpt>
      <trkpt lat="45.76348" lon="4.81311">
        <ele>326.5</ele>
        <time>2018-11-18T10:08:53Z</time>
      </trkpt>
      <trkpt lat="45.76339" lon="4.81309">
        <ele>326.8</ele>
        <time>2018-11-18T10:08:59Z</time>
      </trkpt>
      <trkpt lat="45.76332" lon="4.81308">
        <ele>327</ele>
        <time>2018-11-18T10:09:04Z</time>
      </trkpt>
      <trkpt lat="45.76324" lon="4.81305">
        <ele>327.2</ele>
        <time>2018-11-18T10:09:09Z</time>
      </trkpt>
      <trkpt lat="45.76316" lon="4.81301">
        <ele>327.3</ele>
        <time>2018-11-18T10:09:13Z</time>
      </trkpt>
      <trkpt lat="45.76306" lon="4.81301">
        <ele>327.4</ele>
        <time>2018-11-18T10:09:18Z</time>
      </trkpt>
      <trkpt lat="45.76299" lon="4.81298">
        <ele>327.5</ele>
        <time>2018-11-18T10:09:24Z</time>
      </trkpt>
      <trkpt lat="45.76291" lon="4.81295">
        <ele>327.6</ele>
        <time>2018-11-18T10:09:28Z</time>
      </trkpt>
      <trkpt lat="45.76284" lon="4.81293">
        <ele>327.7</ele>
        <time>2018-11-18T10:09:33Z</time>
      </trkpt>
      <trkpt lat="45.76277" lon="4.81289">
        <ele>327.9</ele>
        <time>2018-11-18T10:09:37Z</time>
      </trkpt>
      <trkpt lat="45.76269" lon="4.81286">
        <ele>328.5</ele>
        <time>2018-11-18T10:09:42Z</time>
      </trkpt>
      <trkpt lat="45.76262" lon="4.81281">
        <ele>329.1</ele>
        <time>2018-11-18T10:09:47Z</time>
      </trkpt>
      <trkpt lat="45.76255" lon="4.8128">
        <ele>329.6</ele>
        <time>2018-11-18T10:09:52Z</time>
      </trkpt>
      <trkpt lat="45.76246" lon="4.8128">
        <ele>330</ele>
        <time>2018-11-18T10:09:57Z</time>
      </trkpt>
      <trkpt lat="45.76238" lon="4.81281">
        <ele>330.3</ele>
        <time>2018-11-18T10:10:01Z</time>
      </trkpt>
      <trkpt lat="45.76231" lon="4.81283">
        <ele>330.7</ele>
        <time>2018-11-18T10:10:05Z</time>
      </trkpt>
      <trkpt lat="45.76223" lon="4.81284">
        <ele>331.2</ele>
        <time>2018-11-18T10:10:09Z</time>
      </trkpt>
      <trkpt lat="45.76215" lon="4.81286">
        <ele>331.8</ele>
        <time>2018-11-18T10:10:13Z</time>
      </trkpt>
      <trkpt lat="45.76207" lon="4.81289">
        <ele>332.3</ele>
        <time>2018-11-18T10:10:17Z</time>
      </trkpt>
      <trkpt lat="45.76198" lon="4.8129">
        <ele>332.8</ele>
        <time>2018-11-18T10:10:21Z</time>
      </trkpt>
      <trkpt lat="45.7619" lon="4.81291">
        <ele>333.2</ele>
        <time>2018-11-18T10:10:25Z</time>
      </trkpt>
      <trkpt lat="45.76181" lon="4.8129">
        <ele>333.7</ele>
        <time>2018-11-18T10:10:30Z</time>
      </trkpt>
      <trkpt lat="45.76172" lon="4.81288">
        <ele>333.9</ele>
        <time>2018-11-18T10:10:35Z</time>
      </trkpt>
      <trkpt lat="45.76167" lon="4.81279">
        <ele>334.1</ele>
        <time>2018-11-18T10:10:40Z</time>
      </trkpt>
      <trkpt lat="45.76162" lon="4.8127">
        <ele>334.3</ele>
        <time>2018-11-18T10:10:44Z</time>
      </trkpt>
      <trkpt lat="45.76157" lon="4.81262">
        <ele>334.5</ele>
        <time>2018-11-18T10:10:47Z</time>
      </trkpt>
      <trkpt lat="45.76152" lon="4.81254">
        <ele>334.7</ele>
        <time>2018-11-18T10:10:50Z</time>
      </trkpt>
      <trkpt lat="45.76148" lon="4.81245">
        <ele>334.9</ele>
        <time>2018-11-18T10:10:53Z</time>
      </trkpt>
      <trkpt lat="45.76144" lon="4.81236">
        <ele>335.3</ele>
        <time>2018-11-18T10:10:57Z</time>
      </trkpt>
      <trkpt lat="45.76137" lon="4.81231">
        <ele>335.7</ele>
        <time>2018-11-18T10:11:01Z</time>
      </trkpt>
      <trkpt lat="45.76129" lon="4.81229">
        <ele>336.3</ele>
        <time>2018-11-18T10:11:05Z</time>
      </trkpt>
      <trkpt lat="45.76122" lon="4.81228">
        <ele>336.8</ele>
        <time>2018-11-18T10:11:09Z</time>
      </trkpt>
      <trkpt lat="45.76114" lon="4.81227">
        <ele>337.4</ele>
        <time>2018-11-18T10:11:13Z</time>
      </trkpt>
      <trkpt lat="45.76106" lon="4.81227">
        <ele>337.9</ele>
        <time>2018-11-18T10:11:17Z</time>
      </trkpt>
      <trkpt lat="45.76098" lon="4.8123">
        <ele>338.4</ele>
        <time>2018-11-18T10:11:21Z</time>
      </trkpt>
      <trkpt lat="45.7609" lon="4.81234">
        <ele>338.9</ele>
        <time>2018-11-18T10:11:26Z</time>
      </trkpt>
      <trkpt lat="45.76084" lon="4.81241">
        <ele>339.2</ele>
        <time>2018-11-18T10:11:30Z</time>
      </trkpt>
      <trkpt lat="45.76077" lon="4.81247">
        <ele>339.4</ele>
        <time>2018-11-18T10:11:34Z</time>
      </trkpt>
      <trkpt lat="45.7607" lon="4.81254">
        <ele>339.6</ele>
        <time>2018-11-18T10:11:38Z</time>
      </trkpt>
      <trkpt lat="45.76063" lon="4.81257">
        <ele>339.8</ele>
        <time>2018-11-18T10:11:42Z</time>
      </trkpt>
      <trkpt lat="45.76056" lon="4.81261">
        <ele>340</ele>
        <time>2018-11-18T10:11:47Z</time>
      </trkpt>
      <trkpt lat="45.76049" lon="4.81264">
        <ele>340.1</ele>
        <time>2018-11-18T10:11:51Z</time>
      </trkpt>
      <trkpt lat="45.76041" lon="4.81269">
        <ele>340</ele>
        <time>2018-11-18T10:11:56Z</time>
      </trkpt>
      <trkpt lat="45.76034" lon="4.81274">
        <ele>339.9</ele>
        <time>2018-11-18T10:12:00Z</time>
      </trkpt>
      <trkpt lat="45.76027" lon="4.81279">
        <ele>339.9</ele>
        <time>2018-11-18T10:12:04Z</time>
      </trkpt>
      <trkpt lat="45.76021" lon="4.81284">
        <ele>339.8</ele>
        <time>2018-11-18T10:12:08Z</time>
      </trkpt>
      <trkpt lat="45.76013" lon="4.81289">
        <ele>339.6</ele>
        <time>2018-11-18T10:12:13Z</time>
      </trkpt>
      <trkpt lat="45.76006" lon="4.81293">
        <ele>339.4</ele>
        <time>2018-11-18T10:12:18Z</time>
      </trkpt>
      <trkpt lat="45.75998" lon="4.81296">
        <ele>339.2</ele>
        <time>2018-11-18T10:12:23Z</time>
      </trkpt>
      <trkpt lat="45.75991" lon="4.81302">
        <ele>339</ele>
        <time>2018-11-18T10:12:28Z</time>
      </trkpt>
      <trkpt lat="45.75985" lon="4.8131">
        <ele>338.9</ele>
        <time>2018-11-18T10:12:32Z</time>
      </trkpt>
      <trkpt lat="45.7598" lon="4.81319">
        <ele>338.9</ele>
        <time>2018-11-18T10:12:37Z</time>
      </trkpt>
      <trkpt lat="45.75973" lon="4.81325">
        <ele>339</ele>
        <time>2018-11-18T10:12:41Z</time>
      </trkpt>
      <trkpt lat="45.75965" lon="4.81332">
        <ele>339.1</ele>
        <time>2018-11-18T10:12:44Z</time>
      </trkpt>
      <trkpt lat="45.75962" lon="4.81342">
        <ele>339.3</ele>
        <time>2018-11-18T10:12:46Z</time>
      </trkpt>
      <trkpt lat="45.75958" lon="4.81353">
        <ele>339.6</ele>
        <time>2018-11-18T10:12:49Z</time>
      </trkpt>
      <trkpt lat="45.75954" lon="4.81364">
        <ele>340.2</ele>
        <time>2018-11-18T10:12:54Z</time>
      </trkpt>
      <trkpt lat="45.7595" lon="4.81374">
        <ele>340.8</ele>
        <time>2018-11-18T10:12:58Z</time>
      </trkpt>
      <trkpt lat="45.75944" lon="4.81382">
        <ele>341.2</ele>
        <time>2018-11-18T10:13:02Z</time>
      </trkpt>
      <trkpt lat="45.75938" lon="4.81389">
        <ele>341.3</ele>
        <time>2018-11-18T10:13:06Z</time>
      </trkpt>
      <trkpt lat="45.75933" lon="4.81399">
        <ele>341.3</ele>
        <time>2018-11-18T10:13:10Z</time>
      </trkpt>
      <trkpt lat="45.75929" lon="4.8141">
        <ele>341.7</ele>
        <time>2018-11-18T10:13:15Z</time>
      </trkpt>
      <trkpt lat="45.75921" lon="4.81416">
        <ele>341.9</ele>
        <time>2018-11-18T10:13:19Z</time>
      </trkpt>
      <trkpt lat="45.75913" lon="4.81421">
        <ele>342.1</ele>
        <time>2018-11-18T10:13:23Z</time>
      </trkpt>
      <trkpt lat="45.75907" lon="4.81427">
        <ele>342.2</ele>
        <time>2018-11-18T10:13:27Z</time>
      </trkpt>
      <trkpt lat="45.75901" lon="4.81434">
        <ele>342.2</ele>
        <time>2018-11-18T10:13:31Z</time>
      </trkpt>
      <trkpt lat="45.75896" lon="4.81442">
        <ele>342.2</ele>
        <time>2018-11-18T10:13:35Z</time>
      </trkpt>
      <trkpt lat="45.75891" lon="4.81451">
        <ele>342.2</ele>
        <time>2018-11-18T10:13:39Z</time>
      </trkpt>
      <trkpt lat="45.75886" lon="4.81462">
        <ele>342.2</ele>
        <time>2018-11-18T10:13:43Z</time>
      </trkpt>
      <trkpt lat="45.75886" lon="4.81474">
        <ele>342</ele>
        <time>2018-11-18T10:13:47Z</time>
      </trkpt>
      <trkpt lat="45.75879" lon="4.81469">
        <ele>341.5</ele>
        <time>2018-11-18T10:13:54Z</time>
      </trkpt>
      <trkpt lat="45.75873" lon="4.81464">
        <ele>341</ele>
        <time>2018-11-18T10:13:59Z</time>
      </trkpt>
      <trkpt lat="45.75866" lon="4.81457">
        <ele>340.3</ele>
        <time>2018-11-18T10:14:05Z</time>
      </trkpt>
      <trkpt lat="45.7586" lon="4.8145">
        <ele>339.5</ele>
        <time>2018-11-18T10:14:10Z</time>
      </trkpt>
      <trkpt lat="45.75855" lon="4.81444">
        <ele>338.3</ele>
        <time>2018-11-18T10:14:17Z</time>
      </trkpt>
      <trkpt lat="45.75849" lon="4.81436">
        <ele>336.8</ele>
        <time>2018-11-18T10:14:24Z</time>
      </trkpt>
      <trkpt lat="45.75843" lon="4.81429">
        <ele>335.7</ele>
        <time>2018-11-18T10:14:29Z</time>
      </trkpt>
      <trkpt lat="45.75837" lon="4.81421">
        <ele>334.8</ele>
        <time>2018-11-18T10:14:33Z</time>
      </trkpt>
      <trkpt lat="45.75831" lon="4.81415">
        <ele>333.9</ele>
        <time>2018-11-18T10:14:37Z</time>
      </trkpt>
      <trkpt lat="45.75824" lon="4.81408">
        <ele>332.8</ele>
        <time>2018-11-18T10:14:42Z</time>
      </trkpt>
      <trkpt lat="45.75818" lon="4.81402">
        <ele>331.9</ele>
        <time>2018-11-18T10:14:46Z</time>
      </trkpt>
      <trkpt lat="45.75811" lon="4.81397">
        <ele>330.7</ele>
        <time>2018-11-18T10:14:51Z</time>
      </trkpt>
      <trkpt lat="45.75806" lon="4.81389">
        <ele>329.4</ele>
        <time>2018-11-18T10:14:57Z</time>
      </trkpt>
      <trkpt lat="45.75807" lon="4.81379">
        <ele>328.1</ele>
        <time>2018-11-18T10:15:04Z</time>
      </trkpt>
      <trkpt lat="45.75813" lon="4.81371">
        <ele>327.5</ele>
        <time>2018-11-18T10:15:07Z</time>
      </trkpt>
      <trkpt lat="45.75819" lon="4.81363">
        <ele>326.7</ele>
        <time>2018-11-18T10:15:11Z</time>
      </trkpt>
      <trkpt lat="45.75825" lon="4.81352">
        <ele>325.9</ele>
        <time>2018-11-18T10:15:15Z</time>
      </trkpt>
      <trkpt lat="45.7583" lon="4.8134">
        <ele>325</ele>
        <time>2018-11-18T10:15:19Z</time>
      </trkpt>
      <trkpt lat="45.75833" lon="4.8133">
        <ele>324.4</ele>
        <time>2018-11-18T10:15:23Z</time>
      </trkpt>
      <trkpt lat="45.75839" lon="4.81322">
        <ele>324.1</ele>
        <time>2018-11-18T10:15:26Z</time>
      </trkpt>
      <trkpt lat="45.75844" lon="4.81312">
        <ele>323.6</ele>
        <time>2018-11-18T10:15:30Z</time>
      </trkpt>
      <trkpt lat="45.75849" lon="4.81301">
        <ele>323.2</ele>
        <time>2018-11-18T10:15:34Z</time>
      </trkpt>
      <trkpt lat="45.75854" lon="4.81292">
        <ele>322.7</ele>
        <time>2018-11-18T10:15:38Z</time>
      </trkpt>
      <trkpt lat="45.75858" lon="4.81281">
        <ele>322.2</ele>
        <time>2018-11-18T10:15:42Z</time>
      </trkpt>
      <trkpt lat="45.75862" lon="4.81271">
        <ele>321.6</ele>
        <time>2018-11-18T10:15:46Z</time>
      </trkpt>
      <trkpt lat="45.75864" lon="4.81261">
        <ele>320.9</ele>
        <time>2018-11-18T10:15:50Z</time>
      </trkpt>
      <trkpt lat="45.75868" lon="4.8125">
        <ele>320.3</ele>
        <time>2018-11-18T10:15:54Z</time>
      </trkpt>
      <trkpt lat="45.75872" lon="4.81239">
        <ele>319.6</ele>
        <time>2018-11-18T10:15:58Z</time>
      </trkpt>
      <trkpt lat="45.75875" lon="4.81227">
        <ele>318.8</ele>
        <time>2018-11-18T10:16:02Z</time>
      </trkpt>
      <trkpt lat="45.75876" lon="4.81216">
        <ele>318</ele>
        <time>2018-11-18T10:16:06Z</time>
      </trkpt>
      <trkpt lat="45.75877" lon="4.81205">
        <ele>317.1</ele>
        <time>2018-11-18T10:16:10Z</time>
      </trkpt>
      <trkpt lat="45.75876" lon="4.81194">
        <ele>316.1</ele>
        <time>2018-11-18T10:16:14Z</time>
      </trkpt>
      <trkpt lat="45.75875" lon="4.81181">
        <ele>315.1</ele>
        <time>2018-11-18T10:16:18Z</time>
      </trkpt>
      <trkpt lat="45.75878" lon="4.81171">
        <ele>314.1</ele>
        <time>2018-11-18T10:16:22Z</time>
      </trkpt>
      <trkpt lat="45.75878" lon="4.81158">
        <ele>312.7</ele>
        <time>2018-11-18T10:16:27Z</time>
      </trkpt>
      <trkpt lat="45.7588" lon="4.81147">
        <ele>311.7</ele>
        <time>2018-11-18T10:16:31Z</time>
      </trkpt>
      <trkpt lat="45.75882" lon="4.81137">
        <ele>310.7</ele>
        <time>2018-11-18T10:16:35Z</time>
      </trkpt>
      <trkpt lat="45.75882" lon="4.81123">
        <ele>309.8</ele>
        <time>2018-11-18T10:16:39Z</time>
      </trkpt>
      <trkpt lat="45.75883" lon="4.81111">
        <ele>309.5</ele>
        <time>2018-11-18T10:16:42Z</time>
      </trkpt>
      <trkpt lat="45.75884" lon="4.81098">
        <ele>309.3</ele>
        <time>2018-11-18T10:16:46Z</time>
      </trkpt>
      <trkpt lat="45.75885" lon="4.81086">
        <ele>309.1</ele>
        <time>2018-11-18T10:16:50Z</time>
      </trkpt>
      <trkpt lat="45.75888" lon="4.81076">
        <ele>308.8</ele>
        <time>2018-11-18T10:16:54Z</time>
      </trkpt>
      <trkpt lat="45.75891" lon="4.81065">
        <ele>308.3</ele>
        <time>2018-11-18T10:16:58Z</time>
      </trkpt>
      <trkpt lat="45.75891" lon="4.81054">
        <ele>307.8</ele>
        <time>2018-11-18T10:17:02Z</time>
      </trkpt>
      <trkpt lat="45.75893" lon="4.81042">
        <ele>307.3</ele>
        <time>2018-11-18T10:17:05Z</time>
      </trkpt>
      <trkpt lat="45.75894" lon="4.81032">
        <ele>306.7</ele>
        <time>2018-11-18T10:17:09Z</time>
      </trkpt>
      <trkpt lat="45.75895" lon="4.8102">
        <ele>306</ele>
        <time>2018-11-18T10:17:13Z</time>
      </trkpt>
      <trkpt lat="45.75896" lon="4.81009">
        <ele>305.6</ele>
        <time>2018-11-18T10:17:16Z</time>
      </trkpt>
      <trkpt lat="45.75901" lon="4.80999">
        <ele>305.1</ele>
        <time>2018-11-18T10:17:19Z</time>
      </trkpt>
      <trkpt lat="45.75905" lon="4.80988">
        <ele>304.4</ele>
        <time>2018-11-18T10:17:23Z</time>
      </trkpt>
      <trkpt lat="45.75906" lon="4.80977">
        <ele>304</ele>
        <time>2018-11-18T10:17:26Z</time>
      </trkpt>
      <trkpt lat="45.75908" lon="4.80965">
        <ele>303.6</ele>
        <time>2018-11-18T10:17:30Z</time>
      </trkpt>
      <trkpt lat="45.75911" lon="4.80953">
        <ele>303.2</ele>
        <time>2018-11-18T10:17:35Z</time>
      </trkpt>
      <trkpt lat="45.75915" lon="4.80943">
        <ele>302.9</ele>
        <time>2018-11-18T10:17:39Z</time>
      </trkpt>
      <trkpt lat="45.75918" lon="4.80932">
        <ele>302.8</ele>
        <time>2018-11-18T10:17:43Z</time>
      </trkpt>
      <trkpt lat="45.75922" lon="4.80922">
        <ele>302.7</ele>
        <time>2018-11-18T10:17:47Z</time>
      </trkpt>
      <trkpt lat="45.75925" lon="4.80909">
        <ele>302.3</ele>
        <time>2018-11-18T10:17:52Z</time>
      </trkpt>
      <trkpt lat="45.75929" lon="4.809">
        <ele>302.2</ele>
        <time>2018-11-18T10:17:55Z</time>
      </trkpt>
      <trkpt lat="45.75931" lon="4.8089">
        <ele>302</ele>
        <time>2018-11-18T10:17:58Z</time>
      </trkpt>
      <trkpt lat="45.75934" lon="4.80879">
        <ele>301.8</ele>
        <time>2018-11-18T10:18:01Z</time>
      </trkpt>
      <trkpt lat="45.75936" lon="4.80869">
        <ele>301.6</ele>
        <time>2018-11-18T10:18:05Z</time>
      </trkpt>
      <trkpt lat="45.75941" lon="4.80858">
        <ele>301.5</ele>
        <time>2018-11-18T10:18:09Z</time>
      </trkpt>
      <trkpt lat="45.75946" lon="4.80846">
        <ele>301.5</ele>
        <time>2018-11-18T10:18:13Z</time>
      </trkpt>
      <trkpt lat="45.75949" lon="4.80834">
        <ele>301.5</ele>
        <time>2018-11-18T10:18:18Z</time>
      </trkpt>
      <trkpt lat="45.75952" lon="4.80821">
        <ele>301.7</ele>
        <time>2018-11-18T10:18:23Z</time>
      </trkpt>
      <trkpt lat="45.75954" lon="4.8081">
        <ele>301.7</ele>
        <time>2018-11-18T10:18:26Z</time>
      </trkpt>
      <trkpt lat="45.75956" lon="4.80798">
        <ele>301.8</ele>
        <time>2018-11-18T10:18:30Z</time>
      </trkpt>
      <trkpt lat="45.7596" lon="4.80787">
        <ele>301.8</ele>
        <time>2018-11-18T10:18:34Z</time>
      </trkpt>
      <trkpt lat="45.75961" lon="4.80776">
        <ele>301.7</ele>
        <time>2018-11-18T10:18:37Z</time>
      </trkpt>
      <trkpt lat="45.75964" lon="4.80764">
        <ele>301.6</ele>
        <time>2018-11-18T10:18:41Z</time>
      </trkpt>
      <trkpt lat="45.75968" lon="4.80752">
        <ele>301.6</ele>
        <time>2018-11-18T10:18:45Z</time>
      </trkpt>
      <trkpt lat="45.7597" lon="4.80741">
        <ele>301.6</ele>
        <time>2018-11-18T10:18:49Z</time>
      </trkpt>
      <trkpt lat="45.75973" lon="4.80732">
        <ele>301.5</ele>
        <time>2018-11-18T10:18:53Z</time>
      </trkpt>
      <trkpt lat="45.75976" lon="4.8072">
        <ele>301.5</ele>
        <time>2018-11-18T10:18:57Z</time>
      </trkpt>
      <trkpt lat="45.75979" lon="4.8071">
        <ele>301.6</ele>
        <time>2018-11-18T10:19:00Z</time>
      </trkpt>
      <trkpt lat="45.75982" lon="4.80698">
        <ele>301.5</ele>
        <time>2018-11-18T10:19:04Z</time>
      </trkpt>
      <trkpt lat="45.75986" lon="4.80688">
        <ele>301.4</ele>
        <time>2018-11-18T10:19:08Z</time>
      </trkpt>
      <trkpt lat="45.75991" lon="4.80679">
        <ele>301.3</ele>
        <time>2018-11-18T10:19:12Z</time>
      </trkpt>
      <trkpt lat="45.75995" lon="4.80669">
        <ele>301</ele>
        <time>2018-11-18T10:19:16Z</time>
      </trkpt>
      <trkpt lat="45.75999" lon="4.80659">
        <ele>300.8</ele>
        <time>2018-11-18T10:19:20Z</time>
      </trkpt>
      <trkpt lat="45.76003" lon="4.80647">
        <ele>300.7</ele>
        <time>2018-11-18T10:19:24Z</time>
      </trkpt>
      <trkpt lat="45.76007" lon="4.80637">
        <ele>300.6</ele>
        <time>2018-11-18T10:19:27Z</time>
      </trkpt>
      <trkpt lat="45.7601" lon="4.80625">
        <ele>300.6</ele>
        <time>2018-11-18T10:19:31Z</time>
      </trkpt>
      <trkpt lat="45.76013" lon="4.80615">
        <ele>300.7</ele>
        <time>2018-11-18T10:19:35Z</time>
      </trkpt>
      <trkpt lat="45.76015" lon="4.80605">
        <ele>300.7</ele>
        <time>2018-11-18T10:19:39Z</time>
      </trkpt>
      <trkpt lat="45.76016" lon="4.80593">
        <ele>300.8</ele>
        <time>2018-11-18T10:19:43Z</time>
      </trkpt>
      <trkpt lat="45.76015" lon="4.8058">
        <ele>300.9</ele>
        <time>2018-11-18T10:19:47Z</time>
      </trkpt>
      <trkpt lat="45.76017" lon="4.80568">
        <ele>300.7</ele>
        <time>2018-11-18T10:19:52Z</time>
      </trkpt>
      <trkpt lat="45.7602" lon="4.80556">
        <ele>300.5</ele>
        <time>2018-11-18T10:19:56Z</time>
      </trkpt>
      <trkpt lat="45.76022" lon="4.80545">
        <ele>300.3</ele>
        <time>2018-11-18T10:19:59Z</time>
      </trkpt>
      <trkpt lat="45.76027" lon="4.80534">
        <ele>299.9</ele>
        <time>2018-11-18T10:20:03Z</time>
      </trkpt>
      <trkpt lat="45.76032" lon="4.80527">
        <ele>299.5</ele>
        <time>2018-11-18T10:20:06Z</time>
      </trkpt>
      <trkpt lat="45.76035" lon="4.80516">
        <ele>299.2</ele>
        <time>2018-11-18T10:20:10Z</time>
      </trkpt>
      <trkpt lat="45.76041" lon="4.80506">
        <ele>298.8</ele>
        <time>2018-11-18T10:20:15Z</time>
      </trkpt>
      <trkpt lat="45.76047" lon="4.80497">
        <ele>298.7</ele>
        <time>2018-11-18T10:20:19Z</time>
      </trkpt>
      <trkpt lat="45.76052" lon="4.8049">
        <ele>298.5</ele>
        <time>2018-11-18T10:20:22Z</time>
      </trkpt>
      <trkpt lat="45.76056" lon="4.80481">
        <ele>298.3</ele>
        <time>2018-11-18T10:20:25Z</time>
      </trkpt>
      <trkpt lat="45.76061" lon="4.80472">
        <ele>297.9</ele>
        <time>2018-11-18T10:20:30Z</time>
      </trkpt>
      <trkpt lat="45.76066" lon="4.80462">
        <ele>297.4</ele>
        <time>2018-11-18T10:20:35Z</time>
      </trkpt>
      <trkpt lat="45.76071" lon="4.80455">
        <ele>296.9</ele>
        <time>2018-11-18T10:20:39Z</time>
      </trkpt>
      <trkpt lat="45.7608" lon="4.80453">
        <ele>296.1</ele>
        <time>2018-11-18T10:20:46Z</time>
      </trkpt>
      <trkpt lat="45.76088" lon="4.80458">
        <ele>295.6</ele>
        <time>2018-11-18T10:20:51Z</time>
      </trkpt>
      <trkpt lat="45.76096" lon="4.80459">
        <ele>295.1</ele>
        <time>2018-11-18T10:20:55Z</time>
      </trkpt>
      <trkpt lat="45.76105" lon="4.80462">
        <ele>294.3</ele>
        <time>2018-11-18T10:20:59Z</time>
      </trkpt>
      <trkpt lat="45.76113" lon="4.80463">
        <ele>293.4</ele>
        <time>2018-11-18T10:21:03Z</time>
      </trkpt>
      <trkpt lat="45.76122" lon="4.80463">
        <ele>292.3</ele>
        <time>2018-11-18T10:21:07Z</time>
      </trkpt>
      <trkpt lat="45.76131" lon="4.80463">
        <ele>291.3</ele>
        <time>2018-11-18T10:21:11Z</time>
      </trkpt>
      <trkpt lat="45.7614" lon="4.80461">
        <ele>290.6</ele>
        <time>2018-11-18T10:21:14Z</time>
      </trkpt>
      <trkpt lat="45.76149" lon="4.8046">
        <ele>289.8</ele>
        <time>2018-11-18T10:21:18Z</time>
      </trkpt>
      <trkpt lat="45.76157" lon="4.80462">
        <ele>288.8</ele>
        <time>2018-11-18T10:21:23Z</time>
      </trkpt>
      <trkpt lat="45.76164" lon="4.80456">
        <ele>288</ele>
        <time>2018-11-18T10:21:27Z</time>
      </trkpt>
      <trkpt lat="45.76174" lon="4.80453">
        <ele>287.4</ele>
        <time>2018-11-18T10:21:31Z</time>
      </trkpt>
      <trkpt lat="45.76181" lon="4.80451">
        <ele>286.9</ele>
        <time>2018-11-18T10:21:34Z</time>
      </trkpt>
      <trkpt lat="45.76188" lon="4.80447">
        <ele>286.5</ele>
        <time>2018-11-18T10:21:37Z</time>
      </trkpt>
      <trkpt lat="45.76196" lon="4.80443">
        <ele>286.2</ele>
        <time>2018-11-18T10:21:41Z</time>
      </trkpt>
      <trkpt lat="45.76205" lon="4.8044">
        <ele>286</ele>
        <time>2018-11-18T10:21:45Z</time>
      </trkpt>
      <trkpt lat="45.76214" lon="4.80438">
        <ele>286</ele>
        <time>2018-11-18T10:21:49Z</time>
      </trkpt>
      <trkpt lat="45.7622" lon="4.80434">
        <ele>286</ele>
        <time>2018-11-18T10:21:52Z</time>
      </trkpt>
      <trkpt lat="45.76229" lon="4.80431">
        <ele>285.8</ele>
        <time>2018-11-18T10:21:56Z</time>
      </trkpt>
      <trkpt lat="45.76236" lon="4.80427">
        <ele>285.7</ele>
        <time>2018-11-18T10:22:00Z</time>
      </trkpt>
      <trkpt lat="45.76243" lon="4.80422">
        <ele>285.6</ele>
        <time>2018-11-18T10:22:04Z</time>
      </trkpt>
      <trkpt lat="45.76252" lon="4.80416">
        <ele>285.4</ele>
        <time>2018-11-18T10:22:08Z</time>
      </trkpt>
      <trkpt lat="45.76261" lon="4.80413">
        <ele>285.2</ele>
        <time>2018-11-18T10:22:12Z</time>
      </trkpt>
      <trkpt lat="45.76269" lon="4.8041">
        <ele>285</ele>
        <time>2018-11-18T10:22:15Z</time>
      </trkpt>
      <trkpt lat="45.76276" lon="4.80406">
        <ele>284.7</ele>
        <time>2018-11-18T10:22:19Z</time>
      </trkpt>
      <trkpt lat="45.76284" lon="4.80402">
        <ele>284.4</ele>
        <time>2018-11-18T10:22:23Z</time>
      </trkpt>
      <trkpt lat="45.76291" lon="4.80399">
        <ele>284.2</ele>
        <time>2018-11-18T10:22:26Z</time>
      </trkpt>
      <trkpt lat="45.76299" lon="4.80394">
        <ele>283.8</ele>
        <time>2018-11-18T10:22:30Z</time>
      </trkpt>
      <trkpt lat="45.76307" lon="4.8039">
        <ele>283.5</ele>
        <time>2018-11-18T10:22:34Z</time>
      </trkpt>
      <trkpt lat="45.76316" lon="4.8039">
        <ele>283.1</ele>
        <time>2018-11-18T10:22:37Z</time>
      </trkpt>
      <trkpt lat="45.76323" lon="4.80387">
        <ele>282.6</ele>
        <time>2018-11-18T10:22:40Z</time>
      </trkpt>
      <trkpt lat="45.7633" lon="4.80382">
        <ele>281.9</ele>
        <time>2018-11-18T10:22:44Z</time>
      </trkpt>
      <trkpt lat="45.76338" lon="4.80377">
        <ele>281.3</ele>
        <time>2018-11-18T10:22:48Z</time>
      </trkpt>
      <trkpt lat="45.76348" lon="4.80371">
        <ele>280.8</ele>
        <time>2018-11-18T10:22:52Z</time>
      </trkpt>
      <trkpt lat="45.76356" lon="4.80371">
        <ele>280.5</ele>
        <time>2018-11-18T10:22:55Z</time>
      </trkpt>
      <trkpt lat="45.76363" lon="4.80364">
        <ele>280.1</ele>
        <time>2018-11-18T10:23:00Z</time>
      </trkpt>
      <trkpt lat="45.76369" lon="4.80358">
        <ele>279.9</ele>
        <time>2018-11-18T10:23:04Z</time>
      </trkpt>
      <trkpt lat="45.76376" lon="4.80352">
        <ele>279.6</ele>
        <time>2018-11-18T10:23:08Z</time>
      </trkpt>
      <trkpt lat="45.76384" lon="4.80349">
        <ele>279.4</ele>
        <time>2018-11-18T10:23:12Z</time>
      </trkpt>
      <trkpt lat="45.76393" lon="4.80346">
        <ele>279.1</ele>
        <time>2018-11-18T10:23:16Z</time>
      </trkpt>
      <trkpt lat="45.76401" lon="4.80341">
        <ele>279</ele>
        <time>2018-11-18T10:23:20Z</time>
      </trkpt>
      <trkpt lat="45.76409" lon="4.80337">
        <ele>279.1</ele>
        <time>2018-11-18T10:23:23Z</time>
      </trkpt>
      <trkpt lat="45.76416" lon="4.8033">
        <ele>278.9</ele>
        <time>2018-11-18T10:23:27Z</time>
      </trkpt>
      <trkpt lat="45.76423" lon="4.80322">
        <ele>278.4</ele>
        <time>2018-11-18T10:23:31Z</time>
      </trkpt>
      <trkpt lat="45.76428" lon="4.80313">
        <ele>277.8</ele>
        <time>2018-11-18T10:23:35Z</time>
      </trkpt>
      <trkpt lat="45.76434" lon="4.80304">
        <ele>277.1</ele>
        <time>2018-11-18T10:23:39Z</time>
      </trkpt>
      <trkpt lat="45.7644" lon="4.80296">
        <ele>276.4</ele>
        <time>2018-11-18T10:23:43Z</time>
      </trkpt>
      <trkpt lat="45.76446" lon="4.80288">
        <ele>275.8</ele>
        <time>2018-11-18T10:23:46Z</time>
      </trkpt>
      <trkpt lat="45.76453" lon="4.80279">
        <ele>275</ele>
        <time>2018-11-18T10:23:50Z</time>
      </trkpt>
      <trkpt lat="45.76459" lon="4.80271">
        <ele>273.7</ele>
        <time>2018-11-18T10:23:55Z</time>
      </trkpt>
      <trkpt lat="45.76464" lon="4.80259">
        <ele>272.2</ele>
        <time>2018-11-18T10:24:00Z</time>
      </trkpt>
      <trkpt lat="45.76469" lon="4.8025">
        <ele>271.3</ele>
        <time>2018-11-18T10:24:03Z</time>
      </trkpt>
      <trkpt lat="45.76474" lon="4.80241">
        <ele>270.3</ele>
        <time>2018-11-18T10:24:07Z</time>
      </trkpt>
      <trkpt lat="45.76478" lon="4.80228">
        <ele>269.5</ele>
        <time>2018-11-18T10:24:11Z</time>
      </trkpt>
      <trkpt lat="45.76482" lon="4.80218">
        <ele>268.8</ele>
        <time>2018-11-18T10:24:15Z</time>
      </trkpt>
      <trkpt lat="45.76484" lon="4.80206">
        <ele>268.1</ele>
        <time>2018-11-18T10:24:19Z</time>
      </trkpt>
      <trkpt lat="45.76487" lon="4.80195">
        <ele>267.5</ele>
        <time>2018-11-18T10:24:22Z</time>
      </trkpt>
      <trkpt lat="45.76489" lon="4.80184">
        <ele>266.9</ele>
        <time>2018-11-18T10:24:26Z</time>
      </trkpt>
      <trkpt lat="45.76494" lon="4.80174">
        <ele>266.4</ele>
        <time>2018-11-18T10:24:30Z</time>
      </trkpt>
      <trkpt lat="45.76498" lon="4.80163">
        <ele>266</ele>
        <time>2018-11-18T10:24:35Z</time>
      </trkpt>
      <trkpt lat="45.765" lon="4.80153">
        <ele>265.7</ele>
        <time>2018-11-18T10:24:39Z</time>
      </trkpt>
      <trkpt lat="45.76505" lon="4.80142">
        <ele>265.2</ele>
        <time>2018-11-18T10:24:43Z</time>
      </trkpt>
      <trkpt lat="45.76509" lon="4.80131">
        <ele>264.6</ele>
        <time>2018-11-18T10:24:47Z</time>
      </trkpt>
      <trkpt lat="45.7651" lon="4.80118">
        <ele>263.6</ele>
        <time>2018-11-18T10:24:52Z</time>
      </trkpt>
      <trkpt lat="45.76513" lon="4.80107">
        <ele>262.7</ele>
        <time>2018-11-18T10:24:56Z</time>
      </trkpt>
      <trkpt lat="45.76518" lon="4.80097">
        <ele>261.8</ele>
        <time>2018-11-18T10:25:00Z</time>
      </trkpt>
      <trkpt lat="45.76516" lon="4.80103">
        <ele>261.1</ele>
        <time>2018-11-18T10:25:07Z</time>
      </trkpt>
      <trkpt lat="45.76515" lon="4.80115">
        <ele>260.6</ele>
        <time>2018-11-18T10:25:11Z</time>
      </trkpt>
      <trkpt lat="45.76517" lon="4.80126">
        <ele>260.2</ele>
        <time>2018-11-18T10:25:15Z</time>
      </trkpt>
      <trkpt lat="45.76521" lon="4.80136">
        <ele>259.8</ele>
        <time>2018-11-18T10:25:19Z</time>
      </trkpt>
      <trkpt lat="45.76524" lon="4.80146">
        <ele>259.4</ele>
        <time>2018-11-18T10:25:23Z</time>
      </trkpt>
      <trkpt lat="45.76528" lon="4.80157">
        <ele>259</ele>
        <time>2018-11-18T10:25:28Z</time>
      </trkpt>
      <trkpt lat="45.76534" lon="4.80164">
        <ele>258.8</ele>
        <time>2018-11-18T10:25:32Z</time>
      </trkpt>
      <trkpt lat="45.76539" lon="4.80176">
        <ele>258.6</ele>
        <time>2018-11-18T10:25:37Z</time>
      </trkpt>
      <trkpt lat="45.76543" lon="4.80187">
        <ele>258.4</ele>
        <time>2018-11-18T10:25:41Z</time>
      </trkpt>
      <trkpt lat="45.76546" lon="4.80198">
        <ele>258.2</ele>
        <time>2018-11-18T10:25:45Z</time>
      </trkpt>
      <trkpt lat="45.76548" lon="4.80209">
        <ele>258.2</ele>
        <time>2018-11-18T10:25:48Z</time>
      </trkpt>
      <trkpt lat="45.7655" lon="4.80221">
        <ele>258.3</ele>
        <time>2018-11-18T10:25:52Z</time>
      </trkpt>
      <trkpt lat="45.76553" lon="4.80233">
        <ele>258.4</ele>
        <time>2018-11-18T10:25:56Z</time>
      </trkpt>
      <trkpt lat="45.76555" lon="4.80245">
        <ele>258.4</ele>
        <time>2018-11-18T10:26:00Z</time>
      </trkpt>
      <trkpt lat="45.76557" lon="4.80255">
        <ele>258.4</ele>
        <time>2018-11-18T10:26:04Z</time>
      </trkpt>
      <trkpt lat="45.76558" lon="4.80266">
        <ele>258.4</ele>
        <time>2018-11-18T10:26:08Z</time>
      </trkpt>
      <trkpt lat="45.76559" lon="4.80278">
        <ele>258.6</ele>
        <time>2018-11-18T10:26:12Z</time>
      </trkpt>
      <trkpt lat="45.76561" lon="4.80292">
        <ele>258.9</ele>
        <time>2018-11-18T10:26:16Z</time>
      </trkpt>
      <trkpt lat="45.76564" lon="4.80304">
        <ele>259.1</ele>
        <time>2018-11-18T10:26:20Z</time>
      </trkpt>
      <trkpt lat="45.76566" lon="4.80315">
        <ele>259.1</ele>
        <time>2018-11-18T10:26:24Z</time>
      </trkpt>
      <trkpt lat="45.76567" lon="4.80326">
        <ele>259.1</ele>
        <time>2018-11-18T10:26:27Z</time>
      </trkpt>
      <trkpt lat="45.76569" lon="4.80336">
        <ele>259.3</ele>
        <time>2018-11-18T10:26:31Z</time>
      </trkpt>
      <trkpt lat="45.76571" lon="4.80348">
        <ele>259.4</ele>
        <time>2018-11-18T10:26:35Z</time>
      </trkpt>
      <trkpt lat="45.76573" lon="4.8036">
        <ele>259.5</ele>
        <time>2018-11-18T10:26:39Z</time>
      </trkpt>
      <trkpt lat="45.76576" lon="4.8037">
        <ele>259.5</ele>
        <time>2018-11-18T10:26:43Z</time>
      </trkpt>
      <trkpt lat="45.7658" lon="4.80378">
        <ele>259.3</ele>
        <time>2018-11-18T10:26:47Z</time>
      </trkpt>
      <trkpt lat="45.76589" lon="4.8038">
        <ele>259</ele>
        <time>2018-11-18T10:26:52Z</time>
      </trkpt>
      <trkpt lat="45.76596" lon="4.8038">
        <ele>258.7</ele>
        <time>2018-11-18T10:26:56Z</time>
      </trkpt>
      <trkpt lat="45.76604" lon="4.8038">
        <ele>258.5</ele>
        <time>2018-11-18T10:27:00Z</time>
      </trkpt>
      <trkpt lat="45.76613" lon="4.80378">
        <ele>258.1</ele>
        <time>2018-11-18T10:27:04Z</time>
      </trkpt>
      <trkpt lat="45.76623" lon="4.80378">
        <ele>257.6</ele>
        <time>2018-11-18T10:27:08Z</time>
      </trkpt>
      <trkpt lat="45.76632" lon="4.80379">
        <ele>257.2</ele>
        <time>2018-11-18T10:27:12Z</time>
      </trkpt>
      <trkpt lat="45.76641" lon="4.80379">
        <ele>256.8</ele>
        <time>2018-11-18T10:27:16Z</time>
      </trkpt>
      <trkpt lat="45.7665" lon="4.80378">
        <ele>256.4</ele>
        <time>2018-11-18T10:27:20Z</time>
      </trkpt>
      <trkpt lat="45.76658" lon="4.80378">
        <ele>255.9</ele>
        <time>2018-11-18T10:27:24Z</time>
      </trkpt>
      <trkpt lat="45.76666" lon="4.80377">
        <ele>255.5</ele>
        <time>2018-11-18T10:27:28Z</time>
      </trkpt>
      <trkpt lat="45.76675" lon="4.80378">
        <ele>255</ele>
        <time>2018-11-18T10:27:32Z</time>
      </trkpt>
      <trkpt lat="45.76682" lon="4.80374">
        <ele>254.5</ele>
        <time>2018-11-18T10:27:36Z</time>
      </trkpt>
      <trkpt lat="45.76691" lon="4.80378">
        <ele>253.7</ele>
        <time>2018-11-18T10:27:40Z</time>
      </trkpt>
      <trkpt lat="45.76694" lon="4.80387">
        <ele>253.1</ele>
        <time>2018-11-18T10:27:43Z</time>
      </trkpt>
      <trkpt lat="45.76701" lon="4.80391">
        <ele>252.4</ele>
        <time>2018-11-18T10:27:48Z</time>
      </trkpt>
      <trkpt lat="45.76707" lon="4.80391">
        <ele>251.1</ele>
        <time>2018-11-18T10:27:55Z</time>
      </trkpt>
      <trkpt lat="45.76713" lon="4.80392">
        <ele>250.1</ele>
        <time>2018-11-18T10:28:02Z</time>
      </trkpt>
      <trkpt lat="45.76722" lon="4.8039">
        <ele>249.5</ele>
        <time>2018-11-18T10:28:08Z</time>
      </trkpt>
      <trkpt lat="45.7673" lon="4.80392">
        <ele>249.1</ele>
        <time>2018-11-18T10:28:13Z</time>
      </trkpt>
      <trkpt lat="45.76738" lon="4.80393">
        <ele>249</ele>
        <time>2018-11-18T10:28:16Z</time>
      </trkpt>
      <trkpt lat="45.76747" lon="4.80397">
        <ele>249.4</ele>
        <time>2018-11-18T10:28:21Z</time>
      </trkpt>
      <trkpt lat="45.76756" lon="4.80401">
        <ele>249.6</ele>
        <time>2018-11-18T10:28:24Z</time>
      </trkpt>
      <trkpt lat="45.76764" lon="4.80402">
        <ele>249.9</ele>
        <time>2018-11-18T10:28:28Z</time>
      </trkpt>
      <trkpt lat="45.76772" lon="4.80404">
        <ele>250.1</ele>
        <time>2018-11-18T10:28:32Z</time>
      </trkpt>
      <trkpt lat="45.7678" lon="4.80403">
        <ele>250.3</ele>
        <time>2018-11-18T10:28:38Z</time>
      </trkpt>
      <trkpt lat="45.76788" lon="4.80402">
        <ele>250.4</ele>
        <time>2018-11-18T10:28:42Z</time>
      </trkpt>
      <trkpt lat="45.76797" lon="4.80396">
        <ele>250.4</ele>
        <time>2018-11-18T10:28:45Z</time>
      </trkpt>
      <trkpt lat="45.76803" lon="4.80389">
        <ele>250.3</ele>
        <time>2018-11-18T10:28:47Z</time>
      </trkpt>
      <trkpt lat="45.76807" lon="4.80378">
        <ele>250.2</ele>
        <time>2018-11-18T10:28:51Z</time>
      </trkpt>
      <trkpt lat="45.7681" lon="4.80365">
        <ele>250.5</ele>
        <time>2018-11-18T10:28:55Z</time>
      </trkpt>
      <trkpt lat="45.76813" lon="4.80354">
        <ele>250.6</ele>
        <time>2018-11-18T10:28:58Z</time>
      </trkpt>
      <trkpt lat="45.76816" lon="4.80343">
        <ele>250.4</ele>
        <time>2018-11-18T10:29:02Z</time>
      </trkpt>
      <trkpt lat="45.76816" lon="4.80332">
        <ele>249.6</ele>
        <time>2018-11-18T10:29:06Z</time>
      </trkpt>
      <trkpt lat="45.76818" lon="4.80326">
        <ele>247.9</ele>
        <time>2018-11-18T10:29:13Z</time>
      </trkpt>
    </trkseg>
  </trk>
</gpx>